<?xml version="1.0" encoding="UTF-8" standalone="no" ?>
<gpx xmlns="http://www.topografix.com/GPX/1/1" xmlns:xsi="http://www.w3.org/2001/XMLSchema-instance" xsi:schemaLocation="http://www.topografix.com/GPX/1/1 http://www.topografix.com/GPX/1/1/gpx.xsd" version="1.1" creator="VisuGPX - https://www.visugpx.com">
  <metadata>
    <name>Rando à Sautron, Boucle Le Paty - Bon Garand </name>
    <desc><![CDATA[Superbe randonnée de 13,7 km entre Sautron et Orvault (44)]]></desc>
  </metadata>
  <trk>
    <name><![CDATA[Rando à Sautron, Boucle Le Paty - Bon Garand _1]]></name>
    <trkseg>
      <trkpt lat="47.2682" lon="-1.67118">
        <ele>39.5</ele>
        <time>2012-01-28T13:16:06Z</time>
      </trkpt>
      <trkpt lat="47.2682" lon="-1.67118">
        <ele>87</ele>
        <time>2012-01-28T13:17:31Z</time>
      </trkpt>
      <trkpt lat="47.26827" lon="-1.6712">
        <ele>89</ele>
        <time>2012-01-28T13:17:38Z</time>
      </trkpt>
      <trkpt lat="47.26834" lon="-1.67118">
        <ele>90</ele>
        <time>2012-01-28T13:17:43Z</time>
      </trkpt>
      <trkpt lat="47.26842" lon="-1.67122">
        <ele>89</ele>
        <time>2012-01-28T13:17:53Z</time>
      </trkpt>
      <trkpt lat="47.26847" lon="-1.6713">
        <ele>89</ele>
        <time>2012-01-28T13:17:57Z</time>
      </trkpt>
      <trkpt lat="47.26848" lon="-1.67139">
        <ele>89</ele>
        <time>2012-01-28T13:18:07Z</time>
      </trkpt>
      <trkpt lat="47.26854" lon="-1.67144">
        <ele>86</ele>
        <time>2012-01-28T13:18:18Z</time>
      </trkpt>
      <trkpt lat="47.26861" lon="-1.67145">
        <ele>83</ele>
        <time>2012-01-28T13:18:25Z</time>
      </trkpt>
      <trkpt lat="47.26871" lon="-1.67148">
        <ele>85</ele>
        <time>2012-01-28T13:18:35Z</time>
      </trkpt>
      <trkpt lat="47.26879" lon="-1.67151">
        <ele>86</ele>
        <time>2012-01-28T13:18:41Z</time>
      </trkpt>
      <trkpt lat="47.26888" lon="-1.6715">
        <ele>87</ele>
        <time>2012-01-28T13:18:46Z</time>
      </trkpt>
      <trkpt lat="47.26896" lon="-1.67134">
        <ele>84</ele>
        <time>2012-01-28T13:18:56Z</time>
      </trkpt>
      <trkpt lat="47.26901" lon="-1.67125">
        <ele>83</ele>
        <time>2012-01-28T13:19:01Z</time>
      </trkpt>
      <trkpt lat="47.26907" lon="-1.67088">
        <ele>82</ele>
        <time>2012-01-28T13:19:20Z</time>
      </trkpt>
      <trkpt lat="47.26908" lon="-1.67079">
        <ele>81</ele>
        <time>2012-01-28T13:19:25Z</time>
      </trkpt>
      <trkpt lat="47.2691" lon="-1.67068">
        <ele>82</ele>
        <time>2012-01-28T13:19:30Z</time>
      </trkpt>
      <trkpt lat="47.26911" lon="-1.67059">
        <ele>82</ele>
        <time>2012-01-28T13:19:37Z</time>
      </trkpt>
      <trkpt lat="47.26915" lon="-1.67046">
        <ele>82</ele>
        <time>2012-01-28T13:19:49Z</time>
      </trkpt>
      <trkpt lat="47.26921" lon="-1.67037">
        <ele>83</ele>
        <time>2012-01-28T13:19:53Z</time>
      </trkpt>
      <trkpt lat="47.26927" lon="-1.67008">
        <ele>84</ele>
        <time>2012-01-28T13:20:03Z</time>
      </trkpt>
      <trkpt lat="47.26931" lon="-1.6699">
        <ele>82</ele>
        <time>2012-01-28T13:20:10Z</time>
      </trkpt>
      <trkpt lat="47.26932" lon="-1.66979">
        <ele>84</ele>
        <time>2012-01-28T13:20:15Z</time>
      </trkpt>
      <trkpt lat="47.26937" lon="-1.6696">
        <ele>83</ele>
        <time>2012-01-28T13:20:26Z</time>
      </trkpt>
      <trkpt lat="47.26939" lon="-1.6695">
        <ele>84</ele>
        <time>2012-01-28T13:20:31Z</time>
      </trkpt>
      <trkpt lat="47.26944" lon="-1.66944">
        <ele>83</ele>
        <time>2012-01-28T13:20:35Z</time>
      </trkpt>
      <trkpt lat="47.26944" lon="-1.66935">
        <ele>83</ele>
        <time>2012-01-28T13:20:41Z</time>
      </trkpt>
      <trkpt lat="47.26938" lon="-1.66928">
        <ele>83</ele>
        <time>2012-01-28T13:20:44Z</time>
      </trkpt>
      <trkpt lat="47.26937" lon="-1.66919">
        <ele>83</ele>
        <time>2012-01-28T13:20:51Z</time>
      </trkpt>
      <trkpt lat="47.26932" lon="-1.66911">
        <ele>82</ele>
        <time>2012-01-28T13:20:55Z</time>
      </trkpt>
      <trkpt lat="47.2693" lon="-1.66902">
        <ele>83</ele>
        <time>2012-01-28T13:21:01Z</time>
      </trkpt>
      <trkpt lat="47.26929" lon="-1.66892">
        <ele>83</ele>
        <time>2012-01-28T13:21:06Z</time>
      </trkpt>
      <trkpt lat="47.26933" lon="-1.66885">
        <ele>83</ele>
        <time>2012-01-28T13:21:09Z</time>
      </trkpt>
      <trkpt lat="47.26934" lon="-1.66875">
        <ele>84</ele>
        <time>2012-01-28T13:21:14Z</time>
      </trkpt>
      <trkpt lat="47.26929" lon="-1.66857">
        <ele>80</ele>
        <time>2012-01-28T13:21:25Z</time>
      </trkpt>
      <trkpt lat="47.26925" lon="-1.66846">
        <ele>79</ele>
        <time>2012-01-28T13:21:28Z</time>
      </trkpt>
      <trkpt lat="47.26917" lon="-1.66839">
        <ele>79</ele>
        <time>2012-01-28T13:21:31Z</time>
      </trkpt>
      <trkpt lat="47.26914" lon="-1.6683">
        <ele>79</ele>
        <time>2012-01-28T13:21:38Z</time>
      </trkpt>
      <trkpt lat="47.26905" lon="-1.66815">
        <ele>84</ele>
        <time>2012-01-28T13:21:46Z</time>
      </trkpt>
      <trkpt lat="47.26898" lon="-1.66809">
        <ele>85</ele>
        <time>2012-01-28T13:21:51Z</time>
      </trkpt>
      <trkpt lat="47.26892" lon="-1.66804">
        <ele>87</ele>
        <time>2012-01-28T13:21:56Z</time>
      </trkpt>
      <trkpt lat="47.26886" lon="-1.668">
        <ele>86</ele>
        <time>2012-01-28T13:22:01Z</time>
      </trkpt>
      <trkpt lat="47.26876" lon="-1.66783">
        <ele>86</ele>
        <time>2012-01-28T13:22:09Z</time>
      </trkpt>
      <trkpt lat="47.26865" lon="-1.6677">
        <ele>85</ele>
        <time>2012-01-28T13:22:22Z</time>
      </trkpt>
      <trkpt lat="47.26856" lon="-1.66769">
        <ele>84</ele>
        <time>2012-01-28T13:22:25Z</time>
      </trkpt>
      <trkpt lat="47.26849" lon="-1.66765">
        <ele>84</ele>
        <time>2012-01-28T13:22:33Z</time>
      </trkpt>
      <trkpt lat="47.26837" lon="-1.66749">
        <ele>84</ele>
        <time>2012-01-28T13:22:41Z</time>
      </trkpt>
      <trkpt lat="47.26832" lon="-1.66743">
        <ele>85</ele>
        <time>2012-01-28T13:22:44Z</time>
      </trkpt>
      <trkpt lat="47.26826" lon="-1.66737">
        <ele>83</ele>
        <time>2012-01-28T13:22:47Z</time>
      </trkpt>
      <trkpt lat="47.26824" lon="-1.66728">
        <ele>82</ele>
        <time>2012-01-28T13:22:53Z</time>
      </trkpt>
      <trkpt lat="47.26818" lon="-1.66722">
        <ele>83</ele>
        <time>2012-01-28T13:22:58Z</time>
      </trkpt>
      <trkpt lat="47.26815" lon="-1.66713">
        <ele>85</ele>
        <time>2012-01-28T13:23:03Z</time>
      </trkpt>
      <trkpt lat="47.26811" lon="-1.66705">
        <ele>86</ele>
        <time>2012-01-28T13:23:08Z</time>
      </trkpt>
      <trkpt lat="47.26811" lon="-1.66694">
        <ele>87</ele>
        <time>2012-01-28T13:23:13Z</time>
      </trkpt>
      <trkpt lat="47.26806" lon="-1.66688">
        <ele>86</ele>
        <time>2012-01-28T13:23:18Z</time>
      </trkpt>
      <trkpt lat="47.26802" lon="-1.66679">
        <ele>86</ele>
        <time>2012-01-28T13:23:24Z</time>
      </trkpt>
      <trkpt lat="47.268" lon="-1.66669">
        <ele>88</ele>
        <time>2012-01-28T13:23:29Z</time>
      </trkpt>
      <trkpt lat="47.26797" lon="-1.66659">
        <ele>90</ele>
        <time>2012-01-28T13:23:34Z</time>
      </trkpt>
      <trkpt lat="47.2679" lon="-1.66651">
        <ele>88</ele>
        <time>2012-01-28T13:23:38Z</time>
      </trkpt>
      <trkpt lat="47.26786" lon="-1.66643">
        <ele>84</ele>
        <time>2012-01-28T13:23:42Z</time>
      </trkpt>
      <trkpt lat="47.26782" lon="-1.66636">
        <ele>85</ele>
        <time>2012-01-28T13:23:45Z</time>
      </trkpt>
      <trkpt lat="47.26781" lon="-1.66625">
        <ele>85</ele>
        <time>2012-01-28T13:23:50Z</time>
      </trkpt>
      <trkpt lat="47.26777" lon="-1.66617">
        <ele>84</ele>
        <time>2012-01-28T13:23:54Z</time>
      </trkpt>
      <trkpt lat="47.26773" lon="-1.66609">
        <ele>86</ele>
        <time>2012-01-28T13:23:59Z</time>
      </trkpt>
      <trkpt lat="47.26768" lon="-1.66603">
        <ele>86</ele>
        <time>2012-01-28T13:24:04Z</time>
      </trkpt>
      <trkpt lat="47.26762" lon="-1.66598">
        <ele>88</ele>
        <time>2012-01-28T13:24:09Z</time>
      </trkpt>
      <trkpt lat="47.26748" lon="-1.66603">
        <ele>88</ele>
        <time>2012-01-28T13:24:17Z</time>
      </trkpt>
      <trkpt lat="47.2674" lon="-1.666">
        <ele>89</ele>
        <time>2012-01-28T13:24:21Z</time>
      </trkpt>
      <trkpt lat="47.26731" lon="-1.66601">
        <ele>87</ele>
        <time>2012-01-28T13:24:32Z</time>
      </trkpt>
      <trkpt lat="47.26724" lon="-1.66602">
        <ele>86</ele>
        <time>2012-01-28T13:24:38Z</time>
      </trkpt>
      <trkpt lat="47.26719" lon="-1.66605">
        <ele>87</ele>
        <time>2012-01-28T13:24:44Z</time>
      </trkpt>
      <trkpt lat="47.26709" lon="-1.6659">
        <ele>86</ele>
        <time>2012-01-28T13:24:59Z</time>
      </trkpt>
      <trkpt lat="47.26703" lon="-1.66585">
        <ele>87</ele>
        <time>2012-01-28T13:25:03Z</time>
      </trkpt>
      <trkpt lat="47.26696" lon="-1.66585">
        <ele>87</ele>
        <time>2012-01-28T13:25:09Z</time>
      </trkpt>
      <trkpt lat="47.26691" lon="-1.66579">
        <ele>88</ele>
        <time>2012-01-28T13:25:18Z</time>
      </trkpt>
      <trkpt lat="47.26684" lon="-1.66573">
        <ele>89</ele>
        <time>2012-01-28T13:25:21Z</time>
      </trkpt>
      <trkpt lat="47.26681" lon="-1.66553">
        <ele>90</ele>
        <time>2012-01-28T13:25:29Z</time>
      </trkpt>
      <trkpt lat="47.26684" lon="-1.66544">
        <ele>92</ele>
        <time>2012-01-28T13:25:32Z</time>
      </trkpt>
      <trkpt lat="47.26678" lon="-1.66523">
        <ele>90</ele>
        <time>2012-01-28T13:25:40Z</time>
      </trkpt>
      <trkpt lat="47.26675" lon="-1.66514">
        <ele>89</ele>
        <time>2012-01-28T13:25:44Z</time>
      </trkpt>
      <trkpt lat="47.26669" lon="-1.66509">
        <ele>89</ele>
        <time>2012-01-28T13:25:48Z</time>
      </trkpt>
      <trkpt lat="47.26669" lon="-1.665">
        <ele>88</ele>
        <time>2012-01-28T13:26:01Z</time>
      </trkpt>
      <trkpt lat="47.26667" lon="-1.6649">
        <ele>88</ele>
        <time>2012-01-28T13:26:05Z</time>
      </trkpt>
      <trkpt lat="47.2667" lon="-1.6648">
        <ele>87</ele>
        <time>2012-01-28T13:26:09Z</time>
      </trkpt>
      <trkpt lat="47.26674" lon="-1.66472">
        <ele>86</ele>
        <time>2012-01-28T13:26:12Z</time>
      </trkpt>
      <trkpt lat="47.2667" lon="-1.66463">
        <ele>85</ele>
        <time>2012-01-28T13:26:17Z</time>
      </trkpt>
      <trkpt lat="47.26669" lon="-1.66454">
        <ele>85</ele>
        <time>2012-01-28T13:26:21Z</time>
      </trkpt>
      <trkpt lat="47.26658" lon="-1.66433">
        <ele>83</ele>
        <time>2012-01-28T13:26:34Z</time>
      </trkpt>
      <trkpt lat="47.26653" lon="-1.66425">
        <ele>83</ele>
        <time>2012-01-28T13:26:39Z</time>
      </trkpt>
      <trkpt lat="47.26651" lon="-1.66416">
        <ele>83</ele>
        <time>2012-01-28T13:26:44Z</time>
      </trkpt>
      <trkpt lat="47.26649" lon="-1.66405">
        <ele>81</ele>
        <time>2012-01-28T13:26:48Z</time>
      </trkpt>
      <trkpt lat="47.26642" lon="-1.664">
        <ele>80</ele>
        <time>2012-01-28T13:26:51Z</time>
      </trkpt>
      <trkpt lat="47.26641" lon="-1.66388">
        <ele>80</ele>
        <time>2012-01-28T13:26:56Z</time>
      </trkpt>
      <trkpt lat="47.2664" lon="-1.66378">
        <ele>79</ele>
        <time>2012-01-28T13:27:01Z</time>
      </trkpt>
      <trkpt lat="47.26641" lon="-1.6636">
        <ele>79</ele>
        <time>2012-01-28T13:27:09Z</time>
      </trkpt>
      <trkpt lat="47.26642" lon="-1.66348">
        <ele>80</ele>
        <time>2012-01-28T13:27:13Z</time>
      </trkpt>
      <trkpt lat="47.26641" lon="-1.66338">
        <ele>79</ele>
        <time>2012-01-28T13:27:19Z</time>
      </trkpt>
      <trkpt lat="47.26637" lon="-1.66329">
        <ele>79</ele>
        <time>2012-01-28T13:27:24Z</time>
      </trkpt>
      <trkpt lat="47.26635" lon="-1.66317">
        <ele>80</ele>
        <time>2012-01-28T13:27:30Z</time>
      </trkpt>
      <trkpt lat="47.2663" lon="-1.66309">
        <ele>81</ele>
        <time>2012-01-28T13:27:35Z</time>
      </trkpt>
      <trkpt lat="47.26628" lon="-1.66299">
        <ele>81</ele>
        <time>2012-01-28T13:27:40Z</time>
      </trkpt>
      <trkpt lat="47.26625" lon="-1.66289">
        <ele>80</ele>
        <time>2012-01-28T13:27:46Z</time>
      </trkpt>
      <trkpt lat="47.2662" lon="-1.66282">
        <ele>81</ele>
        <time>2012-01-28T13:27:51Z</time>
      </trkpt>
      <trkpt lat="47.2662" lon="-1.66272">
        <ele>81</ele>
        <time>2012-01-28T13:27:55Z</time>
      </trkpt>
      <trkpt lat="47.26616" lon="-1.66263">
        <ele>82</ele>
        <time>2012-01-28T13:28:00Z</time>
      </trkpt>
      <trkpt lat="47.26615" lon="-1.66243">
        <ele>81</ele>
        <time>2012-01-28T13:28:12Z</time>
      </trkpt>
      <trkpt lat="47.26612" lon="-1.66233">
        <ele>82</ele>
        <time>2012-01-28T13:28:16Z</time>
      </trkpt>
      <trkpt lat="47.26616" lon="-1.66222">
        <ele>82</ele>
        <time>2012-01-28T13:28:22Z</time>
      </trkpt>
      <trkpt lat="47.26621" lon="-1.66213">
        <ele>81</ele>
        <time>2012-01-28T13:28:28Z</time>
      </trkpt>
      <trkpt lat="47.26625" lon="-1.66204">
        <ele>80</ele>
        <time>2012-01-28T13:28:33Z</time>
      </trkpt>
      <trkpt lat="47.26619" lon="-1.66187">
        <ele>78</ele>
        <time>2012-01-28T13:28:42Z</time>
      </trkpt>
      <trkpt lat="47.26625" lon="-1.66179">
        <ele>77</ele>
        <time>2012-01-28T13:28:53Z</time>
      </trkpt>
      <trkpt lat="47.26628" lon="-1.66168">
        <ele>79</ele>
        <time>2012-01-28T13:28:56Z</time>
      </trkpt>
      <trkpt lat="47.26636" lon="-1.66169">
        <ele>80</ele>
        <time>2012-01-28T13:29:04Z</time>
      </trkpt>
      <trkpt lat="47.26642" lon="-1.66166">
        <ele>80</ele>
        <time>2012-01-28T13:29:09Z</time>
      </trkpt>
      <trkpt lat="47.26647" lon="-1.6616">
        <ele>80</ele>
        <time>2012-01-28T13:29:16Z</time>
      </trkpt>
      <trkpt lat="47.26645" lon="-1.66134">
        <ele>72</ele>
        <time>2012-01-28T13:29:24Z</time>
      </trkpt>
      <trkpt lat="47.26647" lon="-1.66125">
        <ele>74</ele>
        <time>2012-01-28T13:29:34Z</time>
      </trkpt>
      <trkpt lat="47.26613" lon="-1.66099">
        <ele>76</ele>
        <time>2012-01-28T13:30:50Z</time>
      </trkpt>
      <trkpt lat="47.26593" lon="-1.66088">
        <ele>77</ele>
        <time>2012-01-28T13:30:58Z</time>
      </trkpt>
      <trkpt lat="47.26579" lon="-1.66079">
        <ele>77</ele>
        <time>2012-01-28T13:31:04Z</time>
      </trkpt>
      <trkpt lat="47.26556" lon="-1.66043">
        <ele>78</ele>
        <time>2012-01-28T13:31:09Z</time>
      </trkpt>
      <trkpt lat="47.26558" lon="-1.66031">
        <ele>79</ele>
        <time>2012-01-28T13:31:13Z</time>
      </trkpt>
      <trkpt lat="47.26552" lon="-1.66027">
        <ele>80</ele>
        <time>2012-01-28T13:31:17Z</time>
      </trkpt>
      <trkpt lat="47.26547" lon="-1.66009">
        <ele>78</ele>
        <time>2012-01-28T13:31:26Z</time>
      </trkpt>
      <trkpt lat="47.26551" lon="-1.6599">
        <ele>78</ele>
        <time>2012-01-28T13:31:30Z</time>
      </trkpt>
      <trkpt lat="47.2655" lon="-1.65981">
        <ele>78</ele>
        <time>2012-01-28T13:31:34Z</time>
      </trkpt>
      <trkpt lat="47.26554" lon="-1.65974">
        <ele>77</ele>
        <time>2012-01-28T13:31:38Z</time>
      </trkpt>
      <trkpt lat="47.26532" lon="-1.65964">
        <ele>78</ele>
        <time>2012-01-28T13:31:42Z</time>
      </trkpt>
      <trkpt lat="47.26527" lon="-1.65959">
        <ele>78</ele>
        <time>2012-01-28T13:31:45Z</time>
      </trkpt>
      <trkpt lat="47.26521" lon="-1.65951">
        <ele>77</ele>
        <time>2012-01-28T13:31:54Z</time>
      </trkpt>
      <trkpt lat="47.2652" lon="-1.65919">
        <ele>76</ele>
        <time>2012-01-28T13:32:09Z</time>
      </trkpt>
      <trkpt lat="47.26526" lon="-1.65911">
        <ele>76</ele>
        <time>2012-01-28T13:32:16Z</time>
      </trkpt>
      <trkpt lat="47.26527" lon="-1.65817">
        <ele>78</ele>
        <time>2012-01-28T13:32:52Z</time>
      </trkpt>
      <trkpt lat="47.26515" lon="-1.65812">
        <ele>79</ele>
        <time>2012-01-28T13:32:57Z</time>
      </trkpt>
      <trkpt lat="47.26507" lon="-1.65805">
        <ele>79</ele>
        <time>2012-01-28T13:32:59Z</time>
      </trkpt>
      <trkpt lat="47.2651" lon="-1.65796">
        <ele>80</ele>
        <time>2012-01-28T13:33:04Z</time>
      </trkpt>
      <trkpt lat="47.2651" lon="-1.65785">
        <ele>81</ele>
        <time>2012-01-28T13:33:10Z</time>
      </trkpt>
      <trkpt lat="47.26509" lon="-1.65776">
        <ele>81</ele>
        <time>2012-01-28T13:33:14Z</time>
      </trkpt>
      <trkpt lat="47.26505" lon="-1.65766">
        <ele>82</ele>
        <time>2012-01-28T13:33:23Z</time>
      </trkpt>
      <trkpt lat="47.26513" lon="-1.6575">
        <ele>79</ele>
        <time>2012-01-28T13:33:33Z</time>
      </trkpt>
      <trkpt lat="47.2656" lon="-1.65721">
        <ele>81</ele>
        <time>2012-01-28T13:34:17Z</time>
      </trkpt>
      <trkpt lat="47.26567" lon="-1.65717">
        <ele>82</ele>
        <time>2012-01-28T13:34:21Z</time>
      </trkpt>
      <trkpt lat="47.26574" lon="-1.65714">
        <ele>83</ele>
        <time>2012-01-28T13:34:25Z</time>
      </trkpt>
      <trkpt lat="47.26582" lon="-1.65709">
        <ele>83</ele>
        <time>2012-01-28T13:34:29Z</time>
      </trkpt>
      <trkpt lat="47.26588" lon="-1.657">
        <ele>84</ele>
        <time>2012-01-28T13:34:34Z</time>
      </trkpt>
      <trkpt lat="47.2659" lon="-1.6569">
        <ele>86</ele>
        <time>2012-01-28T13:34:42Z</time>
      </trkpt>
      <trkpt lat="47.26595" lon="-1.65681">
        <ele>85</ele>
        <time>2012-01-28T13:34:45Z</time>
      </trkpt>
      <trkpt lat="47.2659" lon="-1.65673">
        <ele>85</ele>
        <time>2012-01-28T13:34:49Z</time>
      </trkpt>
      <trkpt lat="47.26594" lon="-1.65663">
        <ele>86</ele>
        <time>2012-01-28T13:34:54Z</time>
      </trkpt>
      <trkpt lat="47.26595" lon="-1.65653">
        <ele>86</ele>
        <time>2012-01-28T13:34:59Z</time>
      </trkpt>
      <trkpt lat="47.26594" lon="-1.65644">
        <ele>85</ele>
        <time>2012-01-28T13:35:04Z</time>
      </trkpt>
      <trkpt lat="47.26597" lon="-1.65633">
        <ele>85</ele>
        <time>2012-01-28T13:35:08Z</time>
      </trkpt>
      <trkpt lat="47.26595" lon="-1.65622">
        <ele>88</ele>
        <time>2012-01-28T13:35:14Z</time>
      </trkpt>
      <trkpt lat="47.26596" lon="-1.6561">
        <ele>87</ele>
        <time>2012-01-28T13:35:19Z</time>
      </trkpt>
      <trkpt lat="47.26588" lon="-1.65587">
        <ele>90</ele>
        <time>2012-01-28T13:35:35Z</time>
      </trkpt>
      <trkpt lat="47.26583" lon="-1.65579">
        <ele>92</ele>
        <time>2012-01-28T13:35:39Z</time>
      </trkpt>
      <trkpt lat="47.26582" lon="-1.6557">
        <ele>91</ele>
        <time>2012-01-28T13:35:43Z</time>
      </trkpt>
      <trkpt lat="47.26579" lon="-1.65559">
        <ele>91</ele>
        <time>2012-01-28T13:35:49Z</time>
      </trkpt>
      <trkpt lat="47.26576" lon="-1.6555">
        <ele>92</ele>
        <time>2012-01-28T13:35:54Z</time>
      </trkpt>
      <trkpt lat="47.2658" lon="-1.65543">
        <ele>92</ele>
        <time>2012-01-28T13:35:57Z</time>
      </trkpt>
      <trkpt lat="47.26576" lon="-1.6553">
        <ele>92</ele>
        <time>2012-01-28T13:36:03Z</time>
      </trkpt>
      <trkpt lat="47.26578" lon="-1.65521">
        <ele>92</ele>
        <time>2012-01-28T13:36:08Z</time>
      </trkpt>
      <trkpt lat="47.26573" lon="-1.65514">
        <ele>92</ele>
        <time>2012-01-28T13:36:13Z</time>
      </trkpt>
      <trkpt lat="47.26566" lon="-1.65492">
        <ele>93</ele>
        <time>2012-01-28T13:36:26Z</time>
      </trkpt>
      <trkpt lat="47.26562" lon="-1.65485">
        <ele>94</ele>
        <time>2012-01-28T13:36:30Z</time>
      </trkpt>
      <trkpt lat="47.26564" lon="-1.65473">
        <ele>94</ele>
        <time>2012-01-28T13:36:34Z</time>
      </trkpt>
      <trkpt lat="47.26563" lon="-1.65463">
        <ele>95</ele>
        <time>2012-01-28T13:36:41Z</time>
      </trkpt>
      <trkpt lat="47.26568" lon="-1.65456">
        <ele>96</ele>
        <time>2012-01-28T13:36:48Z</time>
      </trkpt>
      <trkpt lat="47.26569" lon="-1.65446">
        <ele>97</ele>
        <time>2012-01-28T13:36:52Z</time>
      </trkpt>
      <trkpt lat="47.26573" lon="-1.65438">
        <ele>98</ele>
        <time>2012-01-28T13:36:57Z</time>
      </trkpt>
      <trkpt lat="47.26578" lon="-1.65432">
        <ele>98</ele>
        <time>2012-01-28T13:37:00Z</time>
      </trkpt>
      <trkpt lat="47.26578" lon="-1.65422">
        <ele>99</ele>
        <time>2012-01-28T13:37:04Z</time>
      </trkpt>
      <trkpt lat="47.26575" lon="-1.65412">
        <ele>98</ele>
        <time>2012-01-28T13:37:08Z</time>
      </trkpt>
      <trkpt lat="47.26576" lon="-1.65402">
        <ele>98</ele>
        <time>2012-01-28T13:37:13Z</time>
      </trkpt>
      <trkpt lat="47.26576" lon="-1.65392">
        <ele>99</ele>
        <time>2012-01-28T13:37:20Z</time>
      </trkpt>
      <trkpt lat="47.26578" lon="-1.65382">
        <ele>99</ele>
        <time>2012-01-28T13:37:25Z</time>
      </trkpt>
      <trkpt lat="47.26579" lon="-1.65372">
        <ele>99</ele>
        <time>2012-01-28T13:37:31Z</time>
      </trkpt>
      <trkpt lat="47.26584" lon="-1.65353">
        <ele>98</ele>
        <time>2012-01-28T13:37:39Z</time>
      </trkpt>
      <trkpt lat="47.26586" lon="-1.65344">
        <ele>97</ele>
        <time>2012-01-28T13:37:44Z</time>
      </trkpt>
      <trkpt lat="47.26584" lon="-1.65335">
        <ele>97</ele>
        <time>2012-01-28T13:37:49Z</time>
      </trkpt>
      <trkpt lat="47.26587" lon="-1.65326">
        <ele>98</ele>
        <time>2012-01-28T13:37:53Z</time>
      </trkpt>
      <trkpt lat="47.26586" lon="-1.65315">
        <ele>98</ele>
        <time>2012-01-28T13:37:58Z</time>
      </trkpt>
      <trkpt lat="47.26602" lon="-1.65287">
        <ele>97</ele>
        <time>2012-01-28T13:38:15Z</time>
      </trkpt>
      <trkpt lat="47.26604" lon="-1.65277">
        <ele>100</ele>
        <time>2012-01-28T13:38:21Z</time>
      </trkpt>
      <trkpt lat="47.26597" lon="-1.65275">
        <ele>101</ele>
        <time>2012-01-28T13:38:34Z</time>
      </trkpt>
      <trkpt lat="47.26612" lon="-1.65277">
        <ele>101</ele>
        <time>2012-01-28T13:39:06Z</time>
      </trkpt>
      <trkpt lat="47.26619" lon="-1.65279">
        <ele>100</ele>
        <time>2012-01-28T13:39:12Z</time>
      </trkpt>
      <trkpt lat="47.26626" lon="-1.65282">
        <ele>101</ele>
        <time>2012-01-28T13:39:20Z</time>
      </trkpt>
      <trkpt lat="47.2664" lon="-1.65291">
        <ele>102</ele>
        <time>2012-01-28T13:39:38Z</time>
      </trkpt>
      <trkpt lat="47.26675" lon="-1.65313">
        <ele>101</ele>
        <time>2012-01-28T13:40:15Z</time>
      </trkpt>
      <trkpt lat="47.26675" lon="-1.65322">
        <ele>101</ele>
        <time>2012-01-28T13:40:28Z</time>
      </trkpt>
      <trkpt lat="47.26684" lon="-1.65327">
        <ele>101</ele>
        <time>2012-01-28T13:40:38Z</time>
      </trkpt>
      <trkpt lat="47.2669" lon="-1.65329">
        <ele>101</ele>
        <time>2012-01-28T13:40:46Z</time>
      </trkpt>
      <trkpt lat="47.26707" lon="-1.65328">
        <ele>96</ele>
        <time>2012-01-28T13:41:10Z</time>
      </trkpt>
      <trkpt lat="47.26712" lon="-1.65321">
        <ele>96</ele>
        <time>2012-01-28T13:41:15Z</time>
      </trkpt>
      <trkpt lat="47.26719" lon="-1.65322">
        <ele>97</ele>
        <time>2012-01-28T13:41:17Z</time>
      </trkpt>
      <trkpt lat="47.26735" lon="-1.65326">
        <ele>96</ele>
        <time>2012-01-28T13:41:23Z</time>
      </trkpt>
      <trkpt lat="47.26743" lon="-1.65324">
        <ele>93</ele>
        <time>2012-01-28T13:41:26Z</time>
      </trkpt>
      <trkpt lat="47.26748" lon="-1.65318">
        <ele>92</ele>
        <time>2012-01-28T13:41:32Z</time>
      </trkpt>
      <trkpt lat="47.26754" lon="-1.65309">
        <ele>91</ele>
        <time>2012-01-28T13:41:36Z</time>
      </trkpt>
      <trkpt lat="47.2676" lon="-1.65304">
        <ele>88</ele>
        <time>2012-01-28T13:41:43Z</time>
      </trkpt>
      <trkpt lat="47.2676" lon="-1.65294">
        <ele>85</ele>
        <time>2012-01-28T13:41:46Z</time>
      </trkpt>
      <trkpt lat="47.26759" lon="-1.65285">
        <ele>84</ele>
        <time>2012-01-28T13:41:51Z</time>
      </trkpt>
      <trkpt lat="47.26769" lon="-1.65262">
        <ele>81</ele>
        <time>2012-01-28T13:42:05Z</time>
      </trkpt>
      <trkpt lat="47.26775" lon="-1.65257">
        <ele>81</ele>
        <time>2012-01-28T13:42:19Z</time>
      </trkpt>
      <trkpt lat="47.26769" lon="-1.65237">
        <ele>83</ele>
        <time>2012-01-28T13:42:38Z</time>
      </trkpt>
      <trkpt lat="47.26772" lon="-1.65228">
        <ele>83</ele>
        <time>2012-01-28T13:42:41Z</time>
      </trkpt>
      <trkpt lat="47.26775" lon="-1.6522">
        <ele>82</ele>
        <time>2012-01-28T13:42:46Z</time>
      </trkpt>
      <trkpt lat="47.26779" lon="-1.65204">
        <ele>84</ele>
        <time>2012-01-28T13:42:57Z</time>
      </trkpt>
      <trkpt lat="47.26792" lon="-1.65192">
        <ele>86</ele>
        <time>2012-01-28T13:43:02Z</time>
      </trkpt>
      <trkpt lat="47.26795" lon="-1.65181">
        <ele>85</ele>
        <time>2012-01-28T13:43:07Z</time>
      </trkpt>
      <trkpt lat="47.268" lon="-1.65171">
        <ele>86</ele>
        <time>2012-01-28T13:43:14Z</time>
      </trkpt>
      <trkpt lat="47.26805" lon="-1.65166">
        <ele>86</ele>
        <time>2012-01-28T13:43:16Z</time>
      </trkpt>
      <trkpt lat="47.26807" lon="-1.65155">
        <ele>87</ele>
        <time>2012-01-28T13:43:20Z</time>
      </trkpt>
      <trkpt lat="47.26811" lon="-1.65148">
        <ele>87</ele>
        <time>2012-01-28T13:43:28Z</time>
      </trkpt>
      <trkpt lat="47.26822" lon="-1.65136">
        <ele>86</ele>
        <time>2012-01-28T13:43:35Z</time>
      </trkpt>
      <trkpt lat="47.2683" lon="-1.65135">
        <ele>87</ele>
        <time>2012-01-28T13:43:38Z</time>
      </trkpt>
      <trkpt lat="47.26835" lon="-1.65126">
        <ele>88</ele>
        <time>2012-01-28T13:43:47Z</time>
      </trkpt>
      <trkpt lat="47.26835" lon="-1.65103">
        <ele>81</ele>
        <time>2012-01-28T13:43:54Z</time>
      </trkpt>
      <trkpt lat="47.26838" lon="-1.65081">
        <ele>81</ele>
        <time>2012-01-28T13:44:03Z</time>
      </trkpt>
      <trkpt lat="47.26847" lon="-1.65063">
        <ele>77</ele>
        <time>2012-01-28T13:44:10Z</time>
      </trkpt>
      <trkpt lat="47.26849" lon="-1.6505">
        <ele>75</ele>
        <time>2012-01-28T13:44:16Z</time>
      </trkpt>
      <trkpt lat="47.26854" lon="-1.65043">
        <ele>76</ele>
        <time>2012-01-28T13:44:19Z</time>
      </trkpt>
      <trkpt lat="47.26857" lon="-1.65034">
        <ele>78</ele>
        <time>2012-01-28T13:44:23Z</time>
      </trkpt>
      <trkpt lat="47.26853" lon="-1.65026">
        <ele>79</ele>
        <time>2012-01-28T13:44:27Z</time>
      </trkpt>
      <trkpt lat="47.26856" lon="-1.65018">
        <ele>79</ele>
        <time>2012-01-28T13:44:31Z</time>
      </trkpt>
      <trkpt lat="47.26859" lon="-1.65007">
        <ele>80</ele>
        <time>2012-01-28T13:44:39Z</time>
      </trkpt>
      <trkpt lat="47.26856" lon="-1.64996">
        <ele>81</ele>
        <time>2012-01-28T13:44:45Z</time>
      </trkpt>
      <trkpt lat="47.2686" lon="-1.64987">
        <ele>80</ele>
        <time>2012-01-28T13:44:52Z</time>
      </trkpt>
      <trkpt lat="47.26869" lon="-1.64967">
        <ele>78</ele>
        <time>2012-01-28T13:45:02Z</time>
      </trkpt>
      <trkpt lat="47.26873" lon="-1.64958">
        <ele>78</ele>
        <time>2012-01-28T13:45:05Z</time>
      </trkpt>
      <trkpt lat="47.26873" lon="-1.64947">
        <ele>77</ele>
        <time>2012-01-28T13:45:10Z</time>
      </trkpt>
      <trkpt lat="47.26876" lon="-1.64939">
        <ele>79</ele>
        <time>2012-01-28T13:45:16Z</time>
      </trkpt>
      <trkpt lat="47.2688" lon="-1.64932">
        <ele>80</ele>
        <time>2012-01-28T13:45:22Z</time>
      </trkpt>
      <trkpt lat="47.26876" lon="-1.64918">
        <ele>80</ele>
        <time>2012-01-28T13:45:32Z</time>
      </trkpt>
      <trkpt lat="47.26883" lon="-1.64914">
        <ele>80</ele>
        <time>2012-01-28T13:45:35Z</time>
      </trkpt>
      <trkpt lat="47.26887" lon="-1.64906">
        <ele>78</ele>
        <time>2012-01-28T13:45:41Z</time>
      </trkpt>
      <trkpt lat="47.26894" lon="-1.64901">
        <ele>79</ele>
        <time>2012-01-28T13:45:47Z</time>
      </trkpt>
      <trkpt lat="47.269" lon="-1.64894">
        <ele>79</ele>
        <time>2012-01-28T13:45:52Z</time>
      </trkpt>
      <trkpt lat="47.26906" lon="-1.64888">
        <ele>80</ele>
        <time>2012-01-28T13:45:56Z</time>
      </trkpt>
      <trkpt lat="47.26908" lon="-1.64878">
        <ele>82</ele>
        <time>2012-01-28T13:46:00Z</time>
      </trkpt>
      <trkpt lat="47.2691" lon="-1.64868">
        <ele>83</ele>
        <time>2012-01-28T13:46:05Z</time>
      </trkpt>
      <trkpt lat="47.26909" lon="-1.64858">
        <ele>82</ele>
        <time>2012-01-28T13:46:14Z</time>
      </trkpt>
      <trkpt lat="47.26914" lon="-1.64849">
        <ele>84</ele>
        <time>2012-01-28T13:46:20Z</time>
      </trkpt>
      <trkpt lat="47.26917" lon="-1.6484">
        <ele>83</ele>
        <time>2012-01-28T13:46:23Z</time>
      </trkpt>
      <trkpt lat="47.26922" lon="-1.64833">
        <ele>84</ele>
        <time>2012-01-28T13:46:27Z</time>
      </trkpt>
      <trkpt lat="47.26929" lon="-1.64827">
        <ele>86</ele>
        <time>2012-01-28T13:46:34Z</time>
      </trkpt>
      <trkpt lat="47.26935" lon="-1.6483">
        <ele>85</ele>
        <time>2012-01-28T13:46:38Z</time>
      </trkpt>
      <trkpt lat="47.26943" lon="-1.64825">
        <ele>86</ele>
        <time>2012-01-28T13:46:48Z</time>
      </trkpt>
      <trkpt lat="47.26952" lon="-1.64824">
        <ele>85</ele>
        <time>2012-01-28T13:46:52Z</time>
      </trkpt>
      <trkpt lat="47.26958" lon="-1.64817">
        <ele>82</ele>
        <time>2012-01-28T13:46:58Z</time>
      </trkpt>
      <trkpt lat="47.26962" lon="-1.64809">
        <ele>80</ele>
        <time>2012-01-28T13:47:01Z</time>
      </trkpt>
      <trkpt lat="47.26963" lon="-1.648">
        <ele>80</ele>
        <time>2012-01-28T13:47:06Z</time>
      </trkpt>
      <trkpt lat="47.26963" lon="-1.64789">
        <ele>77</ele>
        <time>2012-01-28T13:47:11Z</time>
      </trkpt>
      <trkpt lat="47.26971" lon="-1.64771">
        <ele>71</ele>
        <time>2012-01-28T13:47:20Z</time>
      </trkpt>
      <trkpt lat="47.2697" lon="-1.6476">
        <ele>73</ele>
        <time>2012-01-28T13:47:24Z</time>
      </trkpt>
      <trkpt lat="47.2697" lon="-1.64749">
        <ele>75</ele>
        <time>2012-01-28T13:47:30Z</time>
      </trkpt>
      <trkpt lat="47.26975" lon="-1.64738">
        <ele>78</ele>
        <time>2012-01-28T13:47:38Z</time>
      </trkpt>
      <trkpt lat="47.26974" lon="-1.64728">
        <ele>81</ele>
        <time>2012-01-28T13:47:42Z</time>
      </trkpt>
      <trkpt lat="47.2698" lon="-1.64717">
        <ele>81</ele>
        <time>2012-01-28T13:47:48Z</time>
      </trkpt>
      <trkpt lat="47.26984" lon="-1.64707">
        <ele>79</ele>
        <time>2012-01-28T13:47:52Z</time>
      </trkpt>
      <trkpt lat="47.26983" lon="-1.64697">
        <ele>75</ele>
        <time>2012-01-28T13:47:57Z</time>
      </trkpt>
      <trkpt lat="47.26979" lon="-1.64677">
        <ele>74</ele>
        <time>2012-01-28T13:48:07Z</time>
      </trkpt>
      <trkpt lat="47.26976" lon="-1.64669">
        <ele>74</ele>
        <time>2012-01-28T13:48:11Z</time>
      </trkpt>
      <trkpt lat="47.26982" lon="-1.64649">
        <ele>73</ele>
        <time>2012-01-28T13:48:22Z</time>
      </trkpt>
      <trkpt lat="47.26985" lon="-1.6463">
        <ele>74</ele>
        <time>2012-01-28T13:48:30Z</time>
      </trkpt>
      <trkpt lat="47.26983" lon="-1.6462">
        <ele>73</ele>
        <time>2012-01-28T13:48:34Z</time>
      </trkpt>
      <trkpt lat="47.26981" lon="-1.6461">
        <ele>73</ele>
        <time>2012-01-28T13:48:40Z</time>
      </trkpt>
      <trkpt lat="47.26979" lon="-1.64601">
        <ele>71</ele>
        <time>2012-01-28T13:48:46Z</time>
      </trkpt>
      <trkpt lat="47.26987" lon="-1.64593">
        <ele>72</ele>
        <time>2012-01-28T13:48:48Z</time>
      </trkpt>
      <trkpt lat="47.26981" lon="-1.64586">
        <ele>72</ele>
        <time>2012-01-28T13:48:51Z</time>
      </trkpt>
      <trkpt lat="47.26984" lon="-1.64576">
        <ele>72</ele>
        <time>2012-01-28T13:48:55Z</time>
      </trkpt>
      <trkpt lat="47.26983" lon="-1.64567">
        <ele>73</ele>
        <time>2012-01-28T13:49:00Z</time>
      </trkpt>
      <trkpt lat="47.26984" lon="-1.64556">
        <ele>73</ele>
        <time>2012-01-28T13:49:06Z</time>
      </trkpt>
      <trkpt lat="47.26986" lon="-1.64546">
        <ele>75</ele>
        <time>2012-01-28T13:49:13Z</time>
      </trkpt>
      <trkpt lat="47.26986" lon="-1.64536">
        <ele>76</ele>
        <time>2012-01-28T13:49:19Z</time>
      </trkpt>
      <trkpt lat="47.26988" lon="-1.64526">
        <ele>78</ele>
        <time>2012-01-28T13:49:25Z</time>
      </trkpt>
      <trkpt lat="47.26994" lon="-1.64518">
        <ele>77</ele>
        <time>2012-01-28T13:49:27Z</time>
      </trkpt>
      <trkpt lat="47.26996" lon="-1.64509">
        <ele>78</ele>
        <time>2012-01-28T13:49:33Z</time>
      </trkpt>
      <trkpt lat="47.26998" lon="-1.64499">
        <ele>78</ele>
        <time>2012-01-28T13:49:38Z</time>
      </trkpt>
      <trkpt lat="47.26999" lon="-1.64489">
        <ele>79</ele>
        <time>2012-01-28T13:49:42Z</time>
      </trkpt>
      <trkpt lat="47.27003" lon="-1.64482">
        <ele>79</ele>
        <time>2012-01-28T13:49:47Z</time>
      </trkpt>
      <trkpt lat="47.2701" lon="-1.64476">
        <ele>78</ele>
        <time>2012-01-28T13:49:51Z</time>
      </trkpt>
      <trkpt lat="47.27014" lon="-1.64467">
        <ele>80</ele>
        <time>2012-01-28T13:49:59Z</time>
      </trkpt>
      <trkpt lat="47.27019" lon="-1.64462">
        <ele>78</ele>
        <time>2012-01-28T13:50:12Z</time>
      </trkpt>
      <trkpt lat="47.27032" lon="-1.64471">
        <ele>78</ele>
        <time>2012-01-28T13:50:50Z</time>
      </trkpt>
      <trkpt lat="47.2704" lon="-1.64475">
        <ele>77</ele>
        <time>2012-01-28T13:50:52Z</time>
      </trkpt>
      <trkpt lat="47.27046" lon="-1.6448">
        <ele>78</ele>
        <time>2012-01-28T13:51:01Z</time>
      </trkpt>
      <trkpt lat="47.2706" lon="-1.64487">
        <ele>81</ele>
        <time>2012-01-28T13:51:22Z</time>
      </trkpt>
      <trkpt lat="47.27066" lon="-1.64493">
        <ele>81</ele>
        <time>2012-01-28T13:51:26Z</time>
      </trkpt>
      <trkpt lat="47.27071" lon="-1.64501">
        <ele>81</ele>
        <time>2012-01-28T13:51:29Z</time>
      </trkpt>
      <trkpt lat="47.27078" lon="-1.64509">
        <ele>82</ele>
        <time>2012-01-28T13:51:32Z</time>
      </trkpt>
      <trkpt lat="47.27085" lon="-1.64509">
        <ele>82</ele>
        <time>2012-01-28T13:51:36Z</time>
      </trkpt>
      <trkpt lat="47.27089" lon="-1.64515">
        <ele>84</ele>
        <time>2012-01-28T13:51:42Z</time>
      </trkpt>
      <trkpt lat="47.27093" lon="-1.64523">
        <ele>86</ele>
        <time>2012-01-28T13:51:46Z</time>
      </trkpt>
      <trkpt lat="47.27095" lon="-1.64532">
        <ele>88</ele>
        <time>2012-01-28T13:52:00Z</time>
      </trkpt>
      <trkpt lat="47.27099" lon="-1.6454">
        <ele>89</ele>
        <time>2012-01-28T13:52:06Z</time>
      </trkpt>
      <trkpt lat="47.27107" lon="-1.64546">
        <ele>91</ele>
        <time>2012-01-28T13:52:09Z</time>
      </trkpt>
      <trkpt lat="47.27113" lon="-1.6455">
        <ele>90</ele>
        <time>2012-01-28T13:52:13Z</time>
      </trkpt>
      <trkpt lat="47.27119" lon="-1.6455">
        <ele>89</ele>
        <time>2012-01-28T13:52:16Z</time>
      </trkpt>
      <trkpt lat="47.27126" lon="-1.64547">
        <ele>91</ele>
        <time>2012-01-28T13:52:22Z</time>
      </trkpt>
      <trkpt lat="47.27133" lon="-1.64546">
        <ele>92</ele>
        <time>2012-01-28T13:52:27Z</time>
      </trkpt>
      <trkpt lat="47.2714" lon="-1.64546">
        <ele>93</ele>
        <time>2012-01-28T13:52:32Z</time>
      </trkpt>
      <trkpt lat="47.27148" lon="-1.64545">
        <ele>93</ele>
        <time>2012-01-28T13:52:37Z</time>
      </trkpt>
      <trkpt lat="47.27155" lon="-1.64545">
        <ele>95</ele>
        <time>2012-01-28T13:52:42Z</time>
      </trkpt>
      <trkpt lat="47.27168" lon="-1.64544">
        <ele>96</ele>
        <time>2012-01-28T13:52:54Z</time>
      </trkpt>
      <trkpt lat="47.27175" lon="-1.64543">
        <ele>97</ele>
        <time>2012-01-28T13:52:58Z</time>
      </trkpt>
      <trkpt lat="47.27184" lon="-1.64543">
        <ele>97</ele>
        <time>2012-01-28T13:53:02Z</time>
      </trkpt>
      <trkpt lat="47.2719" lon="-1.64541">
        <ele>98</ele>
        <time>2012-01-28T13:53:07Z</time>
      </trkpt>
      <trkpt lat="47.27204" lon="-1.6454">
        <ele>98</ele>
        <time>2012-01-28T13:53:18Z</time>
      </trkpt>
      <trkpt lat="47.27211" lon="-1.6454">
        <ele>97</ele>
        <time>2012-01-28T13:53:23Z</time>
      </trkpt>
      <trkpt lat="47.27218" lon="-1.64536">
        <ele>98</ele>
        <time>2012-01-28T13:53:29Z</time>
      </trkpt>
      <trkpt lat="47.27225" lon="-1.64537">
        <ele>98</ele>
        <time>2012-01-28T13:53:34Z</time>
      </trkpt>
      <trkpt lat="47.27239" lon="-1.64537">
        <ele>98</ele>
        <time>2012-01-28T13:53:44Z</time>
      </trkpt>
      <trkpt lat="47.27246" lon="-1.64538">
        <ele>98</ele>
        <time>2012-01-28T13:53:49Z</time>
      </trkpt>
      <trkpt lat="47.27252" lon="-1.64537">
        <ele>98</ele>
        <time>2012-01-28T13:53:54Z</time>
      </trkpt>
      <trkpt lat="47.27267" lon="-1.64538">
        <ele>98</ele>
        <time>2012-01-28T13:54:02Z</time>
      </trkpt>
      <trkpt lat="47.27282" lon="-1.64537">
        <ele>96</ele>
        <time>2012-01-28T13:54:12Z</time>
      </trkpt>
      <trkpt lat="47.27289" lon="-1.64536">
        <ele>97</ele>
        <time>2012-01-28T13:54:17Z</time>
      </trkpt>
      <trkpt lat="47.27296" lon="-1.64535">
        <ele>97</ele>
        <time>2012-01-28T13:54:21Z</time>
      </trkpt>
      <trkpt lat="47.27303" lon="-1.64535">
        <ele>97</ele>
        <time>2012-01-28T13:54:25Z</time>
      </trkpt>
      <trkpt lat="47.27317" lon="-1.64536">
        <ele>97</ele>
        <time>2012-01-28T13:54:35Z</time>
      </trkpt>
      <trkpt lat="47.27324" lon="-1.64537">
        <ele>98</ele>
        <time>2012-01-28T13:54:40Z</time>
      </trkpt>
      <trkpt lat="47.27331" lon="-1.64537">
        <ele>99</ele>
        <time>2012-01-28T13:54:45Z</time>
      </trkpt>
      <trkpt lat="47.27338" lon="-1.64535">
        <ele>99</ele>
        <time>2012-01-28T13:54:50Z</time>
      </trkpt>
      <trkpt lat="47.27345" lon="-1.64533">
        <ele>98</ele>
        <time>2012-01-28T13:54:56Z</time>
      </trkpt>
      <trkpt lat="47.27359" lon="-1.64527">
        <ele>98</ele>
        <time>2012-01-28T13:55:06Z</time>
      </trkpt>
      <trkpt lat="47.27373" lon="-1.64519">
        <ele>98</ele>
        <time>2012-01-28T13:55:17Z</time>
      </trkpt>
      <trkpt lat="47.27386" lon="-1.64511">
        <ele>98</ele>
        <time>2012-01-28T13:55:25Z</time>
      </trkpt>
      <trkpt lat="47.27392" lon="-1.64505">
        <ele>100</ele>
        <time>2012-01-28T13:55:29Z</time>
      </trkpt>
      <trkpt lat="47.27399" lon="-1.64503">
        <ele>101</ele>
        <time>2012-01-28T13:55:34Z</time>
      </trkpt>
      <trkpt lat="47.27405" lon="-1.64499">
        <ele>103</ele>
        <time>2012-01-28T13:55:39Z</time>
      </trkpt>
      <trkpt lat="47.27412" lon="-1.64498">
        <ele>103</ele>
        <time>2012-01-28T13:55:45Z</time>
      </trkpt>
      <trkpt lat="47.27419" lon="-1.64497">
        <ele>104</ele>
        <time>2012-01-28T13:55:52Z</time>
      </trkpt>
      <trkpt lat="47.27426" lon="-1.64496">
        <ele>105</ele>
        <time>2012-01-28T13:55:55Z</time>
      </trkpt>
      <trkpt lat="47.27439" lon="-1.64498">
        <ele>104</ele>
        <time>2012-01-28T13:56:07Z</time>
      </trkpt>
      <trkpt lat="47.27445" lon="-1.64499">
        <ele>104</ele>
        <time>2012-01-28T13:56:11Z</time>
      </trkpt>
      <trkpt lat="47.27459" lon="-1.64498">
        <ele>103</ele>
        <time>2012-01-28T13:56:22Z</time>
      </trkpt>
      <trkpt lat="47.27465" lon="-1.64495">
        <ele>102</ele>
        <time>2012-01-28T13:56:26Z</time>
      </trkpt>
      <trkpt lat="47.27472" lon="-1.64493">
        <ele>103</ele>
        <time>2012-01-28T13:56:33Z</time>
      </trkpt>
      <trkpt lat="47.27479" lon="-1.6449">
        <ele>103</ele>
        <time>2012-01-28T13:56:40Z</time>
      </trkpt>
      <trkpt lat="47.27493" lon="-1.64483">
        <ele>101</ele>
        <time>2012-01-28T13:56:52Z</time>
      </trkpt>
      <trkpt lat="47.27499" lon="-1.64479">
        <ele>100</ele>
        <time>2012-01-28T13:56:56Z</time>
      </trkpt>
      <trkpt lat="47.27506" lon="-1.64476">
        <ele>98</ele>
        <time>2012-01-28T13:57:01Z</time>
      </trkpt>
      <trkpt lat="47.27511" lon="-1.64471">
        <ele>98</ele>
        <time>2012-01-28T13:57:08Z</time>
      </trkpt>
      <trkpt lat="47.27525" lon="-1.64467">
        <ele>97</ele>
        <time>2012-01-28T13:57:30Z</time>
      </trkpt>
      <trkpt lat="47.27538" lon="-1.64462">
        <ele>97</ele>
        <time>2012-01-28T13:57:33Z</time>
      </trkpt>
      <trkpt lat="47.27543" lon="-1.64456">
        <ele>99</ele>
        <time>2012-01-28T13:57:40Z</time>
      </trkpt>
      <trkpt lat="47.2755" lon="-1.64454">
        <ele>102</ele>
        <time>2012-01-28T13:57:47Z</time>
      </trkpt>
      <trkpt lat="47.27555" lon="-1.64458">
        <ele>103</ele>
        <time>2012-01-28T13:58:08Z</time>
      </trkpt>
      <trkpt lat="47.27557" lon="-1.64468">
        <ele>103</ele>
        <time>2012-01-28T13:58:21Z</time>
      </trkpt>
      <trkpt lat="47.27561" lon="-1.64486">
        <ele>103</ele>
        <time>2012-01-28T13:58:38Z</time>
      </trkpt>
      <trkpt lat="47.2756" lon="-1.64496">
        <ele>104</ele>
        <time>2012-01-28T13:58:41Z</time>
      </trkpt>
      <trkpt lat="47.2756" lon="-1.64507">
        <ele>104</ele>
        <time>2012-01-28T13:58:46Z</time>
      </trkpt>
      <trkpt lat="47.27563" lon="-1.64517">
        <ele>105</ele>
        <time>2012-01-28T13:58:50Z</time>
      </trkpt>
      <trkpt lat="47.27562" lon="-1.64528">
        <ele>105</ele>
        <time>2012-01-28T13:58:56Z</time>
      </trkpt>
      <trkpt lat="47.27562" lon="-1.6454">
        <ele>105</ele>
        <time>2012-01-28T13:59:01Z</time>
      </trkpt>
      <trkpt lat="47.2756" lon="-1.64565">
        <ele>106</ele>
        <time>2012-01-28T13:59:17Z</time>
      </trkpt>
      <trkpt lat="47.27563" lon="-1.64585">
        <ele>103</ele>
        <time>2012-01-28T13:59:22Z</time>
      </trkpt>
      <trkpt lat="47.27561" lon="-1.64594">
        <ele>104</ele>
        <time>2012-01-28T13:59:25Z</time>
      </trkpt>
      <trkpt lat="47.27557" lon="-1.64612">
        <ele>105</ele>
        <time>2012-01-28T13:59:33Z</time>
      </trkpt>
      <trkpt lat="47.27557" lon="-1.64622">
        <ele>105</ele>
        <time>2012-01-28T13:59:43Z</time>
      </trkpt>
      <trkpt lat="47.27555" lon="-1.64632">
        <ele>105</ele>
        <time>2012-01-28T13:59:51Z</time>
      </trkpt>
      <trkpt lat="47.27556" lon="-1.64645">
        <ele>104</ele>
        <time>2012-01-28T13:59:55Z</time>
      </trkpt>
      <trkpt lat="47.27555" lon="-1.64656">
        <ele>106</ele>
        <time>2012-01-28T13:59:59Z</time>
      </trkpt>
      <trkpt lat="47.27553" lon="-1.64666">
        <ele>105</ele>
        <time>2012-01-28T14:00:03Z</time>
      </trkpt>
      <trkpt lat="47.27552" lon="-1.64675">
        <ele>104</ele>
        <time>2012-01-28T14:00:06Z</time>
      </trkpt>
      <trkpt lat="47.27551" lon="-1.64687">
        <ele>104</ele>
        <time>2012-01-28T14:00:10Z</time>
      </trkpt>
      <trkpt lat="47.2755" lon="-1.64697">
        <ele>102</ele>
        <time>2012-01-28T14:00:15Z</time>
      </trkpt>
      <trkpt lat="47.27546" lon="-1.64717">
        <ele>103</ele>
        <time>2012-01-28T14:00:31Z</time>
      </trkpt>
      <trkpt lat="47.27546" lon="-1.64727">
        <ele>104</ele>
        <time>2012-01-28T14:00:35Z</time>
      </trkpt>
      <trkpt lat="47.27545" lon="-1.64737">
        <ele>104</ele>
        <time>2012-01-28T14:00:39Z</time>
      </trkpt>
      <trkpt lat="47.27544" lon="-1.64749">
        <ele>104</ele>
        <time>2012-01-28T14:00:51Z</time>
      </trkpt>
      <trkpt lat="47.27541" lon="-1.64759">
        <ele>104</ele>
        <time>2012-01-28T14:00:53Z</time>
      </trkpt>
      <trkpt lat="47.27538" lon="-1.64768">
        <ele>105</ele>
        <time>2012-01-28T14:00:57Z</time>
      </trkpt>
      <trkpt lat="47.27535" lon="-1.64778">
        <ele>104</ele>
        <time>2012-01-28T14:01:01Z</time>
      </trkpt>
      <trkpt lat="47.27533" lon="-1.64797">
        <ele>106</ele>
        <time>2012-01-28T14:01:07Z</time>
      </trkpt>
      <trkpt lat="47.2753" lon="-1.64806">
        <ele>106</ele>
        <time>2012-01-28T14:01:11Z</time>
      </trkpt>
      <trkpt lat="47.27529" lon="-1.64817">
        <ele>107</ele>
        <time>2012-01-28T14:01:17Z</time>
      </trkpt>
      <trkpt lat="47.27528" lon="-1.64827">
        <ele>108</ele>
        <time>2012-01-28T14:01:30Z</time>
      </trkpt>
      <trkpt lat="47.27528" lon="-1.64838">
        <ele>109</ele>
        <time>2012-01-28T14:01:33Z</time>
      </trkpt>
      <trkpt lat="47.27531" lon="-1.64858">
        <ele>104</ele>
        <time>2012-01-28T14:01:46Z</time>
      </trkpt>
      <trkpt lat="47.27532" lon="-1.64869">
        <ele>103</ele>
        <time>2012-01-28T14:01:50Z</time>
      </trkpt>
      <trkpt lat="47.27531" lon="-1.6489">
        <ele>103</ele>
        <time>2012-01-28T14:01:58Z</time>
      </trkpt>
      <trkpt lat="47.27533" lon="-1.64899">
        <ele>103</ele>
        <time>2012-01-28T14:02:03Z</time>
      </trkpt>
      <trkpt lat="47.27534" lon="-1.6491">
        <ele>102</ele>
        <time>2012-01-28T14:02:13Z</time>
      </trkpt>
      <trkpt lat="47.27533" lon="-1.64919">
        <ele>102</ele>
        <time>2012-01-28T14:02:24Z</time>
      </trkpt>
      <trkpt lat="47.27535" lon="-1.64951">
        <ele>107</ele>
        <time>2012-01-28T14:02:44Z</time>
      </trkpt>
      <trkpt lat="47.27538" lon="-1.64978">
        <ele>109</ele>
        <time>2012-01-28T14:02:55Z</time>
      </trkpt>
      <trkpt lat="47.2754" lon="-1.64992">
        <ele>109</ele>
        <time>2012-01-28T14:02:58Z</time>
      </trkpt>
      <trkpt lat="47.27545" lon="-1.65003">
        <ele>108</ele>
        <time>2012-01-28T14:03:02Z</time>
      </trkpt>
      <trkpt lat="47.27547" lon="-1.65022">
        <ele>106</ele>
        <time>2012-01-28T14:03:08Z</time>
      </trkpt>
      <trkpt lat="47.2755" lon="-1.65034">
        <ele>105</ele>
        <time>2012-01-28T14:03:13Z</time>
      </trkpt>
      <trkpt lat="47.27549" lon="-1.65053">
        <ele>105</ele>
        <time>2012-01-28T14:03:18Z</time>
      </trkpt>
      <trkpt lat="47.27551" lon="-1.65063">
        <ele>106</ele>
        <time>2012-01-28T14:03:21Z</time>
      </trkpt>
      <trkpt lat="47.27554" lon="-1.65084">
        <ele>106</ele>
        <time>2012-01-28T14:03:27Z</time>
      </trkpt>
      <trkpt lat="47.27555" lon="-1.65093">
        <ele>109</ele>
        <time>2012-01-28T14:03:31Z</time>
      </trkpt>
      <trkpt lat="47.27557" lon="-1.65102">
        <ele>112</ele>
        <time>2012-01-28T14:03:36Z</time>
      </trkpt>
      <trkpt lat="47.2756" lon="-1.65111">
        <ele>112</ele>
        <time>2012-01-28T14:03:41Z</time>
      </trkpt>
      <trkpt lat="47.27562" lon="-1.65121">
        <ele>115</ele>
        <time>2012-01-28T14:03:46Z</time>
      </trkpt>
      <trkpt lat="47.27569" lon="-1.65139">
        <ele>115</ele>
        <time>2012-01-28T14:03:58Z</time>
      </trkpt>
      <trkpt lat="47.27571" lon="-1.65148">
        <ele>115</ele>
        <time>2012-01-28T14:04:03Z</time>
      </trkpt>
      <trkpt lat="47.27574" lon="-1.65157">
        <ele>114</ele>
        <time>2012-01-28T14:04:09Z</time>
      </trkpt>
      <trkpt lat="47.27578" lon="-1.65166">
        <ele>112</ele>
        <time>2012-01-28T14:04:14Z</time>
      </trkpt>
      <trkpt lat="47.27587" lon="-1.65182">
        <ele>110</ele>
        <time>2012-01-28T14:04:32Z</time>
      </trkpt>
      <trkpt lat="47.27591" lon="-1.6519">
        <ele>109</ele>
        <time>2012-01-28T14:04:37Z</time>
      </trkpt>
      <trkpt lat="47.27595" lon="-1.652">
        <ele>108</ele>
        <time>2012-01-28T14:04:40Z</time>
      </trkpt>
      <trkpt lat="47.27603" lon="-1.65218">
        <ele>107</ele>
        <time>2012-01-28T14:04:47Z</time>
      </trkpt>
      <trkpt lat="47.27609" lon="-1.65224">
        <ele>105</ele>
        <time>2012-01-28T14:04:51Z</time>
      </trkpt>
      <trkpt lat="47.27614" lon="-1.65231">
        <ele>104</ele>
        <time>2012-01-28T14:04:56Z</time>
      </trkpt>
      <trkpt lat="47.27618" lon="-1.65239">
        <ele>104</ele>
        <time>2012-01-28T14:05:01Z</time>
      </trkpt>
      <trkpt lat="47.27621" lon="-1.65247">
        <ele>106</ele>
        <time>2012-01-28T14:05:06Z</time>
      </trkpt>
      <trkpt lat="47.2764" lon="-1.653">
        <ele>101</ele>
        <time>2012-01-28T14:05:47Z</time>
      </trkpt>
      <trkpt lat="47.27643" lon="-1.65308">
        <ele>100</ele>
        <time>2012-01-28T14:05:51Z</time>
      </trkpt>
      <trkpt lat="47.27649" lon="-1.65315">
        <ele>100</ele>
        <time>2012-01-28T14:05:55Z</time>
      </trkpt>
      <trkpt lat="47.27653" lon="-1.65323">
        <ele>100</ele>
        <time>2012-01-28T14:05:58Z</time>
      </trkpt>
      <trkpt lat="47.27654" lon="-1.65332">
        <ele>101</ele>
        <time>2012-01-28T14:06:05Z</time>
      </trkpt>
      <trkpt lat="47.27661" lon="-1.65338">
        <ele>103</ele>
        <time>2012-01-28T14:06:27Z</time>
      </trkpt>
      <trkpt lat="47.27671" lon="-1.65339">
        <ele>105</ele>
        <time>2012-01-28T14:06:29Z</time>
      </trkpt>
      <trkpt lat="47.27677" lon="-1.65343">
        <ele>107</ele>
        <time>2012-01-28T14:06:32Z</time>
      </trkpt>
      <trkpt lat="47.27682" lon="-1.65351">
        <ele>107</ele>
        <time>2012-01-28T14:06:37Z</time>
      </trkpt>
      <trkpt lat="47.27694" lon="-1.65363">
        <ele>102</ele>
        <time>2012-01-28T14:06:43Z</time>
      </trkpt>
      <trkpt lat="47.27699" lon="-1.65371">
        <ele>100</ele>
        <time>2012-01-28T14:06:47Z</time>
      </trkpt>
      <trkpt lat="47.27702" lon="-1.6539">
        <ele>99</ele>
        <time>2012-01-28T14:06:54Z</time>
      </trkpt>
      <trkpt lat="47.27704" lon="-1.65402">
        <ele>100</ele>
        <time>2012-01-28T14:06:59Z</time>
      </trkpt>
      <trkpt lat="47.27705" lon="-1.65411">
        <ele>99</ele>
        <time>2012-01-28T14:07:04Z</time>
      </trkpt>
      <trkpt lat="47.27709" lon="-1.65418">
        <ele>99</ele>
        <time>2012-01-28T14:07:08Z</time>
      </trkpt>
      <trkpt lat="47.27713" lon="-1.65426">
        <ele>102</ele>
        <time>2012-01-28T14:07:13Z</time>
      </trkpt>
      <trkpt lat="47.27719" lon="-1.65433">
        <ele>105</ele>
        <time>2012-01-28T14:07:18Z</time>
      </trkpt>
      <trkpt lat="47.27724" lon="-1.65442">
        <ele>106</ele>
        <time>2012-01-28T14:07:24Z</time>
      </trkpt>
      <trkpt lat="47.27731" lon="-1.65446">
        <ele>107</ele>
        <time>2012-01-28T14:07:29Z</time>
      </trkpt>
      <trkpt lat="47.27739" lon="-1.65447">
        <ele>106</ele>
        <time>2012-01-28T14:07:34Z</time>
      </trkpt>
      <trkpt lat="47.27764" lon="-1.65448">
        <ele>106</ele>
        <time>2012-01-28T14:08:06Z</time>
      </trkpt>
      <trkpt lat="47.27774" lon="-1.65448">
        <ele>109</ele>
        <time>2012-01-28T14:08:09Z</time>
      </trkpt>
      <trkpt lat="47.2778" lon="-1.65453">
        <ele>111</ele>
        <time>2012-01-28T14:08:18Z</time>
      </trkpt>
      <trkpt lat="47.27789" lon="-1.65454">
        <ele>109</ele>
        <time>2012-01-28T14:08:22Z</time>
      </trkpt>
      <trkpt lat="47.27796" lon="-1.65455">
        <ele>109</ele>
        <time>2012-01-28T14:08:25Z</time>
      </trkpt>
      <trkpt lat="47.27805" lon="-1.65458">
        <ele>109</ele>
        <time>2012-01-28T14:08:30Z</time>
      </trkpt>
      <trkpt lat="47.27811" lon="-1.6546">
        <ele>108</ele>
        <time>2012-01-28T14:08:33Z</time>
      </trkpt>
      <trkpt lat="47.27819" lon="-1.65462">
        <ele>108</ele>
        <time>2012-01-28T14:08:43Z</time>
      </trkpt>
      <trkpt lat="47.27827" lon="-1.65462">
        <ele>107</ele>
        <time>2012-01-28T14:08:46Z</time>
      </trkpt>
      <trkpt lat="47.27835" lon="-1.65462">
        <ele>107</ele>
        <time>2012-01-28T14:08:49Z</time>
      </trkpt>
      <trkpt lat="47.27843" lon="-1.6546">
        <ele>109</ele>
        <time>2012-01-28T14:08:53Z</time>
      </trkpt>
      <trkpt lat="47.2785" lon="-1.65461">
        <ele>108</ele>
        <time>2012-01-28T14:08:58Z</time>
      </trkpt>
      <trkpt lat="47.27874" lon="-1.6547">
        <ele>109</ele>
        <time>2012-01-28T14:09:25Z</time>
      </trkpt>
      <trkpt lat="47.27879" lon="-1.65475">
        <ele>107</ele>
        <time>2012-01-28T14:09:28Z</time>
      </trkpt>
      <trkpt lat="47.27884" lon="-1.65483">
        <ele>106</ele>
        <time>2012-01-28T14:09:32Z</time>
      </trkpt>
      <trkpt lat="47.27892" lon="-1.65488">
        <ele>105</ele>
        <time>2012-01-28T14:09:37Z</time>
      </trkpt>
      <trkpt lat="47.27897" lon="-1.65494">
        <ele>105</ele>
        <time>2012-01-28T14:09:41Z</time>
      </trkpt>
      <trkpt lat="47.27902" lon="-1.65503">
        <ele>104</ele>
        <time>2012-01-28T14:09:45Z</time>
      </trkpt>
      <trkpt lat="47.27903" lon="-1.65512">
        <ele>104</ele>
        <time>2012-01-28T14:09:54Z</time>
      </trkpt>
      <trkpt lat="47.27908" lon="-1.65545">
        <ele>102</ele>
        <time>2012-01-28T14:10:16Z</time>
      </trkpt>
      <trkpt lat="47.27911" lon="-1.65556">
        <ele>100</ele>
        <time>2012-01-28T14:10:22Z</time>
      </trkpt>
      <trkpt lat="47.27914" lon="-1.65567">
        <ele>99</ele>
        <time>2012-01-28T14:10:25Z</time>
      </trkpt>
      <trkpt lat="47.27913" lon="-1.65576">
        <ele>99</ele>
        <time>2012-01-28T14:10:31Z</time>
      </trkpt>
      <trkpt lat="47.27912" lon="-1.65586">
        <ele>100</ele>
        <time>2012-01-28T14:10:38Z</time>
      </trkpt>
      <trkpt lat="47.27915" lon="-1.65609">
        <ele>104</ele>
        <time>2012-01-28T14:10:47Z</time>
      </trkpt>
      <trkpt lat="47.2792" lon="-1.65634">
        <ele>103</ele>
        <time>2012-01-28T14:10:55Z</time>
      </trkpt>
      <trkpt lat="47.27922" lon="-1.65644">
        <ele>103</ele>
        <time>2012-01-28T14:10:58Z</time>
      </trkpt>
      <trkpt lat="47.27919" lon="-1.65654">
        <ele>100</ele>
        <time>2012-01-28T14:11:02Z</time>
      </trkpt>
      <trkpt lat="47.27919" lon="-1.65663">
        <ele>101</ele>
        <time>2012-01-28T14:11:15Z</time>
      </trkpt>
      <trkpt lat="47.27916" lon="-1.65678">
        <ele>102</ele>
        <time>2012-01-28T14:11:23Z</time>
      </trkpt>
      <trkpt lat="47.27915" lon="-1.65688">
        <ele>104</ele>
        <time>2012-01-28T14:11:25Z</time>
      </trkpt>
      <trkpt lat="47.27916" lon="-1.6571">
        <ele>102</ele>
        <time>2012-01-28T14:11:32Z</time>
      </trkpt>
      <trkpt lat="47.27916" lon="-1.65719">
        <ele>103</ele>
        <time>2012-01-28T14:11:38Z</time>
      </trkpt>
      <trkpt lat="47.27918" lon="-1.65755">
        <ele>105</ele>
        <time>2012-01-28T14:11:55Z</time>
      </trkpt>
      <trkpt lat="47.27919" lon="-1.65787">
        <ele>109</ele>
        <time>2012-01-28T14:12:03Z</time>
      </trkpt>
      <trkpt lat="47.27922" lon="-1.65798">
        <ele>107</ele>
        <time>2012-01-28T14:12:08Z</time>
      </trkpt>
      <trkpt lat="47.2792" lon="-1.65808">
        <ele>109</ele>
        <time>2012-01-28T14:12:12Z</time>
      </trkpt>
      <trkpt lat="47.27918" lon="-1.65817">
        <ele>108</ele>
        <time>2012-01-28T14:12:26Z</time>
      </trkpt>
      <trkpt lat="47.27916" lon="-1.65826">
        <ele>108</ele>
        <time>2012-01-28T14:12:31Z</time>
      </trkpt>
      <trkpt lat="47.27912" lon="-1.65865">
        <ele>114</ele>
        <time>2012-01-28T14:12:52Z</time>
      </trkpt>
      <trkpt lat="47.27922" lon="-1.65881">
        <ele>111</ele>
        <time>2012-01-28T14:12:59Z</time>
      </trkpt>
      <trkpt lat="47.27925" lon="-1.6589">
        <ele>110</ele>
        <time>2012-01-28T14:13:04Z</time>
      </trkpt>
      <trkpt lat="47.27925" lon="-1.659">
        <ele>109</ele>
        <time>2012-01-28T14:13:09Z</time>
      </trkpt>
      <trkpt lat="47.27928" lon="-1.6595">
        <ele>107</ele>
        <time>2012-01-28T14:13:43Z</time>
      </trkpt>
      <trkpt lat="47.27929" lon="-1.65962">
        <ele>110</ele>
        <time>2012-01-28T14:13:45Z</time>
      </trkpt>
      <trkpt lat="47.27933" lon="-1.6597">
        <ele>111</ele>
        <time>2012-01-28T14:13:49Z</time>
      </trkpt>
      <trkpt lat="47.27939" lon="-1.65974">
        <ele>111</ele>
        <time>2012-01-28T14:13:53Z</time>
      </trkpt>
      <trkpt lat="47.27934" lon="-1.65992">
        <ele>110</ele>
        <time>2012-01-28T14:14:25Z</time>
      </trkpt>
      <trkpt lat="47.27929" lon="-1.66">
        <ele>111</ele>
        <time>2012-01-28T14:14:49Z</time>
      </trkpt>
      <trkpt lat="47.27932" lon="-1.66008">
        <ele>111</ele>
        <time>2012-01-28T14:15:59Z</time>
      </trkpt>
      <trkpt lat="47.27931" lon="-1.66018">
        <ele>110</ele>
        <time>2012-01-28T14:16:05Z</time>
      </trkpt>
      <trkpt lat="47.27932" lon="-1.66027">
        <ele>110</ele>
        <time>2012-01-28T14:16:11Z</time>
      </trkpt>
      <trkpt lat="47.27933" lon="-1.66036">
        <ele>111</ele>
        <time>2012-01-28T14:16:16Z</time>
      </trkpt>
      <trkpt lat="47.27936" lon="-1.66044">
        <ele>111</ele>
        <time>2012-01-28T14:16:25Z</time>
      </trkpt>
      <trkpt lat="47.27941" lon="-1.66051">
        <ele>107</ele>
        <time>2012-01-28T14:16:36Z</time>
      </trkpt>
      <trkpt lat="47.27948" lon="-1.66053">
        <ele>105</ele>
        <time>2012-01-28T14:16:39Z</time>
      </trkpt>
      <trkpt lat="47.27951" lon="-1.66061">
        <ele>106</ele>
        <time>2012-01-28T14:16:43Z</time>
      </trkpt>
      <trkpt lat="47.27965" lon="-1.66082">
        <ele>111</ele>
        <time>2012-01-28T14:16:59Z</time>
      </trkpt>
      <trkpt lat="47.27977" lon="-1.66093">
        <ele>114</ele>
        <time>2012-01-28T14:17:06Z</time>
      </trkpt>
      <trkpt lat="47.27984" lon="-1.6609">
        <ele>114</ele>
        <time>2012-01-28T14:17:10Z</time>
      </trkpt>
      <trkpt lat="47.2799" lon="-1.66089">
        <ele>114</ele>
        <time>2012-01-28T14:17:16Z</time>
      </trkpt>
      <trkpt lat="47.28005" lon="-1.66089">
        <ele>115</ele>
        <time>2012-01-28T14:17:27Z</time>
      </trkpt>
      <trkpt lat="47.28018" lon="-1.66095">
        <ele>112</ele>
        <time>2012-01-28T14:17:34Z</time>
      </trkpt>
      <trkpt lat="47.28024" lon="-1.66095">
        <ele>111</ele>
        <time>2012-01-28T14:17:39Z</time>
      </trkpt>
      <trkpt lat="47.28032" lon="-1.66093">
        <ele>111</ele>
        <time>2012-01-28T14:17:44Z</time>
      </trkpt>
      <trkpt lat="47.28039" lon="-1.66093">
        <ele>110</ele>
        <time>2012-01-28T14:17:48Z</time>
      </trkpt>
      <trkpt lat="47.28046" lon="-1.66093">
        <ele>111</ele>
        <time>2012-01-28T14:17:53Z</time>
      </trkpt>
      <trkpt lat="47.28054" lon="-1.66093">
        <ele>111</ele>
        <time>2012-01-28T14:17:58Z</time>
      </trkpt>
      <trkpt lat="47.28062" lon="-1.66093">
        <ele>111</ele>
        <time>2012-01-28T14:18:03Z</time>
      </trkpt>
      <trkpt lat="47.28068" lon="-1.66093">
        <ele>110</ele>
        <time>2012-01-28T14:18:07Z</time>
      </trkpt>
      <trkpt lat="47.28075" lon="-1.66093">
        <ele>110</ele>
        <time>2012-01-28T14:18:12Z</time>
      </trkpt>
      <trkpt lat="47.28082" lon="-1.66093">
        <ele>109</ele>
        <time>2012-01-28T14:18:17Z</time>
      </trkpt>
      <trkpt lat="47.28089" lon="-1.66091">
        <ele>110</ele>
        <time>2012-01-28T14:18:22Z</time>
      </trkpt>
      <trkpt lat="47.28095" lon="-1.66089">
        <ele>110</ele>
        <time>2012-01-28T14:18:26Z</time>
      </trkpt>
      <trkpt lat="47.28109" lon="-1.66089">
        <ele>112</ele>
        <time>2012-01-28T14:18:36Z</time>
      </trkpt>
      <trkpt lat="47.28124" lon="-1.66093">
        <ele>112</ele>
        <time>2012-01-28T14:18:44Z</time>
      </trkpt>
      <trkpt lat="47.28127" lon="-1.66102">
        <ele>111</ele>
        <time>2012-01-28T14:18:48Z</time>
      </trkpt>
      <trkpt lat="47.28129" lon="-1.66112">
        <ele>111</ele>
        <time>2012-01-28T14:18:53Z</time>
      </trkpt>
      <trkpt lat="47.2813" lon="-1.66123">
        <ele>109</ele>
        <time>2012-01-28T14:18:59Z</time>
      </trkpt>
      <trkpt lat="47.28133" lon="-1.66132">
        <ele>108</ele>
        <time>2012-01-28T14:19:04Z</time>
      </trkpt>
      <trkpt lat="47.28134" lon="-1.66143">
        <ele>108</ele>
        <time>2012-01-28T14:19:09Z</time>
      </trkpt>
      <trkpt lat="47.28135" lon="-1.66152">
        <ele>108</ele>
        <time>2012-01-28T14:19:17Z</time>
      </trkpt>
      <trkpt lat="47.28135" lon="-1.66162">
        <ele>109</ele>
        <time>2012-01-28T14:19:20Z</time>
      </trkpt>
      <trkpt lat="47.28137" lon="-1.66173">
        <ele>108</ele>
        <time>2012-01-28T14:19:24Z</time>
      </trkpt>
      <trkpt lat="47.2814" lon="-1.66182">
        <ele>107</ele>
        <time>2012-01-28T14:19:29Z</time>
      </trkpt>
      <trkpt lat="47.28143" lon="-1.66191">
        <ele>108</ele>
        <time>2012-01-28T14:19:33Z</time>
      </trkpt>
      <trkpt lat="47.28144" lon="-1.66202">
        <ele>108</ele>
        <time>2012-01-28T14:19:37Z</time>
      </trkpt>
      <trkpt lat="47.28148" lon="-1.66211">
        <ele>107</ele>
        <time>2012-01-28T14:19:42Z</time>
      </trkpt>
      <trkpt lat="47.28151" lon="-1.66219">
        <ele>108</ele>
        <time>2012-01-28T14:19:46Z</time>
      </trkpt>
      <trkpt lat="47.28155" lon="-1.66228">
        <ele>108</ele>
        <time>2012-01-28T14:19:51Z</time>
      </trkpt>
      <trkpt lat="47.28155" lon="-1.66239">
        <ele>109</ele>
        <time>2012-01-28T14:19:55Z</time>
      </trkpt>
      <trkpt lat="47.28156" lon="-1.66249">
        <ele>109</ele>
        <time>2012-01-28T14:19:59Z</time>
      </trkpt>
      <trkpt lat="47.28156" lon="-1.66259">
        <ele>109</ele>
        <time>2012-01-28T14:20:04Z</time>
      </trkpt>
      <trkpt lat="47.2816" lon="-1.6627">
        <ele>108</ele>
        <time>2012-01-28T14:20:09Z</time>
      </trkpt>
      <trkpt lat="47.28162" lon="-1.66279">
        <ele>108</ele>
        <time>2012-01-28T14:20:13Z</time>
      </trkpt>
      <trkpt lat="47.28165" lon="-1.66287">
        <ele>110</ele>
        <time>2012-01-28T14:20:17Z</time>
      </trkpt>
      <trkpt lat="47.28166" lon="-1.66297">
        <ele>111</ele>
        <time>2012-01-28T14:20:23Z</time>
      </trkpt>
      <trkpt lat="47.28168" lon="-1.66306">
        <ele>110</ele>
        <time>2012-01-28T14:20:29Z</time>
      </trkpt>
      <trkpt lat="47.28171" lon="-1.66326">
        <ele>109</ele>
        <time>2012-01-28T14:20:38Z</time>
      </trkpt>
      <trkpt lat="47.28174" lon="-1.66335">
        <ele>110</ele>
        <time>2012-01-28T14:20:44Z</time>
      </trkpt>
      <trkpt lat="47.28177" lon="-1.66345">
        <ele>109</ele>
        <time>2012-01-28T14:20:49Z</time>
      </trkpt>
      <trkpt lat="47.2818" lon="-1.66355">
        <ele>109</ele>
        <time>2012-01-28T14:20:53Z</time>
      </trkpt>
      <trkpt lat="47.2818" lon="-1.66366">
        <ele>109</ele>
        <time>2012-01-28T14:20:57Z</time>
      </trkpt>
      <trkpt lat="47.28179" lon="-1.66375">
        <ele>110</ele>
        <time>2012-01-28T14:21:09Z</time>
      </trkpt>
      <trkpt lat="47.28173" lon="-1.66383">
        <ele>110</ele>
        <time>2012-01-28T14:21:13Z</time>
      </trkpt>
      <trkpt lat="47.28167" lon="-1.6639">
        <ele>111</ele>
        <time>2012-01-28T14:21:19Z</time>
      </trkpt>
      <trkpt lat="47.28161" lon="-1.66395">
        <ele>111</ele>
        <time>2012-01-28T14:21:24Z</time>
      </trkpt>
      <trkpt lat="47.28154" lon="-1.66396">
        <ele>109</ele>
        <time>2012-01-28T14:21:30Z</time>
      </trkpt>
      <trkpt lat="47.28147" lon="-1.66401">
        <ele>110</ele>
        <time>2012-01-28T14:21:36Z</time>
      </trkpt>
      <trkpt lat="47.28141" lon="-1.66408">
        <ele>111</ele>
        <time>2012-01-28T14:21:41Z</time>
      </trkpt>
      <trkpt lat="47.28135" lon="-1.66411">
        <ele>111</ele>
        <time>2012-01-28T14:21:46Z</time>
      </trkpt>
      <trkpt lat="47.28129" lon="-1.66414">
        <ele>112</ele>
        <time>2012-01-28T14:21:51Z</time>
      </trkpt>
      <trkpt lat="47.28122" lon="-1.66417">
        <ele>113</ele>
        <time>2012-01-28T14:21:55Z</time>
      </trkpt>
      <trkpt lat="47.28116" lon="-1.66422">
        <ele>112</ele>
        <time>2012-01-28T14:22:00Z</time>
      </trkpt>
      <trkpt lat="47.2811" lon="-1.66428">
        <ele>113</ele>
        <time>2012-01-28T14:22:04Z</time>
      </trkpt>
      <trkpt lat="47.2809" lon="-1.66445">
        <ele>110</ele>
        <time>2012-01-28T14:22:19Z</time>
      </trkpt>
      <trkpt lat="47.28084" lon="-1.6645">
        <ele>111</ele>
        <time>2012-01-28T14:22:23Z</time>
      </trkpt>
      <trkpt lat="47.28078" lon="-1.66455">
        <ele>111</ele>
        <time>2012-01-28T14:22:27Z</time>
      </trkpt>
      <trkpt lat="47.28073" lon="-1.66462">
        <ele>111</ele>
        <time>2012-01-28T14:22:35Z</time>
      </trkpt>
      <trkpt lat="47.28066" lon="-1.66464">
        <ele>110</ele>
        <time>2012-01-28T14:22:41Z</time>
      </trkpt>
      <trkpt lat="47.28059" lon="-1.66467">
        <ele>109</ele>
        <time>2012-01-28T14:22:45Z</time>
      </trkpt>
      <trkpt lat="47.28053" lon="-1.66471">
        <ele>108</ele>
        <time>2012-01-28T14:22:51Z</time>
      </trkpt>
      <trkpt lat="47.28047" lon="-1.6647">
        <ele>108</ele>
        <time>2012-01-28T14:22:55Z</time>
      </trkpt>
      <trkpt lat="47.2804" lon="-1.66473">
        <ele>108</ele>
        <time>2012-01-28T14:23:00Z</time>
      </trkpt>
      <trkpt lat="47.28034" lon="-1.66477">
        <ele>107</ele>
        <time>2012-01-28T14:23:06Z</time>
      </trkpt>
      <trkpt lat="47.28028" lon="-1.66481">
        <ele>106</ele>
        <time>2012-01-28T14:23:11Z</time>
      </trkpt>
      <trkpt lat="47.28021" lon="-1.66484">
        <ele>107</ele>
        <time>2012-01-28T14:23:17Z</time>
      </trkpt>
      <trkpt lat="47.28014" lon="-1.66487">
        <ele>107</ele>
        <time>2012-01-28T14:23:23Z</time>
      </trkpt>
      <trkpt lat="47.28007" lon="-1.6649">
        <ele>107</ele>
        <time>2012-01-28T14:23:28Z</time>
      </trkpt>
      <trkpt lat="47.28001" lon="-1.66494">
        <ele>107</ele>
        <time>2012-01-28T14:23:32Z</time>
      </trkpt>
      <trkpt lat="47.27994" lon="-1.66497">
        <ele>107</ele>
        <time>2012-01-28T14:23:37Z</time>
      </trkpt>
      <trkpt lat="47.27994" lon="-1.66509">
        <ele>106</ele>
        <time>2012-01-28T14:23:42Z</time>
      </trkpt>
      <trkpt lat="47.28004" lon="-1.66521">
        <ele>106</ele>
        <time>2012-01-28T14:23:54Z</time>
      </trkpt>
      <trkpt lat="47.2801" lon="-1.66527">
        <ele>105</ele>
        <time>2012-01-28T14:23:58Z</time>
      </trkpt>
      <trkpt lat="47.28015" lon="-1.66534">
        <ele>105</ele>
        <time>2012-01-28T14:24:04Z</time>
      </trkpt>
      <trkpt lat="47.2802" lon="-1.66542">
        <ele>106</ele>
        <time>2012-01-28T14:24:08Z</time>
      </trkpt>
      <trkpt lat="47.28025" lon="-1.66549">
        <ele>106</ele>
        <time>2012-01-28T14:24:11Z</time>
      </trkpt>
      <trkpt lat="47.28029" lon="-1.66556">
        <ele>104</ele>
        <time>2012-01-28T14:24:16Z</time>
      </trkpt>
      <trkpt lat="47.28033" lon="-1.66564">
        <ele>105</ele>
        <time>2012-01-28T14:24:30Z</time>
      </trkpt>
      <trkpt lat="47.28041" lon="-1.66569">
        <ele>105</ele>
        <time>2012-01-28T14:24:39Z</time>
      </trkpt>
      <trkpt lat="47.2806" lon="-1.66587">
        <ele>103</ele>
        <time>2012-01-28T14:24:51Z</time>
      </trkpt>
      <trkpt lat="47.28067" lon="-1.66593">
        <ele>105</ele>
        <time>2012-01-28T14:24:55Z</time>
      </trkpt>
      <trkpt lat="47.2807" lon="-1.66603">
        <ele>105</ele>
        <time>2012-01-28T14:24:59Z</time>
      </trkpt>
      <trkpt lat="47.28075" lon="-1.66613">
        <ele>105</ele>
        <time>2012-01-28T14:25:05Z</time>
      </trkpt>
      <trkpt lat="47.28078" lon="-1.66621">
        <ele>107</ele>
        <time>2012-01-28T14:25:08Z</time>
      </trkpt>
      <trkpt lat="47.28083" lon="-1.6663">
        <ele>109</ele>
        <time>2012-01-28T14:25:13Z</time>
      </trkpt>
      <trkpt lat="47.28088" lon="-1.66639">
        <ele>107</ele>
        <time>2012-01-28T14:25:18Z</time>
      </trkpt>
      <trkpt lat="47.28089" lon="-1.66648">
        <ele>107</ele>
        <time>2012-01-28T14:25:28Z</time>
      </trkpt>
      <trkpt lat="47.28088" lon="-1.66659">
        <ele>108</ele>
        <time>2012-01-28T14:25:33Z</time>
      </trkpt>
      <trkpt lat="47.28084" lon="-1.6667">
        <ele>109</ele>
        <time>2012-01-28T14:25:37Z</time>
      </trkpt>
      <trkpt lat="47.28082" lon="-1.66691">
        <ele>109</ele>
        <time>2012-01-28T14:25:46Z</time>
      </trkpt>
      <trkpt lat="47.28081" lon="-1.667">
        <ele>108</ele>
        <time>2012-01-28T14:25:50Z</time>
      </trkpt>
      <trkpt lat="47.28082" lon="-1.6671">
        <ele>107</ele>
        <time>2012-01-28T14:25:56Z</time>
      </trkpt>
      <trkpt lat="47.28081" lon="-1.6672">
        <ele>108</ele>
        <time>2012-01-28T14:26:06Z</time>
      </trkpt>
      <trkpt lat="47.28078" lon="-1.6673">
        <ele>108</ele>
        <time>2012-01-28T14:26:11Z</time>
      </trkpt>
      <trkpt lat="47.28077" lon="-1.6674">
        <ele>109</ele>
        <time>2012-01-28T14:26:16Z</time>
      </trkpt>
      <trkpt lat="47.28073" lon="-1.66749">
        <ele>110</ele>
        <time>2012-01-28T14:26:22Z</time>
      </trkpt>
      <trkpt lat="47.28072" lon="-1.66762">
        <ele>111</ele>
        <time>2012-01-28T14:26:28Z</time>
      </trkpt>
      <trkpt lat="47.2807" lon="-1.66771">
        <ele>110</ele>
        <time>2012-01-28T14:26:33Z</time>
      </trkpt>
      <trkpt lat="47.28072" lon="-1.6678">
        <ele>108</ele>
        <time>2012-01-28T14:26:38Z</time>
      </trkpt>
      <trkpt lat="47.2807" lon="-1.66789">
        <ele>108</ele>
        <time>2012-01-28T14:26:43Z</time>
      </trkpt>
      <trkpt lat="47.28068" lon="-1.66801">
        <ele>107</ele>
        <time>2012-01-28T14:26:49Z</time>
      </trkpt>
      <trkpt lat="47.2807" lon="-1.66811">
        <ele>107</ele>
        <time>2012-01-28T14:26:59Z</time>
      </trkpt>
      <trkpt lat="47.28068" lon="-1.66853">
        <ele>108</ele>
        <time>2012-01-28T14:27:26Z</time>
      </trkpt>
      <trkpt lat="47.28066" lon="-1.66863">
        <ele>107</ele>
        <time>2012-01-28T14:27:29Z</time>
      </trkpt>
      <trkpt lat="47.28061" lon="-1.66881">
        <ele>107</ele>
        <time>2012-01-28T14:27:34Z</time>
      </trkpt>
      <trkpt lat="47.28054" lon="-1.66907">
        <ele>105</ele>
        <time>2012-01-28T14:27:42Z</time>
      </trkpt>
      <trkpt lat="47.28051" lon="-1.66915">
        <ele>106</ele>
        <time>2012-01-28T14:27:49Z</time>
      </trkpt>
      <trkpt lat="47.28049" lon="-1.66927">
        <ele>106</ele>
        <time>2012-01-28T14:27:59Z</time>
      </trkpt>
      <trkpt lat="47.28048" lon="-1.66936">
        <ele>107</ele>
        <time>2012-01-28T14:28:04Z</time>
      </trkpt>
      <trkpt lat="47.28046" lon="-1.66947">
        <ele>105</ele>
        <time>2012-01-28T14:28:09Z</time>
      </trkpt>
      <trkpt lat="47.28043" lon="-1.66957">
        <ele>104</ele>
        <time>2012-01-28T14:28:12Z</time>
      </trkpt>
      <trkpt lat="47.28039" lon="-1.66979">
        <ele>104</ele>
        <time>2012-01-28T14:28:21Z</time>
      </trkpt>
      <trkpt lat="47.28035" lon="-1.66987">
        <ele>105</ele>
        <time>2012-01-28T14:28:26Z</time>
      </trkpt>
      <trkpt lat="47.28032" lon="-1.66997">
        <ele>106</ele>
        <time>2012-01-28T14:28:30Z</time>
      </trkpt>
      <trkpt lat="47.28031" lon="-1.67006">
        <ele>107</ele>
        <time>2012-01-28T14:28:35Z</time>
      </trkpt>
      <trkpt lat="47.2803" lon="-1.67015">
        <ele>106</ele>
        <time>2012-01-28T14:28:40Z</time>
      </trkpt>
      <trkpt lat="47.28026" lon="-1.67023">
        <ele>106</ele>
        <time>2012-01-28T14:28:58Z</time>
      </trkpt>
      <trkpt lat="47.28024" lon="-1.67032">
        <ele>105</ele>
        <time>2012-01-28T14:29:05Z</time>
      </trkpt>
      <trkpt lat="47.2802" lon="-1.67039">
        <ele>106</ele>
        <time>2012-01-28T14:29:10Z</time>
      </trkpt>
      <trkpt lat="47.28019" lon="-1.67049">
        <ele>105</ele>
        <time>2012-01-28T14:29:15Z</time>
      </trkpt>
      <trkpt lat="47.28017" lon="-1.67058">
        <ele>107</ele>
        <time>2012-01-28T14:29:20Z</time>
      </trkpt>
      <trkpt lat="47.28014" lon="-1.67068">
        <ele>107</ele>
        <time>2012-01-28T14:29:26Z</time>
      </trkpt>
      <trkpt lat="47.28015" lon="-1.67078">
        <ele>106</ele>
        <time>2012-01-28T14:29:34Z</time>
      </trkpt>
      <trkpt lat="47.28014" lon="-1.67087">
        <ele>105</ele>
        <time>2012-01-28T14:29:45Z</time>
      </trkpt>
      <trkpt lat="47.2801" lon="-1.67097">
        <ele>105</ele>
        <time>2012-01-28T14:29:50Z</time>
      </trkpt>
      <trkpt lat="47.28007" lon="-1.67106">
        <ele>105</ele>
        <time>2012-01-28T14:29:53Z</time>
      </trkpt>
      <trkpt lat="47.28004" lon="-1.67116">
        <ele>105</ele>
        <time>2012-01-28T14:29:56Z</time>
      </trkpt>
      <trkpt lat="47.28002" lon="-1.67127">
        <ele>106</ele>
        <time>2012-01-28T14:30:01Z</time>
      </trkpt>
      <trkpt lat="47.28" lon="-1.67136">
        <ele>107</ele>
        <time>2012-01-28T14:30:04Z</time>
      </trkpt>
      <trkpt lat="47.27996" lon="-1.67145">
        <ele>108</ele>
        <time>2012-01-28T14:30:07Z</time>
      </trkpt>
      <trkpt lat="47.27994" lon="-1.67154">
        <ele>109</ele>
        <time>2012-01-28T14:30:11Z</time>
      </trkpt>
      <trkpt lat="47.27993" lon="-1.67163">
        <ele>109</ele>
        <time>2012-01-28T14:30:16Z</time>
      </trkpt>
      <trkpt lat="47.27992" lon="-1.67174">
        <ele>110</ele>
        <time>2012-01-28T14:30:20Z</time>
      </trkpt>
      <trkpt lat="47.27989" lon="-1.67182">
        <ele>110</ele>
        <time>2012-01-28T14:30:32Z</time>
      </trkpt>
      <trkpt lat="47.27986" lon="-1.6719">
        <ele>111</ele>
        <time>2012-01-28T14:30:36Z</time>
      </trkpt>
      <trkpt lat="47.27984" lon="-1.67199">
        <ele>113</ele>
        <time>2012-01-28T14:30:39Z</time>
      </trkpt>
      <trkpt lat="47.27973" lon="-1.67226">
        <ele>113</ele>
        <time>2012-01-28T14:30:47Z</time>
      </trkpt>
      <trkpt lat="47.2797" lon="-1.67235">
        <ele>112</ele>
        <time>2012-01-28T14:30:51Z</time>
      </trkpt>
      <trkpt lat="47.27967" lon="-1.67245">
        <ele>112</ele>
        <time>2012-01-28T14:30:56Z</time>
      </trkpt>
      <trkpt lat="47.27964" lon="-1.67253">
        <ele>113</ele>
        <time>2012-01-28T14:31:04Z</time>
      </trkpt>
      <trkpt lat="47.27961" lon="-1.67263">
        <ele>110</ele>
        <time>2012-01-28T14:31:17Z</time>
      </trkpt>
      <trkpt lat="47.27955" lon="-1.67282">
        <ele>111</ele>
        <time>2012-01-28T14:31:22Z</time>
      </trkpt>
      <trkpt lat="47.27949" lon="-1.6729">
        <ele>111</ele>
        <time>2012-01-28T14:31:25Z</time>
      </trkpt>
      <trkpt lat="47.27949" lon="-1.6729">
        <ele>62</ele>
        <time>2012-01-28T14:31:45Z</time>
      </trkpt>
      <trkpt lat="47.27949" lon="-1.6729">
        <ele>62</ele>
        <time>2012-01-28T14:31:52Z</time>
      </trkpt>
      <trkpt lat="47.27949" lon="-1.67302">
        <ele>109</ele>
        <time>2012-01-28T14:32:19Z</time>
      </trkpt>
      <trkpt lat="47.27947" lon="-1.67311">
        <ele>108</ele>
        <time>2012-01-28T14:32:22Z</time>
      </trkpt>
      <trkpt lat="47.27944" lon="-1.67319">
        <ele>107</ele>
        <time>2012-01-28T14:32:26Z</time>
      </trkpt>
      <trkpt lat="47.27941" lon="-1.6733">
        <ele>107</ele>
        <time>2012-01-28T14:32:31Z</time>
      </trkpt>
      <trkpt lat="47.27935" lon="-1.67347">
        <ele>107</ele>
        <time>2012-01-28T14:32:40Z</time>
      </trkpt>
      <trkpt lat="47.27932" lon="-1.67357">
        <ele>109</ele>
        <time>2012-01-28T14:32:45Z</time>
      </trkpt>
      <trkpt lat="47.2793" lon="-1.67367">
        <ele>109</ele>
        <time>2012-01-28T14:32:50Z</time>
      </trkpt>
      <trkpt lat="47.2793" lon="-1.67378">
        <ele>109</ele>
        <time>2012-01-28T14:33:07Z</time>
      </trkpt>
      <trkpt lat="47.27923" lon="-1.67413">
        <ele>105</ele>
        <time>2012-01-28T14:33:18Z</time>
      </trkpt>
      <trkpt lat="47.27925" lon="-1.67423">
        <ele>105</ele>
        <time>2012-01-28T14:33:21Z</time>
      </trkpt>
      <trkpt lat="47.27929" lon="-1.67429">
        <ele>105</ele>
        <time>2012-01-28T14:33:25Z</time>
      </trkpt>
      <trkpt lat="47.27935" lon="-1.67434">
        <ele>106</ele>
        <time>2012-01-28T14:33:30Z</time>
      </trkpt>
      <trkpt lat="47.27943" lon="-1.67437">
        <ele>108</ele>
        <time>2012-01-28T14:33:35Z</time>
      </trkpt>
      <trkpt lat="47.27949" lon="-1.67441">
        <ele>107</ele>
        <time>2012-01-28T14:33:40Z</time>
      </trkpt>
      <trkpt lat="47.27956" lon="-1.67442">
        <ele>107</ele>
        <time>2012-01-28T14:33:45Z</time>
      </trkpt>
      <trkpt lat="47.27963" lon="-1.67445">
        <ele>107</ele>
        <time>2012-01-28T14:33:50Z</time>
      </trkpt>
      <trkpt lat="47.2797" lon="-1.67447">
        <ele>106</ele>
        <time>2012-01-28T14:33:55Z</time>
      </trkpt>
      <trkpt lat="47.27975" lon="-1.67453">
        <ele>107</ele>
        <time>2012-01-28T14:33:59Z</time>
      </trkpt>
      <trkpt lat="47.27982" lon="-1.67456">
        <ele>107</ele>
        <time>2012-01-28T14:34:04Z</time>
      </trkpt>
      <trkpt lat="47.27989" lon="-1.67461">
        <ele>108</ele>
        <time>2012-01-28T14:34:10Z</time>
      </trkpt>
      <trkpt lat="47.27996" lon="-1.67462">
        <ele>108</ele>
        <time>2012-01-28T14:34:15Z</time>
      </trkpt>
      <trkpt lat="47.28007" lon="-1.67477">
        <ele>108</ele>
        <time>2012-01-28T14:34:26Z</time>
      </trkpt>
      <trkpt lat="47.2801" lon="-1.67484">
        <ele>107</ele>
        <time>2012-01-28T14:34:31Z</time>
      </trkpt>
      <trkpt lat="47.28013" lon="-1.67495">
        <ele>105</ele>
        <time>2012-01-28T14:34:39Z</time>
      </trkpt>
      <trkpt lat="47.2801" lon="-1.67505">
        <ele>107</ele>
        <time>2012-01-28T14:34:43Z</time>
      </trkpt>
      <trkpt lat="47.28011" lon="-1.67516">
        <ele>106</ele>
        <time>2012-01-28T14:34:49Z</time>
      </trkpt>
      <trkpt lat="47.2801" lon="-1.67525">
        <ele>107</ele>
        <time>2012-01-28T14:34:55Z</time>
      </trkpt>
      <trkpt lat="47.28008" lon="-1.67536">
        <ele>108</ele>
        <time>2012-01-28T14:35:01Z</time>
      </trkpt>
      <trkpt lat="47.28007" lon="-1.67546">
        <ele>108</ele>
        <time>2012-01-28T14:35:04Z</time>
      </trkpt>
      <trkpt lat="47.28008" lon="-1.67557">
        <ele>106</ele>
        <time>2012-01-28T14:35:08Z</time>
      </trkpt>
      <trkpt lat="47.28007" lon="-1.67567">
        <ele>104</ele>
        <time>2012-01-28T14:35:16Z</time>
      </trkpt>
      <trkpt lat="47.28004" lon="-1.67577">
        <ele>104</ele>
        <time>2012-01-28T14:35:21Z</time>
      </trkpt>
      <trkpt lat="47.28003" lon="-1.67587">
        <ele>105</ele>
        <time>2012-01-28T14:35:25Z</time>
      </trkpt>
      <trkpt lat="47.28004" lon="-1.67598">
        <ele>103</ele>
        <time>2012-01-28T14:35:32Z</time>
      </trkpt>
      <trkpt lat="47.28004" lon="-1.67608">
        <ele>103</ele>
        <time>2012-01-28T14:35:36Z</time>
      </trkpt>
      <trkpt lat="47.28002" lon="-1.67628">
        <ele>102</ele>
        <time>2012-01-28T14:35:49Z</time>
      </trkpt>
      <trkpt lat="47.28" lon="-1.67661">
        <ele>99</ele>
        <time>2012-01-28T14:36:00Z</time>
      </trkpt>
      <trkpt lat="47.27998" lon="-1.6767">
        <ele>98</ele>
        <time>2012-01-28T14:36:13Z</time>
      </trkpt>
      <trkpt lat="47.27997" lon="-1.677">
        <ele>96</ele>
        <time>2012-01-28T14:36:23Z</time>
      </trkpt>
      <trkpt lat="47.27995" lon="-1.67708">
        <ele>96</ele>
        <time>2012-01-28T14:36:27Z</time>
      </trkpt>
      <trkpt lat="47.27989" lon="-1.67718">
        <ele>96</ele>
        <time>2012-01-28T14:36:38Z</time>
      </trkpt>
      <trkpt lat="47.27979" lon="-1.67734">
        <ele>98</ele>
        <time>2012-01-28T14:36:42Z</time>
      </trkpt>
      <trkpt lat="47.27973" lon="-1.6774">
        <ele>98</ele>
        <time>2012-01-28T14:36:44Z</time>
      </trkpt>
      <trkpt lat="47.27966" lon="-1.67741">
        <ele>98</ele>
        <time>2012-01-28T14:36:51Z</time>
      </trkpt>
      <trkpt lat="47.27958" lon="-1.67741">
        <ele>98</ele>
        <time>2012-01-28T14:36:56Z</time>
      </trkpt>
      <trkpt lat="47.27951" lon="-1.6774">
        <ele>98</ele>
        <time>2012-01-28T14:37:01Z</time>
      </trkpt>
      <trkpt lat="47.27944" lon="-1.67742">
        <ele>98</ele>
        <time>2012-01-28T14:37:06Z</time>
      </trkpt>
      <trkpt lat="47.27937" lon="-1.67743">
        <ele>99</ele>
        <time>2012-01-28T14:37:12Z</time>
      </trkpt>
      <trkpt lat="47.27931" lon="-1.67745">
        <ele>99</ele>
        <time>2012-01-28T14:37:17Z</time>
      </trkpt>
      <trkpt lat="47.27925" lon="-1.6775">
        <ele>100</ele>
        <time>2012-01-28T14:37:22Z</time>
      </trkpt>
      <trkpt lat="47.27918" lon="-1.6775">
        <ele>100</ele>
        <time>2012-01-28T14:37:25Z</time>
      </trkpt>
      <trkpt lat="47.27911" lon="-1.6775">
        <ele>99</ele>
        <time>2012-01-28T14:37:29Z</time>
      </trkpt>
      <trkpt lat="47.27904" lon="-1.67755">
        <ele>100</ele>
        <time>2012-01-28T14:37:35Z</time>
      </trkpt>
      <trkpt lat="47.27898" lon="-1.67759">
        <ele>101</ele>
        <time>2012-01-28T14:37:39Z</time>
      </trkpt>
      <trkpt lat="47.27892" lon="-1.67764">
        <ele>100</ele>
        <time>2012-01-28T14:37:44Z</time>
      </trkpt>
      <trkpt lat="47.27885" lon="-1.67767">
        <ele>100</ele>
        <time>2012-01-28T14:37:49Z</time>
      </trkpt>
      <trkpt lat="47.27878" lon="-1.67772">
        <ele>101</ele>
        <time>2012-01-28T14:37:52Z</time>
      </trkpt>
      <trkpt lat="47.27872" lon="-1.67777">
        <ele>101</ele>
        <time>2012-01-28T14:37:57Z</time>
      </trkpt>
      <trkpt lat="47.27867" lon="-1.67781">
        <ele>101</ele>
        <time>2012-01-28T14:38:02Z</time>
      </trkpt>
      <trkpt lat="47.27859" lon="-1.67782">
        <ele>103</ele>
        <time>2012-01-28T14:38:06Z</time>
      </trkpt>
      <trkpt lat="47.27853" lon="-1.67778">
        <ele>103</ele>
        <time>2012-01-28T14:38:12Z</time>
      </trkpt>
      <trkpt lat="47.2784" lon="-1.67773">
        <ele>104</ele>
        <time>2012-01-28T14:38:22Z</time>
      </trkpt>
      <trkpt lat="47.27832" lon="-1.67772">
        <ele>108</ele>
        <time>2012-01-28T14:38:27Z</time>
      </trkpt>
      <trkpt lat="47.27824" lon="-1.67771">
        <ele>109</ele>
        <time>2012-01-28T14:38:34Z</time>
      </trkpt>
      <trkpt lat="47.27818" lon="-1.67775">
        <ele>108</ele>
        <time>2012-01-28T14:38:39Z</time>
      </trkpt>
      <trkpt lat="47.27811" lon="-1.67779">
        <ele>107</ele>
        <time>2012-01-28T14:38:45Z</time>
      </trkpt>
      <trkpt lat="47.27804" lon="-1.67786">
        <ele>107</ele>
        <time>2012-01-28T14:38:49Z</time>
      </trkpt>
      <trkpt lat="47.27796" lon="-1.67795">
        <ele>106</ele>
        <time>2012-01-28T14:38:54Z</time>
      </trkpt>
      <trkpt lat="47.2779" lon="-1.678">
        <ele>106</ele>
        <time>2012-01-28T14:38:58Z</time>
      </trkpt>
      <trkpt lat="47.27785" lon="-1.67805">
        <ele>106</ele>
        <time>2012-01-28T14:39:03Z</time>
      </trkpt>
      <trkpt lat="47.27779" lon="-1.67812">
        <ele>106</ele>
        <time>2012-01-28T14:39:08Z</time>
      </trkpt>
      <trkpt lat="47.27774" lon="-1.67818">
        <ele>104</ele>
        <time>2012-01-28T14:39:12Z</time>
      </trkpt>
      <trkpt lat="47.27768" lon="-1.67825">
        <ele>105</ele>
        <time>2012-01-28T14:39:18Z</time>
      </trkpt>
      <trkpt lat="47.27763" lon="-1.67832">
        <ele>104</ele>
        <time>2012-01-28T14:39:24Z</time>
      </trkpt>
      <trkpt lat="47.27757" lon="-1.67839">
        <ele>104</ele>
        <time>2012-01-28T14:39:28Z</time>
      </trkpt>
      <trkpt lat="47.27751" lon="-1.67845">
        <ele>103</ele>
        <time>2012-01-28T14:39:33Z</time>
      </trkpt>
      <trkpt lat="47.27745" lon="-1.67852">
        <ele>103</ele>
        <time>2012-01-28T14:39:37Z</time>
      </trkpt>
      <trkpt lat="47.27739" lon="-1.6786">
        <ele>100</ele>
        <time>2012-01-28T14:39:42Z</time>
      </trkpt>
      <trkpt lat="47.27729" lon="-1.67875">
        <ele>97</ele>
        <time>2012-01-28T14:39:54Z</time>
      </trkpt>
      <trkpt lat="47.27724" lon="-1.67882">
        <ele>98</ele>
        <time>2012-01-28T14:39:59Z</time>
      </trkpt>
      <trkpt lat="47.27722" lon="-1.67891">
        <ele>97</ele>
        <time>2012-01-28T14:40:04Z</time>
      </trkpt>
      <trkpt lat="47.27702" lon="-1.67908">
        <ele>101</ele>
        <time>2012-01-28T14:40:19Z</time>
      </trkpt>
      <trkpt lat="47.27698" lon="-1.67915">
        <ele>101</ele>
        <time>2012-01-28T14:40:23Z</time>
      </trkpt>
      <trkpt lat="47.27687" lon="-1.67928">
        <ele>102</ele>
        <time>2012-01-28T14:40:32Z</time>
      </trkpt>
      <trkpt lat="47.27677" lon="-1.67943">
        <ele>102</ele>
        <time>2012-01-28T14:40:50Z</time>
      </trkpt>
      <trkpt lat="47.27653" lon="-1.67982">
        <ele>104</ele>
        <time>2012-01-28T14:41:13Z</time>
      </trkpt>
      <trkpt lat="47.27648" lon="-1.67991">
        <ele>105</ele>
        <time>2012-01-28T14:41:15Z</time>
      </trkpt>
      <trkpt lat="47.27642" lon="-1.67997">
        <ele>104</ele>
        <time>2012-01-28T14:41:19Z</time>
      </trkpt>
      <trkpt lat="47.27632" lon="-1.68011">
        <ele>104</ele>
        <time>2012-01-28T14:41:26Z</time>
      </trkpt>
      <trkpt lat="47.27628" lon="-1.6802">
        <ele>102</ele>
        <time>2012-01-28T14:41:29Z</time>
      </trkpt>
      <trkpt lat="47.27624" lon="-1.68028">
        <ele>103</ele>
        <time>2012-01-28T14:41:33Z</time>
      </trkpt>
      <trkpt lat="47.27625" lon="-1.68037">
        <ele>102</ele>
        <time>2012-01-28T14:41:40Z</time>
      </trkpt>
      <trkpt lat="47.27627" lon="-1.68047">
        <ele>102</ele>
        <time>2012-01-28T14:41:45Z</time>
      </trkpt>
      <trkpt lat="47.27627" lon="-1.68057">
        <ele>102</ele>
        <time>2012-01-28T14:41:51Z</time>
      </trkpt>
      <trkpt lat="47.27627" lon="-1.68067">
        <ele>103</ele>
        <time>2012-01-28T14:41:57Z</time>
      </trkpt>
      <trkpt lat="47.27635" lon="-1.68096">
        <ele>102</ele>
        <time>2012-01-28T14:42:15Z</time>
      </trkpt>
      <trkpt lat="47.27637" lon="-1.68106">
        <ele>101</ele>
        <time>2012-01-28T14:42:21Z</time>
      </trkpt>
      <trkpt lat="47.27634" lon="-1.68118">
        <ele>102</ele>
        <time>2012-01-28T14:42:27Z</time>
      </trkpt>
      <trkpt lat="47.27631" lon="-1.68128">
        <ele>102</ele>
        <time>2012-01-28T14:42:31Z</time>
      </trkpt>
      <trkpt lat="47.27628" lon="-1.68137">
        <ele>102</ele>
        <time>2012-01-28T14:42:35Z</time>
      </trkpt>
      <trkpt lat="47.27626" lon="-1.68149">
        <ele>102</ele>
        <time>2012-01-28T14:42:39Z</time>
      </trkpt>
      <trkpt lat="47.27627" lon="-1.68183">
        <ele>100</ele>
        <time>2012-01-28T14:42:54Z</time>
      </trkpt>
      <trkpt lat="47.2763" lon="-1.68192">
        <ele>99</ele>
        <time>2012-01-28T14:42:58Z</time>
      </trkpt>
      <trkpt lat="47.27631" lon="-1.68202">
        <ele>98</ele>
        <time>2012-01-28T14:43:02Z</time>
      </trkpt>
      <trkpt lat="47.27636" lon="-1.6821">
        <ele>100</ele>
        <time>2012-01-28T14:43:08Z</time>
      </trkpt>
      <trkpt lat="47.27641" lon="-1.68217">
        <ele>100</ele>
        <time>2012-01-28T14:43:14Z</time>
      </trkpt>
      <trkpt lat="47.27641" lon="-1.68228">
        <ele>100</ele>
        <time>2012-01-28T14:43:20Z</time>
      </trkpt>
      <trkpt lat="47.27649" lon="-1.68244">
        <ele>98</ele>
        <time>2012-01-28T14:43:30Z</time>
      </trkpt>
      <trkpt lat="47.27655" lon="-1.68274">
        <ele>97</ele>
        <time>2012-01-28T14:43:44Z</time>
      </trkpt>
      <trkpt lat="47.27656" lon="-1.68283">
        <ele>97</ele>
        <time>2012-01-28T14:44:01Z</time>
      </trkpt>
      <trkpt lat="47.27658" lon="-1.68307">
        <ele>98</ele>
        <time>2012-01-28T14:44:06Z</time>
      </trkpt>
      <trkpt lat="47.27658" lon="-1.68318">
        <ele>98</ele>
        <time>2012-01-28T14:44:09Z</time>
      </trkpt>
      <trkpt lat="47.27665" lon="-1.68327">
        <ele>98</ele>
        <time>2012-01-28T14:44:13Z</time>
      </trkpt>
      <trkpt lat="47.27664" lon="-1.68337">
        <ele>99</ele>
        <time>2012-01-28T14:44:18Z</time>
      </trkpt>
      <trkpt lat="47.27673" lon="-1.68366">
        <ele>96</ele>
        <time>2012-01-28T14:52:17Z</time>
      </trkpt>
      <trkpt lat="47.2767" lon="-1.68374">
        <ele>95</ele>
        <time>2012-01-28T14:52:21Z</time>
      </trkpt>
      <trkpt lat="47.2767" lon="-1.68384">
        <ele>95</ele>
        <time>2012-01-28T14:52:27Z</time>
      </trkpt>
      <trkpt lat="47.27675" lon="-1.68392">
        <ele>96</ele>
        <time>2012-01-28T14:52:31Z</time>
      </trkpt>
      <trkpt lat="47.27679" lon="-1.68401">
        <ele>95</ele>
        <time>2012-01-28T14:52:35Z</time>
      </trkpt>
      <trkpt lat="47.2768" lon="-1.68411">
        <ele>97</ele>
        <time>2012-01-28T14:52:40Z</time>
      </trkpt>
      <trkpt lat="47.27684" lon="-1.68419">
        <ele>101</ele>
        <time>2012-01-28T14:52:45Z</time>
      </trkpt>
      <trkpt lat="47.27683" lon="-1.68428">
        <ele>99</ele>
        <time>2012-01-28T14:52:49Z</time>
      </trkpt>
      <trkpt lat="47.27685" lon="-1.68439">
        <ele>98</ele>
        <time>2012-01-28T14:52:56Z</time>
      </trkpt>
      <trkpt lat="47.27688" lon="-1.68448">
        <ele>98</ele>
        <time>2012-01-28T14:53:01Z</time>
      </trkpt>
      <trkpt lat="47.27691" lon="-1.68459">
        <ele>99</ele>
        <time>2012-01-28T14:53:09Z</time>
      </trkpt>
      <trkpt lat="47.27696" lon="-1.68465">
        <ele>98</ele>
        <time>2012-01-28T14:53:14Z</time>
      </trkpt>
      <trkpt lat="47.27697" lon="-1.68475">
        <ele>98</ele>
        <time>2012-01-28T14:53:19Z</time>
      </trkpt>
      <trkpt lat="47.27703" lon="-1.6848">
        <ele>97</ele>
        <time>2012-01-28T14:53:23Z</time>
      </trkpt>
      <trkpt lat="47.27713" lon="-1.68496">
        <ele>98</ele>
        <time>2012-01-28T14:53:34Z</time>
      </trkpt>
      <trkpt lat="47.27723" lon="-1.68506">
        <ele>98</ele>
        <time>2012-01-28T14:53:47Z</time>
      </trkpt>
      <trkpt lat="47.27728" lon="-1.68512">
        <ele>97</ele>
        <time>2012-01-28T14:53:52Z</time>
      </trkpt>
      <trkpt lat="47.27736" lon="-1.68516">
        <ele>97</ele>
        <time>2012-01-28T14:53:57Z</time>
      </trkpt>
      <trkpt lat="47.27738" lon="-1.68525">
        <ele>95</ele>
        <time>2012-01-28T14:54:04Z</time>
      </trkpt>
      <trkpt lat="47.27748" lon="-1.68544">
        <ele>95</ele>
        <time>2012-01-28T14:54:20Z</time>
      </trkpt>
      <trkpt lat="47.27747" lon="-1.68555">
        <ele>95</ele>
        <time>2012-01-28T14:54:30Z</time>
      </trkpt>
      <trkpt lat="47.27739" lon="-1.68569">
        <ele>94</ele>
        <time>2012-01-28T14:55:06Z</time>
      </trkpt>
      <trkpt lat="47.27736" lon="-1.68579">
        <ele>96</ele>
        <time>2012-01-28T14:55:09Z</time>
      </trkpt>
      <trkpt lat="47.27729" lon="-1.68583">
        <ele>96</ele>
        <time>2012-01-28T14:55:12Z</time>
      </trkpt>
      <trkpt lat="47.27723" lon="-1.6859">
        <ele>95</ele>
        <time>2012-01-28T14:55:16Z</time>
      </trkpt>
      <trkpt lat="47.27716" lon="-1.68594">
        <ele>93</ele>
        <time>2012-01-28T14:55:20Z</time>
      </trkpt>
      <trkpt lat="47.27707" lon="-1.686">
        <ele>93</ele>
        <time>2012-01-28T14:55:23Z</time>
      </trkpt>
      <trkpt lat="47.27695" lon="-1.68612">
        <ele>92</ele>
        <time>2012-01-28T14:55:29Z</time>
      </trkpt>
      <trkpt lat="47.27688" lon="-1.68612">
        <ele>91</ele>
        <time>2012-01-28T14:55:33Z</time>
      </trkpt>
      <trkpt lat="47.27684" lon="-1.68621">
        <ele>92</ele>
        <time>2012-01-28T14:55:40Z</time>
      </trkpt>
      <trkpt lat="47.27679" lon="-1.68632">
        <ele>92</ele>
        <time>2012-01-28T14:55:44Z</time>
      </trkpt>
      <trkpt lat="47.27677" lon="-1.68642">
        <ele>91</ele>
        <time>2012-01-28T14:55:49Z</time>
      </trkpt>
      <trkpt lat="47.27679" lon="-1.68651">
        <ele>93</ele>
        <time>2012-01-28T14:55:57Z</time>
      </trkpt>
      <trkpt lat="47.27679" lon="-1.68662">
        <ele>93</ele>
        <time>2012-01-28T14:56:03Z</time>
      </trkpt>
      <trkpt lat="47.27683" lon="-1.68678">
        <ele>92</ele>
        <time>2012-01-28T14:56:16Z</time>
      </trkpt>
      <trkpt lat="47.2768" lon="-1.68689">
        <ele>91</ele>
        <time>2012-01-28T14:56:24Z</time>
      </trkpt>
      <trkpt lat="47.27686" lon="-1.68694">
        <ele>93</ele>
        <time>2012-01-28T14:56:36Z</time>
      </trkpt>
      <trkpt lat="47.27699" lon="-1.6869">
        <ele>92</ele>
        <time>2012-01-28T14:56:46Z</time>
      </trkpt>
      <trkpt lat="47.27706" lon="-1.6869">
        <ele>92</ele>
        <time>2012-01-28T14:57:02Z</time>
      </trkpt>
      <trkpt lat="47.27712" lon="-1.68689">
        <ele>93</ele>
        <time>2012-01-28T14:57:24Z</time>
      </trkpt>
      <trkpt lat="47.27733" lon="-1.68695">
        <ele>94</ele>
        <time>2012-01-28T14:57:36Z</time>
      </trkpt>
      <trkpt lat="47.27741" lon="-1.68698">
        <ele>97</ele>
        <time>2012-01-28T14:57:49Z</time>
      </trkpt>
      <trkpt lat="47.27746" lon="-1.68701">
        <ele>97</ele>
        <time>2012-01-28T14:57:52Z</time>
      </trkpt>
      <trkpt lat="47.27751" lon="-1.68708">
        <ele>97</ele>
        <time>2012-01-28T14:57:58Z</time>
      </trkpt>
      <trkpt lat="47.27763" lon="-1.68737">
        <ele>92</ele>
        <time>2012-01-28T14:58:22Z</time>
      </trkpt>
      <trkpt lat="47.27772" lon="-1.68754">
        <ele>92</ele>
        <time>2012-01-28T14:59:01Z</time>
      </trkpt>
      <trkpt lat="47.2778" lon="-1.68783">
        <ele>92</ele>
        <time>2012-01-28T14:59:06Z</time>
      </trkpt>
      <trkpt lat="47.27783" lon="-1.68793">
        <ele>92</ele>
        <time>2012-01-28T14:59:09Z</time>
      </trkpt>
      <trkpt lat="47.27782" lon="-1.68804">
        <ele>94</ele>
        <time>2012-01-28T14:59:13Z</time>
      </trkpt>
      <trkpt lat="47.27779" lon="-1.68817">
        <ele>94</ele>
        <time>2012-01-28T14:59:18Z</time>
      </trkpt>
      <trkpt lat="47.27781" lon="-1.68827">
        <ele>93</ele>
        <time>2012-01-28T14:59:22Z</time>
      </trkpt>
      <trkpt lat="47.27783" lon="-1.68839">
        <ele>93</ele>
        <time>2012-01-28T14:59:25Z</time>
      </trkpt>
      <trkpt lat="47.27779" lon="-1.68849">
        <ele>91</ele>
        <time>2012-01-28T14:59:36Z</time>
      </trkpt>
      <trkpt lat="47.27773" lon="-1.68854">
        <ele>92</ele>
        <time>2012-01-28T14:59:41Z</time>
      </trkpt>
      <trkpt lat="47.27767" lon="-1.68859">
        <ele>93</ele>
        <time>2012-01-28T14:59:46Z</time>
      </trkpt>
      <trkpt lat="47.27761" lon="-1.68865">
        <ele>93</ele>
        <time>2012-01-28T14:59:51Z</time>
      </trkpt>
      <trkpt lat="47.27756" lon="-1.68874">
        <ele>93</ele>
        <time>2012-01-28T15:00:04Z</time>
      </trkpt>
      <trkpt lat="47.27741" lon="-1.68901">
        <ele>94</ele>
        <time>2012-01-28T15:00:16Z</time>
      </trkpt>
      <trkpt lat="47.27742" lon="-1.68913">
        <ele>93</ele>
        <time>2012-01-28T15:00:19Z</time>
      </trkpt>
      <trkpt lat="47.27738" lon="-1.6892">
        <ele>93</ele>
        <time>2012-01-28T15:00:33Z</time>
      </trkpt>
      <trkpt lat="47.27732" lon="-1.68927">
        <ele>94</ele>
        <time>2012-01-28T15:00:37Z</time>
      </trkpt>
      <trkpt lat="47.27729" lon="-1.68934">
        <ele>93</ele>
        <time>2012-01-28T15:00:42Z</time>
      </trkpt>
      <trkpt lat="47.27726" lon="-1.68945">
        <ele>95</ele>
        <time>2012-01-28T15:01:03Z</time>
      </trkpt>
      <trkpt lat="47.27732" lon="-1.68949">
        <ele>94</ele>
        <time>2012-01-28T15:01:09Z</time>
      </trkpt>
      <trkpt lat="47.27747" lon="-1.68959">
        <ele>103</ele>
        <time>2012-01-28T15:01:18Z</time>
      </trkpt>
      <trkpt lat="47.27754" lon="-1.68963">
        <ele>101</ele>
        <time>2012-01-28T15:01:23Z</time>
      </trkpt>
      <trkpt lat="47.2776" lon="-1.68968">
        <ele>101</ele>
        <time>2012-01-28T15:01:31Z</time>
      </trkpt>
      <trkpt lat="47.27765" lon="-1.68973">
        <ele>101</ele>
        <time>2012-01-28T15:01:36Z</time>
      </trkpt>
      <trkpt lat="47.27772" lon="-1.6898">
        <ele>99</ele>
        <time>2012-01-28T15:01:42Z</time>
      </trkpt>
      <trkpt lat="47.27778" lon="-1.68983">
        <ele>99</ele>
        <time>2012-01-28T15:01:48Z</time>
      </trkpt>
      <trkpt lat="47.27785" lon="-1.68986">
        <ele>99</ele>
        <time>2012-01-28T15:01:53Z</time>
      </trkpt>
      <trkpt lat="47.27791" lon="-1.6899">
        <ele>98</ele>
        <time>2012-01-28T15:01:59Z</time>
      </trkpt>
      <trkpt lat="47.27808" lon="-1.69012">
        <ele>95</ele>
        <time>2012-01-28T15:02:16Z</time>
      </trkpt>
      <trkpt lat="47.27816" lon="-1.69014">
        <ele>91</ele>
        <time>2012-01-28T15:02:19Z</time>
      </trkpt>
      <trkpt lat="47.27822" lon="-1.69018">
        <ele>94</ele>
        <time>2012-01-28T15:02:24Z</time>
      </trkpt>
      <trkpt lat="47.27828" lon="-1.69025">
        <ele>89</ele>
        <time>2012-01-28T15:02:30Z</time>
      </trkpt>
      <trkpt lat="47.27835" lon="-1.69027">
        <ele>91</ele>
        <time>2012-01-28T15:02:34Z</time>
      </trkpt>
      <trkpt lat="47.27842" lon="-1.69032">
        <ele>93</ele>
        <time>2012-01-28T15:02:38Z</time>
      </trkpt>
      <trkpt lat="47.27848" lon="-1.69038">
        <ele>92</ele>
        <time>2012-01-28T15:02:42Z</time>
      </trkpt>
      <trkpt lat="47.27856" lon="-1.69043">
        <ele>92</ele>
        <time>2012-01-28T15:02:46Z</time>
      </trkpt>
      <trkpt lat="47.27868" lon="-1.69053">
        <ele>91</ele>
        <time>2012-01-28T15:02:58Z</time>
      </trkpt>
      <trkpt lat="47.2788" lon="-1.69067">
        <ele>90</ele>
        <time>2012-01-28T15:03:07Z</time>
      </trkpt>
      <trkpt lat="47.27886" lon="-1.69072">
        <ele>91</ele>
        <time>2012-01-28T15:03:12Z</time>
      </trkpt>
      <trkpt lat="47.27892" lon="-1.6908">
        <ele>90</ele>
        <time>2012-01-28T15:03:18Z</time>
      </trkpt>
      <trkpt lat="47.27897" lon="-1.69085">
        <ele>91</ele>
        <time>2012-01-28T15:03:28Z</time>
      </trkpt>
      <trkpt lat="47.27904" lon="-1.69085">
        <ele>91</ele>
        <time>2012-01-28T15:03:35Z</time>
      </trkpt>
      <trkpt lat="47.27925" lon="-1.69094">
        <ele>88</ele>
        <time>2012-01-28T15:03:54Z</time>
      </trkpt>
      <trkpt lat="47.27933" lon="-1.69093">
        <ele>87</ele>
        <time>2012-01-28T15:04:02Z</time>
      </trkpt>
      <trkpt lat="47.27947" lon="-1.69092">
        <ele>84</ele>
        <time>2012-01-28T15:04:07Z</time>
      </trkpt>
      <trkpt lat="47.27954" lon="-1.69094">
        <ele>85</ele>
        <time>2012-01-28T15:04:12Z</time>
      </trkpt>
      <trkpt lat="47.27962" lon="-1.69097">
        <ele>84</ele>
        <time>2012-01-28T15:04:16Z</time>
      </trkpt>
      <trkpt lat="47.27969" lon="-1.69096">
        <ele>87</ele>
        <time>2012-01-28T15:04:21Z</time>
      </trkpt>
      <trkpt lat="47.27976" lon="-1.69096">
        <ele>87</ele>
        <time>2012-01-28T15:04:24Z</time>
      </trkpt>
      <trkpt lat="47.27984" lon="-1.69097">
        <ele>86</ele>
        <time>2012-01-28T15:04:29Z</time>
      </trkpt>
      <trkpt lat="47.2799" lon="-1.69099">
        <ele>87</ele>
        <time>2012-01-28T15:04:34Z</time>
      </trkpt>
      <trkpt lat="47.27996" lon="-1.691">
        <ele>90</ele>
        <time>2012-01-28T15:04:38Z</time>
      </trkpt>
      <trkpt lat="47.28003" lon="-1.69102">
        <ele>90</ele>
        <time>2012-01-28T15:04:46Z</time>
      </trkpt>
      <trkpt lat="47.2801" lon="-1.69104">
        <ele>90</ele>
        <time>2012-01-28T15:04:50Z</time>
      </trkpt>
      <trkpt lat="47.28017" lon="-1.69108">
        <ele>89</ele>
        <time>2012-01-28T15:04:53Z</time>
      </trkpt>
      <trkpt lat="47.28024" lon="-1.6911">
        <ele>89</ele>
        <time>2012-01-28T15:04:56Z</time>
      </trkpt>
      <trkpt lat="47.28031" lon="-1.69113">
        <ele>91</ele>
        <time>2012-01-28T15:05:00Z</time>
      </trkpt>
      <trkpt lat="47.28038" lon="-1.69114">
        <ele>94</ele>
        <time>2012-01-28T15:05:04Z</time>
      </trkpt>
      <trkpt lat="47.28046" lon="-1.69114">
        <ele>93</ele>
        <time>2012-01-28T15:05:09Z</time>
      </trkpt>
      <trkpt lat="47.28053" lon="-1.69115">
        <ele>92</ele>
        <time>2012-01-28T15:05:17Z</time>
      </trkpt>
      <trkpt lat="47.28067" lon="-1.69115">
        <ele>93</ele>
        <time>2012-01-28T15:05:25Z</time>
      </trkpt>
      <trkpt lat="47.28075" lon="-1.69114">
        <ele>92</ele>
        <time>2012-01-28T15:05:30Z</time>
      </trkpt>
      <trkpt lat="47.28083" lon="-1.69113">
        <ele>94</ele>
        <time>2012-01-28T15:05:39Z</time>
      </trkpt>
      <trkpt lat="47.2809" lon="-1.69111">
        <ele>96</ele>
        <time>2012-01-28T15:05:43Z</time>
      </trkpt>
      <trkpt lat="47.28097" lon="-1.69109">
        <ele>93</ele>
        <time>2012-01-28T15:05:49Z</time>
      </trkpt>
      <trkpt lat="47.28103" lon="-1.69105">
        <ele>92</ele>
        <time>2012-01-28T15:05:54Z</time>
      </trkpt>
      <trkpt lat="47.28116" lon="-1.69101">
        <ele>91</ele>
        <time>2012-01-28T15:06:01Z</time>
      </trkpt>
      <trkpt lat="47.28123" lon="-1.691">
        <ele>91</ele>
        <time>2012-01-28T15:06:08Z</time>
      </trkpt>
      <trkpt lat="47.28131" lon="-1.69101">
        <ele>93</ele>
        <time>2012-01-28T15:06:13Z</time>
      </trkpt>
      <trkpt lat="47.28138" lon="-1.69103">
        <ele>91</ele>
        <time>2012-01-28T15:06:18Z</time>
      </trkpt>
      <trkpt lat="47.28144" lon="-1.69106">
        <ele>91</ele>
        <time>2012-01-28T15:06:24Z</time>
      </trkpt>
      <trkpt lat="47.28156" lon="-1.69113">
        <ele>90</ele>
        <time>2012-01-28T15:06:35Z</time>
      </trkpt>
      <trkpt lat="47.28169" lon="-1.69119">
        <ele>92</ele>
        <time>2012-01-28T15:06:48Z</time>
      </trkpt>
      <trkpt lat="47.28178" lon="-1.69134">
        <ele>93</ele>
        <time>2012-01-28T15:06:59Z</time>
      </trkpt>
      <trkpt lat="47.28182" lon="-1.69142">
        <ele>92</ele>
        <time>2012-01-28T15:07:03Z</time>
      </trkpt>
      <trkpt lat="47.28185" lon="-1.69152">
        <ele>92</ele>
        <time>2012-01-28T15:07:08Z</time>
      </trkpt>
      <trkpt lat="47.28187" lon="-1.69162">
        <ele>91</ele>
        <time>2012-01-28T15:07:11Z</time>
      </trkpt>
      <trkpt lat="47.28191" lon="-1.6917">
        <ele>91</ele>
        <time>2012-01-28T15:07:15Z</time>
      </trkpt>
      <trkpt lat="47.2819" lon="-1.69179">
        <ele>90</ele>
        <time>2012-01-28T15:07:20Z</time>
      </trkpt>
      <trkpt lat="47.2819" lon="-1.6919">
        <ele>90</ele>
        <time>2012-01-28T15:07:25Z</time>
      </trkpt>
      <trkpt lat="47.28191" lon="-1.692">
        <ele>90</ele>
        <time>2012-01-28T15:07:30Z</time>
      </trkpt>
      <trkpt lat="47.28189" lon="-1.69209">
        <ele>91</ele>
        <time>2012-01-28T15:07:34Z</time>
      </trkpt>
      <trkpt lat="47.28188" lon="-1.6922">
        <ele>87</ele>
        <time>2012-01-28T15:07:40Z</time>
      </trkpt>
      <trkpt lat="47.28188" lon="-1.69238">
        <ele>87</ele>
        <time>2012-01-28T15:07:53Z</time>
      </trkpt>
      <trkpt lat="47.28182" lon="-1.69259">
        <ele>88</ele>
        <time>2012-01-28T15:08:01Z</time>
      </trkpt>
      <trkpt lat="47.28181" lon="-1.69268">
        <ele>89</ele>
        <time>2012-01-28T15:08:05Z</time>
      </trkpt>
      <trkpt lat="47.28179" lon="-1.69279">
        <ele>92</ele>
        <time>2012-01-28T15:08:11Z</time>
      </trkpt>
      <trkpt lat="47.28178" lon="-1.69288">
        <ele>91</ele>
        <time>2012-01-28T15:08:15Z</time>
      </trkpt>
      <trkpt lat="47.28176" lon="-1.69297">
        <ele>91</ele>
        <time>2012-01-28T15:08:20Z</time>
      </trkpt>
      <trkpt lat="47.28175" lon="-1.69306">
        <ele>91</ele>
        <time>2012-01-28T15:08:24Z</time>
      </trkpt>
      <trkpt lat="47.28174" lon="-1.69315">
        <ele>92</ele>
        <time>2012-01-28T15:08:29Z</time>
      </trkpt>
      <trkpt lat="47.28177" lon="-1.69332">
        <ele>94</ele>
        <time>2012-01-28T15:08:41Z</time>
      </trkpt>
      <trkpt lat="47.28186" lon="-1.6935">
        <ele>93</ele>
        <time>2012-01-28T15:08:52Z</time>
      </trkpt>
      <trkpt lat="47.28188" lon="-1.6936">
        <ele>93</ele>
        <time>2012-01-28T15:08:57Z</time>
      </trkpt>
      <trkpt lat="47.28187" lon="-1.69369">
        <ele>93</ele>
        <time>2012-01-28T15:08:59Z</time>
      </trkpt>
      <trkpt lat="47.28187" lon="-1.69378">
        <ele>94</ele>
        <time>2012-01-28T15:09:03Z</time>
      </trkpt>
      <trkpt lat="47.2819" lon="-1.69387">
        <ele>94</ele>
        <time>2012-01-28T15:09:08Z</time>
      </trkpt>
      <trkpt lat="47.28192" lon="-1.69397">
        <ele>95</ele>
        <time>2012-01-28T15:09:13Z</time>
      </trkpt>
      <trkpt lat="47.28195" lon="-1.69406">
        <ele>95</ele>
        <time>2012-01-28T15:09:19Z</time>
      </trkpt>
      <trkpt lat="47.28201" lon="-1.69413">
        <ele>96</ele>
        <time>2012-01-28T15:09:26Z</time>
      </trkpt>
      <trkpt lat="47.28207" lon="-1.69416">
        <ele>94</ele>
        <time>2012-01-28T15:09:31Z</time>
      </trkpt>
      <trkpt lat="47.28216" lon="-1.69435">
        <ele>94</ele>
        <time>2012-01-28T15:09:41Z</time>
      </trkpt>
      <trkpt lat="47.28213" lon="-1.69443">
        <ele>94</ele>
        <time>2012-01-28T15:09:48Z</time>
      </trkpt>
      <trkpt lat="47.28214" lon="-1.69455">
        <ele>95</ele>
        <time>2012-01-28T15:09:53Z</time>
      </trkpt>
      <trkpt lat="47.2822" lon="-1.6946">
        <ele>95</ele>
        <time>2012-01-28T15:09:59Z</time>
      </trkpt>
      <trkpt lat="47.28225" lon="-1.69466">
        <ele>97</ele>
        <time>2012-01-28T15:10:05Z</time>
      </trkpt>
      <trkpt lat="47.28231" lon="-1.6947">
        <ele>96</ele>
        <time>2012-01-28T15:10:09Z</time>
      </trkpt>
      <trkpt lat="47.28239" lon="-1.69475">
        <ele>97</ele>
        <time>2012-01-28T15:10:16Z</time>
      </trkpt>
      <trkpt lat="47.28245" lon="-1.69483">
        <ele>97</ele>
        <time>2012-01-28T15:10:21Z</time>
      </trkpt>
      <trkpt lat="47.28251" lon="-1.69487">
        <ele>99</ele>
        <time>2012-01-28T15:10:25Z</time>
      </trkpt>
      <trkpt lat="47.28258" lon="-1.69491">
        <ele>99</ele>
        <time>2012-01-28T15:10:29Z</time>
      </trkpt>
      <trkpt lat="47.28265" lon="-1.69495">
        <ele>102</ele>
        <time>2012-01-28T15:10:35Z</time>
      </trkpt>
      <trkpt lat="47.28271" lon="-1.695">
        <ele>103</ele>
        <time>2012-01-28T15:10:41Z</time>
      </trkpt>
      <trkpt lat="47.28276" lon="-1.69508">
        <ele>103</ele>
        <time>2012-01-28T15:10:46Z</time>
      </trkpt>
      <trkpt lat="47.28282" lon="-1.69512">
        <ele>101</ele>
        <time>2012-01-28T15:10:52Z</time>
      </trkpt>
      <trkpt lat="47.28287" lon="-1.69519">
        <ele>98</ele>
        <time>2012-01-28T15:10:57Z</time>
      </trkpt>
      <trkpt lat="47.28293" lon="-1.69526">
        <ele>99</ele>
        <time>2012-01-28T15:11:02Z</time>
      </trkpt>
      <trkpt lat="47.28299" lon="-1.6953">
        <ele>99</ele>
        <time>2012-01-28T15:11:07Z</time>
      </trkpt>
      <trkpt lat="47.28305" lon="-1.69536">
        <ele>98</ele>
        <time>2012-01-28T15:11:13Z</time>
      </trkpt>
      <trkpt lat="47.28312" lon="-1.69539">
        <ele>98</ele>
        <time>2012-01-28T15:11:17Z</time>
      </trkpt>
      <trkpt lat="47.28318" lon="-1.69544">
        <ele>98</ele>
        <time>2012-01-28T15:11:22Z</time>
      </trkpt>
      <trkpt lat="47.28325" lon="-1.69545">
        <ele>99</ele>
        <time>2012-01-28T15:11:27Z</time>
      </trkpt>
      <trkpt lat="47.28331" lon="-1.69547">
        <ele>98</ele>
        <time>2012-01-28T15:11:32Z</time>
      </trkpt>
      <trkpt lat="47.28339" lon="-1.69552">
        <ele>94</ele>
        <time>2012-01-28T15:11:37Z</time>
      </trkpt>
      <trkpt lat="47.28346" lon="-1.69555">
        <ele>92</ele>
        <time>2012-01-28T15:11:41Z</time>
      </trkpt>
      <trkpt lat="47.28353" lon="-1.69557">
        <ele>94</ele>
        <time>2012-01-28T15:11:46Z</time>
      </trkpt>
      <trkpt lat="47.28361" lon="-1.69556">
        <ele>94</ele>
        <time>2012-01-28T15:11:51Z</time>
      </trkpt>
      <trkpt lat="47.28368" lon="-1.69556">
        <ele>97</ele>
        <time>2012-01-28T15:11:57Z</time>
      </trkpt>
      <trkpt lat="47.28383" lon="-1.6956">
        <ele>96</ele>
        <time>2012-01-28T15:12:08Z</time>
      </trkpt>
      <trkpt lat="47.28385" lon="-1.69569">
        <ele>97</ele>
        <time>2012-01-28T15:12:14Z</time>
      </trkpt>
      <trkpt lat="47.28385" lon="-1.69579">
        <ele>95</ele>
        <time>2012-01-28T15:12:19Z</time>
      </trkpt>
      <trkpt lat="47.28386" lon="-1.69589">
        <ele>94</ele>
        <time>2012-01-28T15:12:25Z</time>
      </trkpt>
      <trkpt lat="47.28387" lon="-1.69611">
        <ele>94</ele>
        <time>2012-01-28T15:12:35Z</time>
      </trkpt>
      <trkpt lat="47.28387" lon="-1.69621">
        <ele>94</ele>
        <time>2012-01-28T15:12:40Z</time>
      </trkpt>
      <trkpt lat="47.28385" lon="-1.69641">
        <ele>95</ele>
        <time>2012-01-28T15:12:51Z</time>
      </trkpt>
      <trkpt lat="47.28383" lon="-1.6965">
        <ele>94</ele>
        <time>2012-01-28T15:12:56Z</time>
      </trkpt>
      <trkpt lat="47.28379" lon="-1.69659">
        <ele>95</ele>
        <time>2012-01-28T15:13:00Z</time>
      </trkpt>
      <trkpt lat="47.28376" lon="-1.69667">
        <ele>95</ele>
        <time>2012-01-28T15:13:05Z</time>
      </trkpt>
      <trkpt lat="47.28372" lon="-1.69676">
        <ele>95</ele>
        <time>2012-01-28T15:13:11Z</time>
      </trkpt>
      <trkpt lat="47.28369" lon="-1.69686">
        <ele>95</ele>
        <time>2012-01-28T15:13:17Z</time>
      </trkpt>
      <trkpt lat="47.28364" lon="-1.69694">
        <ele>96</ele>
        <time>2012-01-28T15:13:21Z</time>
      </trkpt>
      <trkpt lat="47.28357" lon="-1.69711">
        <ele>96</ele>
        <time>2012-01-28T15:13:33Z</time>
      </trkpt>
      <trkpt lat="47.28354" lon="-1.69721">
        <ele>97</ele>
        <time>2012-01-28T15:13:38Z</time>
      </trkpt>
      <trkpt lat="47.28349" lon="-1.6973">
        <ele>99</ele>
        <time>2012-01-28T15:13:44Z</time>
      </trkpt>
      <trkpt lat="47.28346" lon="-1.69739">
        <ele>99</ele>
        <time>2012-01-28T15:13:48Z</time>
      </trkpt>
      <trkpt lat="47.28346" lon="-1.69749">
        <ele>99</ele>
        <time>2012-01-28T15:13:53Z</time>
      </trkpt>
      <trkpt lat="47.2835" lon="-1.69757">
        <ele>100</ele>
        <time>2012-01-28T15:13:59Z</time>
      </trkpt>
      <trkpt lat="47.28357" lon="-1.69758">
        <ele>101</ele>
        <time>2012-01-28T15:14:04Z</time>
      </trkpt>
      <trkpt lat="47.28363" lon="-1.69763">
        <ele>98</ele>
        <time>2012-01-28T15:14:10Z</time>
      </trkpt>
      <trkpt lat="47.28368" lon="-1.6977">
        <ele>98</ele>
        <time>2012-01-28T15:14:16Z</time>
      </trkpt>
      <trkpt lat="47.28376" lon="-1.69774">
        <ele>98</ele>
        <time>2012-01-28T15:14:21Z</time>
      </trkpt>
      <trkpt lat="47.28383" lon="-1.69779">
        <ele>100</ele>
        <time>2012-01-28T15:14:29Z</time>
      </trkpt>
      <trkpt lat="47.2839" lon="-1.69783">
        <ele>101</ele>
        <time>2012-01-28T15:14:34Z</time>
      </trkpt>
      <trkpt lat="47.28402" lon="-1.69795">
        <ele>100</ele>
        <time>2012-01-28T15:14:43Z</time>
      </trkpt>
      <trkpt lat="47.28408" lon="-1.69799">
        <ele>100</ele>
        <time>2012-01-28T15:14:49Z</time>
      </trkpt>
      <trkpt lat="47.28414" lon="-1.69804">
        <ele>100</ele>
        <time>2012-01-28T15:14:54Z</time>
      </trkpt>
      <trkpt lat="47.28419" lon="-1.6981">
        <ele>100</ele>
        <time>2012-01-28T15:14:58Z</time>
      </trkpt>
      <trkpt lat="47.28426" lon="-1.69816">
        <ele>102</ele>
        <time>2012-01-28T15:15:03Z</time>
      </trkpt>
      <trkpt lat="47.28433" lon="-1.69821">
        <ele>102</ele>
        <time>2012-01-28T15:15:08Z</time>
      </trkpt>
      <trkpt lat="47.28438" lon="-1.69825">
        <ele>100</ele>
        <time>2012-01-28T15:15:14Z</time>
      </trkpt>
      <trkpt lat="47.28444" lon="-1.69829">
        <ele>100</ele>
        <time>2012-01-28T15:15:19Z</time>
      </trkpt>
      <trkpt lat="47.2845" lon="-1.69835">
        <ele>101</ele>
        <time>2012-01-28T15:15:24Z</time>
      </trkpt>
      <trkpt lat="47.28456" lon="-1.69841">
        <ele>98</ele>
        <time>2012-01-28T15:15:30Z</time>
      </trkpt>
      <trkpt lat="47.28467" lon="-1.69851">
        <ele>101</ele>
        <time>2012-01-28T15:15:39Z</time>
      </trkpt>
      <trkpt lat="47.28471" lon="-1.69859">
        <ele>101</ele>
        <time>2012-01-28T15:15:44Z</time>
      </trkpt>
      <trkpt lat="47.2847" lon="-1.69868">
        <ele>101</ele>
        <time>2012-01-28T15:15:50Z</time>
      </trkpt>
      <trkpt lat="47.28468" lon="-1.69877">
        <ele>100</ele>
        <time>2012-01-28T15:15:56Z</time>
      </trkpt>
      <trkpt lat="47.2846" lon="-1.69894">
        <ele>101</ele>
        <time>2012-01-28T15:16:08Z</time>
      </trkpt>
      <trkpt lat="47.28452" lon="-1.6991">
        <ele>102</ele>
        <time>2012-01-28T15:16:18Z</time>
      </trkpt>
      <trkpt lat="47.28448" lon="-1.69919">
        <ele>102</ele>
        <time>2012-01-28T15:16:22Z</time>
      </trkpt>
      <trkpt lat="47.28444" lon="-1.69929">
        <ele>103</ele>
        <time>2012-01-28T15:16:28Z</time>
      </trkpt>
      <trkpt lat="47.28442" lon="-1.69939">
        <ele>105</ele>
        <time>2012-01-28T15:16:33Z</time>
      </trkpt>
      <trkpt lat="47.28437" lon="-1.69947">
        <ele>106</ele>
        <time>2012-01-28T15:16:38Z</time>
      </trkpt>
      <trkpt lat="47.28434" lon="-1.69957">
        <ele>104</ele>
        <time>2012-01-28T15:16:43Z</time>
      </trkpt>
      <trkpt lat="47.28427" lon="-1.69974">
        <ele>104</ele>
        <time>2012-01-28T15:16:52Z</time>
      </trkpt>
      <trkpt lat="47.28423" lon="-1.69985">
        <ele>106</ele>
        <time>2012-01-28T15:16:57Z</time>
      </trkpt>
      <trkpt lat="47.2842" lon="-1.69994">
        <ele>107</ele>
        <time>2012-01-28T15:17:02Z</time>
      </trkpt>
      <trkpt lat="47.28416" lon="-1.70003">
        <ele>108</ele>
        <time>2012-01-28T15:17:06Z</time>
      </trkpt>
      <trkpt lat="47.28413" lon="-1.70021">
        <ele>108</ele>
        <time>2012-01-28T15:17:21Z</time>
      </trkpt>
      <trkpt lat="47.28409" lon="-1.70029">
        <ele>108</ele>
        <time>2012-01-28T15:17:26Z</time>
      </trkpt>
      <trkpt lat="47.28405" lon="-1.70049">
        <ele>107</ele>
        <time>2012-01-28T15:17:37Z</time>
      </trkpt>
      <trkpt lat="47.28402" lon="-1.70058">
        <ele>107</ele>
        <time>2012-01-28T15:17:41Z</time>
      </trkpt>
      <trkpt lat="47.28397" lon="-1.70066">
        <ele>108</ele>
        <time>2012-01-28T15:17:45Z</time>
      </trkpt>
      <trkpt lat="47.28392" lon="-1.70072">
        <ele>109</ele>
        <time>2012-01-28T15:17:51Z</time>
      </trkpt>
      <trkpt lat="47.2839" lon="-1.70082">
        <ele>110</ele>
        <time>2012-01-28T15:17:55Z</time>
      </trkpt>
      <trkpt lat="47.28385" lon="-1.70092">
        <ele>111</ele>
        <time>2012-01-28T15:18:01Z</time>
      </trkpt>
      <trkpt lat="47.28384" lon="-1.70103">
        <ele>111</ele>
        <time>2012-01-28T15:18:07Z</time>
      </trkpt>
      <trkpt lat="47.2838" lon="-1.70112">
        <ele>111</ele>
        <time>2012-01-28T15:18:11Z</time>
      </trkpt>
      <trkpt lat="47.28377" lon="-1.70121">
        <ele>111</ele>
        <time>2012-01-28T15:18:17Z</time>
      </trkpt>
      <trkpt lat="47.28372" lon="-1.70129">
        <ele>110</ele>
        <time>2012-01-28T15:18:22Z</time>
      </trkpt>
      <trkpt lat="47.28369" lon="-1.70137">
        <ele>110</ele>
        <time>2012-01-28T15:18:27Z</time>
      </trkpt>
      <trkpt lat="47.28366" lon="-1.70146">
        <ele>109</ele>
        <time>2012-01-28T15:18:32Z</time>
      </trkpt>
      <trkpt lat="47.28358" lon="-1.70164">
        <ele>111</ele>
        <time>2012-01-28T15:18:45Z</time>
      </trkpt>
      <trkpt lat="47.28355" lon="-1.70174">
        <ele>112</ele>
        <time>2012-01-28T15:18:48Z</time>
      </trkpt>
      <trkpt lat="47.28351" lon="-1.70182">
        <ele>114</ele>
        <time>2012-01-28T15:18:52Z</time>
      </trkpt>
      <trkpt lat="47.28347" lon="-1.70192">
        <ele>115</ele>
        <time>2012-01-28T15:18:56Z</time>
      </trkpt>
      <trkpt lat="47.28347" lon="-1.70202">
        <ele>114</ele>
        <time>2012-01-28T15:20:19Z</time>
      </trkpt>
      <trkpt lat="47.28339" lon="-1.70221">
        <ele>111</ele>
        <time>2012-01-28T15:20:26Z</time>
      </trkpt>
      <trkpt lat="47.28334" lon="-1.7023">
        <ele>110</ele>
        <time>2012-01-28T15:20:31Z</time>
      </trkpt>
      <trkpt lat="47.28329" lon="-1.70238">
        <ele>108</ele>
        <time>2012-01-28T15:20:36Z</time>
      </trkpt>
      <trkpt lat="47.28325" lon="-1.70246">
        <ele>107</ele>
        <time>2012-01-28T15:20:41Z</time>
      </trkpt>
      <trkpt lat="47.2832" lon="-1.70253">
        <ele>107</ele>
        <time>2012-01-28T15:20:47Z</time>
      </trkpt>
      <trkpt lat="47.28314" lon="-1.70256">
        <ele>108</ele>
        <time>2012-01-28T15:20:57Z</time>
      </trkpt>
      <trkpt lat="47.28303" lon="-1.70243">
        <ele>108</ele>
        <time>2012-01-28T15:21:12Z</time>
      </trkpt>
      <trkpt lat="47.28299" lon="-1.70235">
        <ele>108</ele>
        <time>2012-01-28T15:21:18Z</time>
      </trkpt>
      <trkpt lat="47.28294" lon="-1.70229">
        <ele>108</ele>
        <time>2012-01-28T15:21:28Z</time>
      </trkpt>
      <trkpt lat="47.28281" lon="-1.70207">
        <ele>110</ele>
        <time>2012-01-28T15:21:38Z</time>
      </trkpt>
      <trkpt lat="47.28276" lon="-1.70199">
        <ele>110</ele>
        <time>2012-01-28T15:21:42Z</time>
      </trkpt>
      <trkpt lat="47.28272" lon="-1.70192">
        <ele>109</ele>
        <time>2012-01-28T15:21:45Z</time>
      </trkpt>
      <trkpt lat="47.28268" lon="-1.70183">
        <ele>108</ele>
        <time>2012-01-28T15:21:49Z</time>
      </trkpt>
      <trkpt lat="47.28263" lon="-1.70174">
        <ele>109</ele>
        <time>2012-01-28T15:21:54Z</time>
      </trkpt>
      <trkpt lat="47.28259" lon="-1.70165">
        <ele>111</ele>
        <time>2012-01-28T15:21:58Z</time>
      </trkpt>
      <trkpt lat="47.28254" lon="-1.70158">
        <ele>112</ele>
        <time>2012-01-28T15:22:03Z</time>
      </trkpt>
      <trkpt lat="47.2825" lon="-1.70149">
        <ele>113</ele>
        <time>2012-01-28T15:22:09Z</time>
      </trkpt>
      <trkpt lat="47.28239" lon="-1.70134">
        <ele>112</ele>
        <time>2012-01-28T15:22:21Z</time>
      </trkpt>
      <trkpt lat="47.28236" lon="-1.70126">
        <ele>111</ele>
        <time>2012-01-28T15:22:27Z</time>
      </trkpt>
      <trkpt lat="47.28229" lon="-1.70119">
        <ele>111</ele>
        <time>2012-01-28T15:22:32Z</time>
      </trkpt>
      <trkpt lat="47.28222" lon="-1.70115">
        <ele>111</ele>
        <time>2012-01-28T15:22:37Z</time>
      </trkpt>
      <trkpt lat="47.28215" lon="-1.70118">
        <ele>110</ele>
        <time>2012-01-28T15:22:41Z</time>
      </trkpt>
      <trkpt lat="47.28208" lon="-1.70114">
        <ele>111</ele>
        <time>2012-01-28T15:22:46Z</time>
      </trkpt>
      <trkpt lat="47.28201" lon="-1.70109">
        <ele>110</ele>
        <time>2012-01-28T15:22:51Z</time>
      </trkpt>
      <trkpt lat="47.28194" lon="-1.70105">
        <ele>110</ele>
        <time>2012-01-28T15:22:56Z</time>
      </trkpt>
      <trkpt lat="47.28179" lon="-1.70099">
        <ele>113</ele>
        <time>2012-01-28T15:23:07Z</time>
      </trkpt>
      <trkpt lat="47.28172" lon="-1.70096">
        <ele>113</ele>
        <time>2012-01-28T15:23:11Z</time>
      </trkpt>
      <trkpt lat="47.28165" lon="-1.70094">
        <ele>114</ele>
        <time>2012-01-28T15:23:17Z</time>
      </trkpt>
      <trkpt lat="47.28159" lon="-1.7009">
        <ele>113</ele>
        <time>2012-01-28T15:23:22Z</time>
      </trkpt>
      <trkpt lat="47.28147" lon="-1.70084">
        <ele>116</ele>
        <time>2012-01-28T15:23:30Z</time>
      </trkpt>
      <trkpt lat="47.2814" lon="-1.70082">
        <ele>116</ele>
        <time>2012-01-28T15:23:36Z</time>
      </trkpt>
      <trkpt lat="47.28133" lon="-1.70081">
        <ele>114</ele>
        <time>2012-01-28T15:23:42Z</time>
      </trkpt>
      <trkpt lat="47.28126" lon="-1.70078">
        <ele>115</ele>
        <time>2012-01-28T15:23:48Z</time>
      </trkpt>
      <trkpt lat="47.28112" lon="-1.70076">
        <ele>115</ele>
        <time>2012-01-28T15:23:57Z</time>
      </trkpt>
      <trkpt lat="47.28105" lon="-1.70072">
        <ele>114</ele>
        <time>2012-01-28T15:24:03Z</time>
      </trkpt>
      <trkpt lat="47.28097" lon="-1.7007">
        <ele>115</ele>
        <time>2012-01-28T15:24:09Z</time>
      </trkpt>
      <trkpt lat="47.28091" lon="-1.70064">
        <ele>115</ele>
        <time>2012-01-28T15:24:13Z</time>
      </trkpt>
      <trkpt lat="47.28085" lon="-1.70059">
        <ele>114</ele>
        <time>2012-01-28T15:24:18Z</time>
      </trkpt>
      <trkpt lat="47.28084" lon="-1.70038">
        <ele>112</ele>
        <time>2012-01-28T15:24:29Z</time>
      </trkpt>
      <trkpt lat="47.28083" lon="-1.70028">
        <ele>111</ele>
        <time>2012-01-28T15:24:33Z</time>
      </trkpt>
      <trkpt lat="47.28081" lon="-1.70018">
        <ele>110</ele>
        <time>2012-01-28T15:24:38Z</time>
      </trkpt>
      <trkpt lat="47.28081" lon="-1.70008">
        <ele>111</ele>
        <time>2012-01-28T15:24:43Z</time>
      </trkpt>
      <trkpt lat="47.28078" lon="-1.69999">
        <ele>110</ele>
        <time>2012-01-28T15:24:48Z</time>
      </trkpt>
      <trkpt lat="47.28075" lon="-1.69989">
        <ele>110</ele>
        <time>2012-01-28T15:24:54Z</time>
      </trkpt>
      <trkpt lat="47.28073" lon="-1.6998">
        <ele>110</ele>
        <time>2012-01-28T15:24:59Z</time>
      </trkpt>
      <trkpt lat="47.28071" lon="-1.6997">
        <ele>110</ele>
        <time>2012-01-28T15:25:05Z</time>
      </trkpt>
      <trkpt lat="47.28069" lon="-1.69957">
        <ele>108</ele>
        <time>2012-01-28T15:25:21Z</time>
      </trkpt>
      <trkpt lat="47.28068" lon="-1.69946">
        <ele>109</ele>
        <time>2012-01-28T15:25:24Z</time>
      </trkpt>
      <trkpt lat="47.2806" lon="-1.69927">
        <ele>108</ele>
        <time>2012-01-28T15:25:30Z</time>
      </trkpt>
      <trkpt lat="47.28056" lon="-1.69917">
        <ele>108</ele>
        <time>2012-01-28T15:25:34Z</time>
      </trkpt>
      <trkpt lat="47.28053" lon="-1.69909">
        <ele>108</ele>
        <time>2012-01-28T15:25:38Z</time>
      </trkpt>
      <trkpt lat="47.28047" lon="-1.69876">
        <ele>109</ele>
        <time>2012-01-28T15:25:55Z</time>
      </trkpt>
      <trkpt lat="47.28039" lon="-1.69844">
        <ele>107</ele>
        <time>2012-01-28T15:26:13Z</time>
      </trkpt>
      <trkpt lat="47.28038" lon="-1.69835">
        <ele>107</ele>
        <time>2012-01-28T15:26:21Z</time>
      </trkpt>
      <trkpt lat="47.28033" lon="-1.69821">
        <ele>108</ele>
        <time>2012-01-28T15:26:30Z</time>
      </trkpt>
      <trkpt lat="47.28029" lon="-1.69808">
        <ele>108</ele>
        <time>2012-01-28T15:26:33Z</time>
      </trkpt>
      <trkpt lat="47.28024" lon="-1.69798">
        <ele>107</ele>
        <time>2012-01-28T15:26:36Z</time>
      </trkpt>
      <trkpt lat="47.28022" lon="-1.69788">
        <ele>106</ele>
        <time>2012-01-28T15:26:40Z</time>
      </trkpt>
      <trkpt lat="47.28019" lon="-1.69779">
        <ele>105</ele>
        <time>2012-01-28T15:26:44Z</time>
      </trkpt>
      <trkpt lat="47.28016" lon="-1.69768">
        <ele>105</ele>
        <time>2012-01-28T15:26:49Z</time>
      </trkpt>
      <trkpt lat="47.28012" lon="-1.69759">
        <ele>106</ele>
        <time>2012-01-28T15:26:54Z</time>
      </trkpt>
      <trkpt lat="47.28009" lon="-1.69748">
        <ele>107</ele>
        <time>2012-01-28T15:26:58Z</time>
      </trkpt>
      <trkpt lat="47.2799" lon="-1.69731">
        <ele>106</ele>
        <time>2012-01-28T15:27:18Z</time>
      </trkpt>
      <trkpt lat="47.27983" lon="-1.69729">
        <ele>105</ele>
        <time>2012-01-28T15:27:25Z</time>
      </trkpt>
      <trkpt lat="47.27977" lon="-1.69724">
        <ele>106</ele>
        <time>2012-01-28T15:27:31Z</time>
      </trkpt>
      <trkpt lat="47.2797" lon="-1.69721">
        <ele>105</ele>
        <time>2012-01-28T15:27:35Z</time>
      </trkpt>
      <trkpt lat="47.27965" lon="-1.69716">
        <ele>105</ele>
        <time>2012-01-28T15:27:41Z</time>
      </trkpt>
      <trkpt lat="47.27961" lon="-1.69705">
        <ele>107</ele>
        <time>2012-01-28T15:27:47Z</time>
      </trkpt>
      <trkpt lat="47.27955" lon="-1.69698">
        <ele>105</ele>
        <time>2012-01-28T15:27:51Z</time>
      </trkpt>
      <trkpt lat="47.27952" lon="-1.69689">
        <ele>103</ele>
        <time>2012-01-28T15:27:56Z</time>
      </trkpt>
      <trkpt lat="47.27944" lon="-1.69674">
        <ele>103</ele>
        <time>2012-01-28T15:28:10Z</time>
      </trkpt>
      <trkpt lat="47.27937" lon="-1.69671">
        <ele>104</ele>
        <time>2012-01-28T15:28:15Z</time>
      </trkpt>
      <trkpt lat="47.2793" lon="-1.69669">
        <ele>103</ele>
        <time>2012-01-28T15:28:19Z</time>
      </trkpt>
      <trkpt lat="47.27923" lon="-1.69669">
        <ele>102</ele>
        <time>2012-01-28T15:28:23Z</time>
      </trkpt>
      <trkpt lat="47.27916" lon="-1.6967">
        <ele>101</ele>
        <time>2012-01-28T15:28:28Z</time>
      </trkpt>
      <trkpt lat="47.27909" lon="-1.69673">
        <ele>101</ele>
        <time>2012-01-28T15:28:33Z</time>
      </trkpt>
      <trkpt lat="47.27894" lon="-1.69678">
        <ele>101</ele>
        <time>2012-01-28T15:28:50Z</time>
      </trkpt>
      <trkpt lat="47.27873" lon="-1.69682">
        <ele>102</ele>
        <time>2012-01-28T15:29:02Z</time>
      </trkpt>
      <trkpt lat="47.27867" lon="-1.69685">
        <ele>101</ele>
        <time>2012-01-28T15:29:08Z</time>
      </trkpt>
      <trkpt lat="47.2786" lon="-1.69683">
        <ele>102</ele>
        <time>2012-01-28T15:29:12Z</time>
      </trkpt>
      <trkpt lat="47.27853" lon="-1.69683">
        <ele>102</ele>
        <time>2012-01-28T15:29:25Z</time>
      </trkpt>
      <trkpt lat="47.27847" lon="-1.69679">
        <ele>104</ele>
        <time>2012-01-28T15:29:29Z</time>
      </trkpt>
      <trkpt lat="47.2784" lon="-1.69677">
        <ele>104</ele>
        <time>2012-01-28T15:29:34Z</time>
      </trkpt>
      <trkpt lat="47.27834" lon="-1.69677">
        <ele>103</ele>
        <time>2012-01-28T15:29:42Z</time>
      </trkpt>
      <trkpt lat="47.27827" lon="-1.69679">
        <ele>101</ele>
        <time>2012-01-28T15:29:48Z</time>
      </trkpt>
      <trkpt lat="47.27813" lon="-1.69677">
        <ele>98</ele>
        <time>2012-01-28T15:30:11Z</time>
      </trkpt>
      <trkpt lat="47.27796" lon="-1.69638">
        <ele>100</ele>
        <time>2012-01-28T15:32:50Z</time>
      </trkpt>
      <trkpt lat="47.27794" lon="-1.69629">
        <ele>103</ele>
        <time>2012-01-28T15:32:56Z</time>
      </trkpt>
      <trkpt lat="47.27788" lon="-1.6961">
        <ele>100</ele>
        <time>2012-01-28T15:33:06Z</time>
      </trkpt>
      <trkpt lat="47.27788" lon="-1.69599">
        <ele>100</ele>
        <time>2012-01-28T15:33:14Z</time>
      </trkpt>
      <trkpt lat="47.2779" lon="-1.69588">
        <ele>96</ele>
        <time>2012-01-28T15:33:22Z</time>
      </trkpt>
      <trkpt lat="47.27788" lon="-1.69575">
        <ele>91</ele>
        <time>2012-01-28T15:33:27Z</time>
      </trkpt>
      <trkpt lat="47.27785" lon="-1.69565">
        <ele>93</ele>
        <time>2012-01-28T15:33:33Z</time>
      </trkpt>
      <trkpt lat="47.27783" lon="-1.69556">
        <ele>97</ele>
        <time>2012-01-28T15:33:41Z</time>
      </trkpt>
      <trkpt lat="47.27782" lon="-1.69544">
        <ele>94</ele>
        <time>2012-01-28T15:33:46Z</time>
      </trkpt>
      <trkpt lat="47.27782" lon="-1.69533">
        <ele>93</ele>
        <time>2012-01-28T15:33:49Z</time>
      </trkpt>
      <trkpt lat="47.2778" lon="-1.69523">
        <ele>94</ele>
        <time>2012-01-28T15:33:57Z</time>
      </trkpt>
      <trkpt lat="47.27777" lon="-1.695">
        <ele>94</ele>
        <time>2012-01-28T15:34:05Z</time>
      </trkpt>
      <trkpt lat="47.27773" lon="-1.6948">
        <ele>95</ele>
        <time>2012-01-28T15:34:09Z</time>
      </trkpt>
      <trkpt lat="47.27774" lon="-1.6947">
        <ele>93</ele>
        <time>2012-01-28T15:34:13Z</time>
      </trkpt>
      <trkpt lat="47.27775" lon="-1.69459">
        <ele>93</ele>
        <time>2012-01-28T15:34:18Z</time>
      </trkpt>
      <trkpt lat="47.27775" lon="-1.69429">
        <ele>93</ele>
        <time>2012-01-28T15:34:28Z</time>
      </trkpt>
      <trkpt lat="47.27777" lon="-1.69419">
        <ele>94</ele>
        <time>2012-01-28T15:34:33Z</time>
      </trkpt>
      <trkpt lat="47.27776" lon="-1.69407">
        <ele>95</ele>
        <time>2012-01-28T15:34:38Z</time>
      </trkpt>
      <trkpt lat="47.27778" lon="-1.69377">
        <ele>96</ele>
        <time>2012-01-28T15:34:52Z</time>
      </trkpt>
      <trkpt lat="47.27779" lon="-1.69368">
        <ele>93</ele>
        <time>2012-01-28T15:34:59Z</time>
      </trkpt>
      <trkpt lat="47.27777" lon="-1.69357">
        <ele>93</ele>
        <time>2012-01-28T15:35:04Z</time>
      </trkpt>
      <trkpt lat="47.27772" lon="-1.69339">
        <ele>92</ele>
        <time>2012-01-28T15:35:15Z</time>
      </trkpt>
      <trkpt lat="47.2777" lon="-1.69327">
        <ele>91</ele>
        <time>2012-01-28T15:35:21Z</time>
      </trkpt>
      <trkpt lat="47.27764" lon="-1.69317">
        <ele>90</ele>
        <time>2012-01-28T15:35:30Z</time>
      </trkpt>
      <trkpt lat="47.27757" lon="-1.69308">
        <ele>90</ele>
        <time>2012-01-28T15:35:34Z</time>
      </trkpt>
      <trkpt lat="47.27753" lon="-1.693">
        <ele>90</ele>
        <time>2012-01-28T15:35:40Z</time>
      </trkpt>
      <trkpt lat="47.27752" lon="-1.6929">
        <ele>91</ele>
        <time>2012-01-28T15:35:45Z</time>
      </trkpt>
      <trkpt lat="47.27749" lon="-1.69281">
        <ele>91</ele>
        <time>2012-01-28T15:35:53Z</time>
      </trkpt>
      <trkpt lat="47.2774" lon="-1.69279">
        <ele>89</ele>
        <time>2012-01-28T15:36:00Z</time>
      </trkpt>
      <trkpt lat="47.27732" lon="-1.69276">
        <ele>89</ele>
        <time>2012-01-28T15:36:09Z</time>
      </trkpt>
      <trkpt lat="47.27725" lon="-1.69275">
        <ele>89</ele>
        <time>2012-01-28T15:36:14Z</time>
      </trkpt>
      <trkpt lat="47.27719" lon="-1.69273">
        <ele>88</ele>
        <time>2012-01-28T15:36:17Z</time>
      </trkpt>
      <trkpt lat="47.27713" lon="-1.69275">
        <ele>87</ele>
        <time>2012-01-28T15:36:22Z</time>
      </trkpt>
      <trkpt lat="47.27706" lon="-1.69273">
        <ele>88</ele>
        <time>2012-01-28T15:36:27Z</time>
      </trkpt>
      <trkpt lat="47.27699" lon="-1.69274">
        <ele>88</ele>
        <time>2012-01-28T15:36:31Z</time>
      </trkpt>
      <trkpt lat="47.27692" lon="-1.69275">
        <ele>90</ele>
        <time>2012-01-28T15:36:36Z</time>
      </trkpt>
      <trkpt lat="47.27685" lon="-1.69272">
        <ele>91</ele>
        <time>2012-01-28T15:36:43Z</time>
      </trkpt>
      <trkpt lat="47.27662" lon="-1.69264">
        <ele>90</ele>
        <time>2012-01-28T15:37:02Z</time>
      </trkpt>
      <trkpt lat="47.27656" lon="-1.69258">
        <ele>89</ele>
        <time>2012-01-28T15:37:30Z</time>
      </trkpt>
      <trkpt lat="47.27649" lon="-1.69253">
        <ele>89</ele>
        <time>2012-01-28T15:37:32Z</time>
      </trkpt>
      <trkpt lat="47.27643" lon="-1.69248">
        <ele>89</ele>
        <time>2012-01-28T15:37:36Z</time>
      </trkpt>
      <trkpt lat="47.27632" lon="-1.69233">
        <ele>90</ele>
        <time>2012-01-28T15:37:48Z</time>
      </trkpt>
      <trkpt lat="47.27619" lon="-1.69223">
        <ele>92</ele>
        <time>2012-01-28T15:37:53Z</time>
      </trkpt>
      <trkpt lat="47.27613" lon="-1.69218">
        <ele>93</ele>
        <time>2012-01-28T15:37:56Z</time>
      </trkpt>
      <trkpt lat="47.27607" lon="-1.69212">
        <ele>91</ele>
        <time>2012-01-28T15:37:59Z</time>
      </trkpt>
      <trkpt lat="47.27601" lon="-1.69207">
        <ele>90</ele>
        <time>2012-01-28T15:38:03Z</time>
      </trkpt>
      <trkpt lat="47.27585" lon="-1.69196">
        <ele>89</ele>
        <time>2012-01-28T15:38:10Z</time>
      </trkpt>
      <trkpt lat="47.27579" lon="-1.69192">
        <ele>92</ele>
        <time>2012-01-28T15:38:17Z</time>
      </trkpt>
      <trkpt lat="47.27572" lon="-1.69186">
        <ele>93</ele>
        <time>2012-01-28T15:38:23Z</time>
      </trkpt>
      <trkpt lat="47.27565" lon="-1.69181">
        <ele>94</ele>
        <time>2012-01-28T15:38:27Z</time>
      </trkpt>
      <trkpt lat="47.27559" lon="-1.69177">
        <ele>93</ele>
        <time>2012-01-28T15:38:31Z</time>
      </trkpt>
      <trkpt lat="47.27553" lon="-1.69173">
        <ele>93</ele>
        <time>2012-01-28T15:38:37Z</time>
      </trkpt>
      <trkpt lat="47.27548" lon="-1.69166">
        <ele>94</ele>
        <time>2012-01-28T15:38:41Z</time>
      </trkpt>
      <trkpt lat="47.27547" lon="-1.69156">
        <ele>95</ele>
        <time>2012-01-28T15:38:48Z</time>
      </trkpt>
      <trkpt lat="47.27547" lon="-1.69147">
        <ele>96</ele>
        <time>2012-01-28T15:38:52Z</time>
      </trkpt>
      <trkpt lat="47.27546" lon="-1.69137">
        <ele>96</ele>
        <time>2012-01-28T15:38:57Z</time>
      </trkpt>
      <trkpt lat="47.27541" lon="-1.69132">
        <ele>96</ele>
        <time>2012-01-28T15:39:02Z</time>
      </trkpt>
      <trkpt lat="47.27535" lon="-1.69127">
        <ele>97</ele>
        <time>2012-01-28T15:39:05Z</time>
      </trkpt>
      <trkpt lat="47.27527" lon="-1.69123">
        <ele>97</ele>
        <time>2012-01-28T15:39:15Z</time>
      </trkpt>
      <trkpt lat="47.27521" lon="-1.69119">
        <ele>99</ele>
        <time>2012-01-28T15:39:22Z</time>
      </trkpt>
      <trkpt lat="47.27501" lon="-1.69096">
        <ele>103</ele>
        <time>2012-01-28T15:39:49Z</time>
      </trkpt>
      <trkpt lat="47.27494" lon="-1.6909">
        <ele>102</ele>
        <time>2012-01-28T15:39:52Z</time>
      </trkpt>
      <trkpt lat="47.27482" lon="-1.69079">
        <ele>102</ele>
        <time>2012-01-28T15:39:58Z</time>
      </trkpt>
      <trkpt lat="47.27477" lon="-1.69071">
        <ele>102</ele>
        <time>2012-01-28T15:40:03Z</time>
      </trkpt>
      <trkpt lat="47.27474" lon="-1.69063">
        <ele>100</ele>
        <time>2012-01-28T15:40:10Z</time>
      </trkpt>
      <trkpt lat="47.27467" lon="-1.69059">
        <ele>99</ele>
        <time>2012-01-28T15:40:15Z</time>
      </trkpt>
      <trkpt lat="47.27461" lon="-1.69052">
        <ele>101</ele>
        <time>2012-01-28T15:40:20Z</time>
      </trkpt>
      <trkpt lat="47.27455" lon="-1.69047">
        <ele>101</ele>
        <time>2012-01-28T15:40:24Z</time>
      </trkpt>
      <trkpt lat="47.27449" lon="-1.69043">
        <ele>99</ele>
        <time>2012-01-28T15:40:28Z</time>
      </trkpt>
      <trkpt lat="47.27443" lon="-1.69038">
        <ele>99</ele>
        <time>2012-01-28T15:40:33Z</time>
      </trkpt>
      <trkpt lat="47.27437" lon="-1.69033">
        <ele>101</ele>
        <time>2012-01-28T15:40:36Z</time>
      </trkpt>
      <trkpt lat="47.2743" lon="-1.6903">
        <ele>102</ele>
        <time>2012-01-28T15:40:42Z</time>
      </trkpt>
      <trkpt lat="47.27423" lon="-1.69024">
        <ele>102</ele>
        <time>2012-01-28T15:40:45Z</time>
      </trkpt>
      <trkpt lat="47.27418" lon="-1.69017">
        <ele>102</ele>
        <time>2012-01-28T15:40:48Z</time>
      </trkpt>
      <trkpt lat="47.2741" lon="-1.69009">
        <ele>103</ele>
        <time>2012-01-28T15:40:52Z</time>
      </trkpt>
      <trkpt lat="47.27404" lon="-1.69004">
        <ele>105</ele>
        <time>2012-01-28T15:40:58Z</time>
      </trkpt>
      <trkpt lat="47.27398" lon="-1.69001">
        <ele>105</ele>
        <time>2012-01-28T15:41:03Z</time>
      </trkpt>
      <trkpt lat="47.27384" lon="-1.68995">
        <ele>108</ele>
        <time>2012-01-28T15:41:17Z</time>
      </trkpt>
      <trkpt lat="47.27377" lon="-1.68992">
        <ele>108</ele>
        <time>2012-01-28T15:41:22Z</time>
      </trkpt>
      <trkpt lat="47.2737" lon="-1.68987">
        <ele>107</ele>
        <time>2012-01-28T15:41:27Z</time>
      </trkpt>
      <trkpt lat="47.27363" lon="-1.68986">
        <ele>108</ele>
        <time>2012-01-28T15:41:33Z</time>
      </trkpt>
      <trkpt lat="47.27354" lon="-1.6898">
        <ele>109</ele>
        <time>2012-01-28T15:41:38Z</time>
      </trkpt>
      <trkpt lat="47.27349" lon="-1.68973">
        <ele>109</ele>
        <time>2012-01-28T15:41:43Z</time>
      </trkpt>
      <trkpt lat="47.27342" lon="-1.68972">
        <ele>109</ele>
        <time>2012-01-28T15:41:48Z</time>
      </trkpt>
      <trkpt lat="47.27337" lon="-1.68966">
        <ele>107</ele>
        <time>2012-01-28T15:41:52Z</time>
      </trkpt>
      <trkpt lat="47.2733" lon="-1.68961">
        <ele>107</ele>
        <time>2012-01-28T15:41:56Z</time>
      </trkpt>
      <trkpt lat="47.27323" lon="-1.68958">
        <ele>108</ele>
        <time>2012-01-28T15:42:02Z</time>
      </trkpt>
      <trkpt lat="47.27316" lon="-1.68955">
        <ele>107</ele>
        <time>2012-01-28T15:42:07Z</time>
      </trkpt>
      <trkpt lat="47.27309" lon="-1.68952">
        <ele>107</ele>
        <time>2012-01-28T15:42:11Z</time>
      </trkpt>
      <trkpt lat="47.27302" lon="-1.68951">
        <ele>107</ele>
        <time>2012-01-28T15:42:16Z</time>
      </trkpt>
      <trkpt lat="47.27295" lon="-1.68948">
        <ele>106</ele>
        <time>2012-01-28T15:42:22Z</time>
      </trkpt>
      <trkpt lat="47.27289" lon="-1.68943">
        <ele>106</ele>
        <time>2012-01-28T15:42:28Z</time>
      </trkpt>
      <trkpt lat="47.27283" lon="-1.68937">
        <ele>105</ele>
        <time>2012-01-28T15:42:33Z</time>
      </trkpt>
      <trkpt lat="47.2727" lon="-1.6893">
        <ele>107</ele>
        <time>2012-01-28T15:42:44Z</time>
      </trkpt>
      <trkpt lat="47.27264" lon="-1.68926">
        <ele>107</ele>
        <time>2012-01-28T15:42:48Z</time>
      </trkpt>
      <trkpt lat="47.27258" lon="-1.68922">
        <ele>107</ele>
        <time>2012-01-28T15:42:52Z</time>
      </trkpt>
      <trkpt lat="47.27251" lon="-1.68915">
        <ele>108</ele>
        <time>2012-01-28T15:42:58Z</time>
      </trkpt>
      <trkpt lat="47.27244" lon="-1.68912">
        <ele>108</ele>
        <time>2012-01-28T15:43:04Z</time>
      </trkpt>
      <trkpt lat="47.27231" lon="-1.68905">
        <ele>107</ele>
        <time>2012-01-28T15:43:15Z</time>
      </trkpt>
      <trkpt lat="47.27224" lon="-1.68901">
        <ele>108</ele>
        <time>2012-01-28T15:43:20Z</time>
      </trkpt>
      <trkpt lat="47.2721" lon="-1.68893">
        <ele>109</ele>
        <time>2012-01-28T15:43:30Z</time>
      </trkpt>
      <trkpt lat="47.27203" lon="-1.68888">
        <ele>109</ele>
        <time>2012-01-28T15:43:35Z</time>
      </trkpt>
      <trkpt lat="47.27197" lon="-1.68885">
        <ele>108</ele>
        <time>2012-01-28T15:43:39Z</time>
      </trkpt>
      <trkpt lat="47.2719" lon="-1.68882">
        <ele>109</ele>
        <time>2012-01-28T15:43:44Z</time>
      </trkpt>
      <trkpt lat="47.27182" lon="-1.68878">
        <ele>106</ele>
        <time>2012-01-28T15:43:51Z</time>
      </trkpt>
      <trkpt lat="47.27176" lon="-1.68874">
        <ele>107</ele>
        <time>2012-01-28T15:43:56Z</time>
      </trkpt>
      <trkpt lat="47.27163" lon="-1.68864">
        <ele>108</ele>
        <time>2012-01-28T15:44:07Z</time>
      </trkpt>
      <trkpt lat="47.27157" lon="-1.68859">
        <ele>109</ele>
        <time>2012-01-28T15:44:12Z</time>
      </trkpt>
      <trkpt lat="47.27153" lon="-1.68851">
        <ele>109</ele>
        <time>2012-01-28T15:44:17Z</time>
      </trkpt>
      <trkpt lat="47.27148" lon="-1.68845">
        <ele>110</ele>
        <time>2012-01-28T15:44:23Z</time>
      </trkpt>
      <trkpt lat="47.27142" lon="-1.68839">
        <ele>111</ele>
        <time>2012-01-28T15:44:27Z</time>
      </trkpt>
      <trkpt lat="47.27136" lon="-1.6883">
        <ele>111</ele>
        <time>2012-01-28T15:44:31Z</time>
      </trkpt>
      <trkpt lat="47.27132" lon="-1.68823">
        <ele>110</ele>
        <time>2012-01-28T15:44:36Z</time>
      </trkpt>
      <trkpt lat="47.27126" lon="-1.68816">
        <ele>110</ele>
        <time>2012-01-28T15:44:41Z</time>
      </trkpt>
      <trkpt lat="47.2712" lon="-1.68809">
        <ele>111</ele>
        <time>2012-01-28T15:44:48Z</time>
      </trkpt>
      <trkpt lat="47.27114" lon="-1.68805">
        <ele>110</ele>
        <time>2012-01-28T15:44:54Z</time>
      </trkpt>
      <trkpt lat="47.27108" lon="-1.68798">
        <ele>110</ele>
        <time>2012-01-28T15:44:59Z</time>
      </trkpt>
      <trkpt lat="47.27103" lon="-1.68793">
        <ele>108</ele>
        <time>2012-01-28T15:45:04Z</time>
      </trkpt>
      <trkpt lat="47.27097" lon="-1.68787">
        <ele>107</ele>
        <time>2012-01-28T15:45:09Z</time>
      </trkpt>
      <trkpt lat="47.27092" lon="-1.6878">
        <ele>109</ele>
        <time>2012-01-28T15:45:17Z</time>
      </trkpt>
      <trkpt lat="47.27091" lon="-1.68769">
        <ele>110</ele>
        <time>2012-01-28T15:45:24Z</time>
      </trkpt>
      <trkpt lat="47.27092" lon="-1.6876">
        <ele>110</ele>
        <time>2012-01-28T15:45:29Z</time>
      </trkpt>
      <trkpt lat="47.27097" lon="-1.68752">
        <ele>109</ele>
        <time>2012-01-28T15:45:33Z</time>
      </trkpt>
      <trkpt lat="47.271" lon="-1.68744">
        <ele>110</ele>
        <time>2012-01-28T15:45:39Z</time>
      </trkpt>
      <trkpt lat="47.27105" lon="-1.68737">
        <ele>110</ele>
        <time>2012-01-28T15:45:44Z</time>
      </trkpt>
      <trkpt lat="47.2711" lon="-1.6873">
        <ele>110</ele>
        <time>2012-01-28T15:45:55Z</time>
      </trkpt>
      <trkpt lat="47.27117" lon="-1.68702">
        <ele>111</ele>
        <time>2012-01-28T15:46:07Z</time>
      </trkpt>
      <trkpt lat="47.27114" lon="-1.68692">
        <ele>110</ele>
        <time>2012-01-28T15:46:14Z</time>
      </trkpt>
      <trkpt lat="47.27111" lon="-1.68684">
        <ele>109</ele>
        <time>2012-01-28T15:46:18Z</time>
      </trkpt>
      <trkpt lat="47.27106" lon="-1.68677">
        <ele>107</ele>
        <time>2012-01-28T15:46:22Z</time>
      </trkpt>
      <trkpt lat="47.2709" lon="-1.6865">
        <ele>107</ele>
        <time>2012-01-28T15:46:47Z</time>
      </trkpt>
      <trkpt lat="47.27089" lon="-1.68625">
        <ele>107</ele>
        <time>2012-01-28T15:46:58Z</time>
      </trkpt>
      <trkpt lat="47.27089" lon="-1.68615">
        <ele>106</ele>
        <time>2012-01-28T15:47:01Z</time>
      </trkpt>
      <trkpt lat="47.27092" lon="-1.68605">
        <ele>107</ele>
        <time>2012-01-28T15:47:05Z</time>
      </trkpt>
      <trkpt lat="47.27094" lon="-1.68596">
        <ele>108</ele>
        <time>2012-01-28T15:47:08Z</time>
      </trkpt>
      <trkpt lat="47.27095" lon="-1.68585">
        <ele>107</ele>
        <time>2012-01-28T15:47:15Z</time>
      </trkpt>
      <trkpt lat="47.27098" lon="-1.68576">
        <ele>105</ele>
        <time>2012-01-28T15:47:19Z</time>
      </trkpt>
      <trkpt lat="47.27101" lon="-1.68566">
        <ele>104</ele>
        <time>2012-01-28T15:47:23Z</time>
      </trkpt>
      <trkpt lat="47.27101" lon="-1.68557">
        <ele>104</ele>
        <time>2012-01-28T15:47:28Z</time>
      </trkpt>
      <trkpt lat="47.27104" lon="-1.68548">
        <ele>105</ele>
        <time>2012-01-28T15:47:33Z</time>
      </trkpt>
      <trkpt lat="47.27103" lon="-1.68539">
        <ele>104</ele>
        <time>2012-01-28T15:47:37Z</time>
      </trkpt>
      <trkpt lat="47.27101" lon="-1.6853">
        <ele>100</ele>
        <time>2012-01-28T15:47:43Z</time>
      </trkpt>
      <trkpt lat="47.27095" lon="-1.68524">
        <ele>100</ele>
        <time>2012-01-28T15:47:50Z</time>
      </trkpt>
      <trkpt lat="47.27087" lon="-1.68521">
        <ele>101</ele>
        <time>2012-01-28T15:47:54Z</time>
      </trkpt>
      <trkpt lat="47.27081" lon="-1.68521">
        <ele>101</ele>
        <time>2012-01-28T15:47:58Z</time>
      </trkpt>
      <trkpt lat="47.27073" lon="-1.68521">
        <ele>102</ele>
        <time>2012-01-28T15:48:02Z</time>
      </trkpt>
      <trkpt lat="47.27066" lon="-1.68522">
        <ele>101</ele>
        <time>2012-01-28T15:48:05Z</time>
      </trkpt>
      <trkpt lat="47.27059" lon="-1.68524">
        <ele>100</ele>
        <time>2012-01-28T15:48:12Z</time>
      </trkpt>
      <trkpt lat="47.27051" lon="-1.68521">
        <ele>103</ele>
        <time>2012-01-28T15:48:20Z</time>
      </trkpt>
      <trkpt lat="47.27044" lon="-1.6852">
        <ele>101</ele>
        <time>2012-01-28T15:48:26Z</time>
      </trkpt>
      <trkpt lat="47.2704" lon="-1.68512">
        <ele>99</ele>
        <time>2012-01-28T15:48:33Z</time>
      </trkpt>
      <trkpt lat="47.2704" lon="-1.68502">
        <ele>101</ele>
        <time>2012-01-28T15:48:39Z</time>
      </trkpt>
      <trkpt lat="47.27023" lon="-1.6848">
        <ele>100</ele>
        <time>2012-01-28T15:49:03Z</time>
      </trkpt>
      <trkpt lat="47.27017" lon="-1.68473">
        <ele>101</ele>
        <time>2012-01-28T15:49:17Z</time>
      </trkpt>
      <trkpt lat="47.27009" lon="-1.68469">
        <ele>100</ele>
        <time>2012-01-28T15:49:19Z</time>
      </trkpt>
      <trkpt lat="47.26997" lon="-1.68448">
        <ele>101</ele>
        <time>2012-01-28T15:49:54Z</time>
      </trkpt>
      <trkpt lat="47.26995" lon="-1.68436">
        <ele>100</ele>
        <time>2012-01-28T15:49:57Z</time>
      </trkpt>
      <trkpt lat="47.26993" lon="-1.68424">
        <ele>101</ele>
        <time>2012-01-28T15:50:01Z</time>
      </trkpt>
      <trkpt lat="47.26991" lon="-1.68413">
        <ele>102</ele>
        <time>2012-01-28T15:50:05Z</time>
      </trkpt>
      <trkpt lat="47.26989" lon="-1.68403">
        <ele>103</ele>
        <time>2012-01-28T15:50:13Z</time>
      </trkpt>
      <trkpt lat="47.26998" lon="-1.68381">
        <ele>103</ele>
        <time>2012-01-28T15:50:38Z</time>
      </trkpt>
      <trkpt lat="47.27" lon="-1.68371">
        <ele>104</ele>
        <time>2012-01-28T15:50:41Z</time>
      </trkpt>
      <trkpt lat="47.27005" lon="-1.6836">
        <ele>102</ele>
        <time>2012-01-28T15:50:45Z</time>
      </trkpt>
      <trkpt lat="47.27015" lon="-1.68347">
        <ele>102</ele>
        <time>2012-01-28T15:50:50Z</time>
      </trkpt>
      <trkpt lat="47.27018" lon="-1.68337">
        <ele>102</ele>
        <time>2012-01-28T15:50:54Z</time>
      </trkpt>
      <trkpt lat="47.27027" lon="-1.68319">
        <ele>102</ele>
        <time>2012-01-28T15:51:02Z</time>
      </trkpt>
      <trkpt lat="47.27033" lon="-1.68315">
        <ele>102</ele>
        <time>2012-01-28T15:51:05Z</time>
      </trkpt>
      <trkpt lat="47.27037" lon="-1.68308">
        <ele>100</ele>
        <time>2012-01-28T15:51:09Z</time>
      </trkpt>
      <trkpt lat="47.27036" lon="-1.68296">
        <ele>99</ele>
        <time>2012-01-28T15:51:13Z</time>
      </trkpt>
      <trkpt lat="47.2704" lon="-1.68287">
        <ele>98</ele>
        <time>2012-01-28T15:51:17Z</time>
      </trkpt>
      <trkpt lat="47.27045" lon="-1.6828">
        <ele>98</ele>
        <time>2012-01-28T15:51:22Z</time>
      </trkpt>
      <trkpt lat="47.27049" lon="-1.6827">
        <ele>95</ele>
        <time>2012-01-28T15:51:29Z</time>
      </trkpt>
      <trkpt lat="47.27054" lon="-1.68261">
        <ele>97</ele>
        <time>2012-01-28T15:51:34Z</time>
      </trkpt>
      <trkpt lat="47.27064" lon="-1.68235">
        <ele>96</ele>
        <time>2012-01-28T15:51:50Z</time>
      </trkpt>
      <trkpt lat="47.27064" lon="-1.68226">
        <ele>94</ele>
        <time>2012-01-28T15:51:55Z</time>
      </trkpt>
      <trkpt lat="47.27066" lon="-1.68216">
        <ele>95</ele>
        <time>2012-01-28T15:52:04Z</time>
      </trkpt>
      <trkpt lat="47.27071" lon="-1.68205">
        <ele>95</ele>
        <time>2012-01-28T15:52:08Z</time>
      </trkpt>
      <trkpt lat="47.27072" lon="-1.68195">
        <ele>95</ele>
        <time>2012-01-28T15:52:12Z</time>
      </trkpt>
      <trkpt lat="47.27075" lon="-1.68186">
        <ele>92</ele>
        <time>2012-01-28T15:52:17Z</time>
      </trkpt>
      <trkpt lat="47.27069" lon="-1.68178">
        <ele>93</ele>
        <time>2012-01-28T15:52:37Z</time>
      </trkpt>
      <trkpt lat="47.27063" lon="-1.68169">
        <ele>91</ele>
        <time>2012-01-28T15:52:40Z</time>
      </trkpt>
      <trkpt lat="47.27057" lon="-1.68164">
        <ele>93</ele>
        <time>2012-01-28T15:52:44Z</time>
      </trkpt>
      <trkpt lat="47.27052" lon="-1.68156">
        <ele>92</ele>
        <time>2012-01-28T15:53:06Z</time>
      </trkpt>
      <trkpt lat="47.27049" lon="-1.68146">
        <ele>93</ele>
        <time>2012-01-28T15:53:12Z</time>
      </trkpt>
      <trkpt lat="47.27039" lon="-1.68131">
        <ele>95</ele>
        <time>2012-01-28T15:53:18Z</time>
      </trkpt>
      <trkpt lat="47.27035" lon="-1.68121">
        <ele>94</ele>
        <time>2012-01-28T15:53:25Z</time>
      </trkpt>
      <trkpt lat="47.2703" lon="-1.68101">
        <ele>95</ele>
        <time>2012-01-28T15:53:34Z</time>
      </trkpt>
      <trkpt lat="47.27025" lon="-1.68091">
        <ele>95</ele>
        <time>2012-01-28T15:53:37Z</time>
      </trkpt>
      <trkpt lat="47.27021" lon="-1.68081">
        <ele>95</ele>
        <time>2012-01-28T15:53:39Z</time>
      </trkpt>
      <trkpt lat="47.27018" lon="-1.6807">
        <ele>97</ele>
        <time>2012-01-28T15:53:45Z</time>
      </trkpt>
      <trkpt lat="47.2702" lon="-1.6806">
        <ele>97</ele>
        <time>2012-01-28T15:53:50Z</time>
      </trkpt>
      <trkpt lat="47.27022" lon="-1.68051">
        <ele>96</ele>
        <time>2012-01-28T15:53:55Z</time>
      </trkpt>
      <trkpt lat="47.27021" lon="-1.6803">
        <ele>93</ele>
        <time>2012-01-28T15:54:08Z</time>
      </trkpt>
      <trkpt lat="47.2702" lon="-1.68021">
        <ele>93</ele>
        <time>2012-01-28T15:54:13Z</time>
      </trkpt>
      <trkpt lat="47.27021" lon="-1.68">
        <ele>93</ele>
        <time>2012-01-28T15:54:22Z</time>
      </trkpt>
      <trkpt lat="47.27024" lon="-1.67992">
        <ele>92</ele>
        <time>2012-01-28T15:54:27Z</time>
      </trkpt>
      <trkpt lat="47.27024" lon="-1.67979">
        <ele>91</ele>
        <time>2012-01-28T15:54:35Z</time>
      </trkpt>
      <trkpt lat="47.27028" lon="-1.67971">
        <ele>91</ele>
        <time>2012-01-28T15:54:41Z</time>
      </trkpt>
      <trkpt lat="47.27031" lon="-1.67962">
        <ele>91</ele>
        <time>2012-01-28T15:54:48Z</time>
      </trkpt>
      <trkpt lat="47.27031" lon="-1.67952">
        <ele>91</ele>
        <time>2012-01-28T15:54:53Z</time>
      </trkpt>
      <trkpt lat="47.2703" lon="-1.67943">
        <ele>89</ele>
        <time>2012-01-28T15:54:56Z</time>
      </trkpt>
      <trkpt lat="47.27034" lon="-1.67935">
        <ele>89</ele>
        <time>2012-01-28T15:54:59Z</time>
      </trkpt>
      <trkpt lat="47.27037" lon="-1.67926">
        <ele>88</ele>
        <time>2012-01-28T15:55:03Z</time>
      </trkpt>
      <trkpt lat="47.27036" lon="-1.67915">
        <ele>87</ele>
        <time>2012-01-28T15:55:08Z</time>
      </trkpt>
      <trkpt lat="47.2704" lon="-1.67908">
        <ele>87</ele>
        <time>2012-01-28T15:55:12Z</time>
      </trkpt>
      <trkpt lat="47.27045" lon="-1.679">
        <ele>88</ele>
        <time>2012-01-28T15:55:15Z</time>
      </trkpt>
      <trkpt lat="47.27046" lon="-1.67891">
        <ele>87</ele>
        <time>2012-01-28T15:55:21Z</time>
      </trkpt>
      <trkpt lat="47.27042" lon="-1.67882">
        <ele>87</ele>
        <time>2012-01-28T15:55:24Z</time>
      </trkpt>
      <trkpt lat="47.2704" lon="-1.67873">
        <ele>86</ele>
        <time>2012-01-28T15:55:29Z</time>
      </trkpt>
      <trkpt lat="47.27043" lon="-1.67863">
        <ele>88</ele>
        <time>2012-01-28T15:55:34Z</time>
      </trkpt>
      <trkpt lat="47.27049" lon="-1.67856">
        <ele>88</ele>
        <time>2012-01-28T15:55:39Z</time>
      </trkpt>
      <trkpt lat="47.27052" lon="-1.67844">
        <ele>89</ele>
        <time>2012-01-28T15:55:57Z</time>
      </trkpt>
      <trkpt lat="47.27055" lon="-1.67824">
        <ele>92</ele>
        <time>2012-01-28T15:56:02Z</time>
      </trkpt>
      <trkpt lat="47.27057" lon="-1.67814">
        <ele>92</ele>
        <time>2012-01-28T15:56:06Z</time>
      </trkpt>
      <trkpt lat="47.27059" lon="-1.67802">
        <ele>90</ele>
        <time>2012-01-28T15:56:11Z</time>
      </trkpt>
      <trkpt lat="47.27066" lon="-1.67782">
        <ele>89</ele>
        <time>2012-01-28T15:56:18Z</time>
      </trkpt>
      <trkpt lat="47.2707" lon="-1.67772">
        <ele>91</ele>
        <time>2012-01-28T15:56:22Z</time>
      </trkpt>
      <trkpt lat="47.27074" lon="-1.67762">
        <ele>90</ele>
        <time>2012-01-28T15:56:27Z</time>
      </trkpt>
      <trkpt lat="47.27076" lon="-1.67752">
        <ele>88</ele>
        <time>2012-01-28T15:56:32Z</time>
      </trkpt>
      <trkpt lat="47.27079" lon="-1.67743">
        <ele>89</ele>
        <time>2012-01-28T15:56:41Z</time>
      </trkpt>
      <trkpt lat="47.27087" lon="-1.6772">
        <ele>84</ele>
        <time>2012-01-28T15:56:53Z</time>
      </trkpt>
      <trkpt lat="47.2709" lon="-1.67709">
        <ele>85</ele>
        <time>2012-01-28T15:56:57Z</time>
      </trkpt>
      <trkpt lat="47.2709" lon="-1.67699">
        <ele>85</ele>
        <time>2012-01-28T15:57:01Z</time>
      </trkpt>
      <trkpt lat="47.27093" lon="-1.67691">
        <ele>86</ele>
        <time>2012-01-28T15:57:04Z</time>
      </trkpt>
      <trkpt lat="47.27096" lon="-1.67682">
        <ele>88</ele>
        <time>2012-01-28T15:57:08Z</time>
      </trkpt>
      <trkpt lat="47.27098" lon="-1.67671">
        <ele>89</ele>
        <time>2012-01-28T15:57:12Z</time>
      </trkpt>
      <trkpt lat="47.27097" lon="-1.67662">
        <ele>89</ele>
        <time>2012-01-28T15:57:17Z</time>
      </trkpt>
      <trkpt lat="47.27098" lon="-1.6765">
        <ele>89</ele>
        <time>2012-01-28T15:57:22Z</time>
      </trkpt>
      <trkpt lat="47.27099" lon="-1.67641">
        <ele>90</ele>
        <time>2012-01-28T15:57:28Z</time>
      </trkpt>
      <trkpt lat="47.27096" lon="-1.67633">
        <ele>89</ele>
        <time>2012-01-28T15:57:32Z</time>
      </trkpt>
      <trkpt lat="47.27091" lon="-1.67624">
        <ele>90</ele>
        <time>2012-01-28T15:57:36Z</time>
      </trkpt>
      <trkpt lat="47.27088" lon="-1.67616">
        <ele>89</ele>
        <time>2012-01-28T15:57:45Z</time>
      </trkpt>
      <trkpt lat="47.27084" lon="-1.67607">
        <ele>91</ele>
        <time>2012-01-28T15:57:55Z</time>
      </trkpt>
      <trkpt lat="47.2708" lon="-1.67598">
        <ele>90</ele>
        <time>2012-01-28T15:58:02Z</time>
      </trkpt>
      <trkpt lat="47.27073" lon="-1.67578">
        <ele>91</ele>
        <time>2012-01-28T15:58:24Z</time>
      </trkpt>
      <trkpt lat="47.27072" lon="-1.67552">
        <ele>91</ele>
        <time>2012-01-28T15:58:41Z</time>
      </trkpt>
      <trkpt lat="47.27068" lon="-1.67528">
        <ele>89</ele>
        <time>2012-01-28T15:58:45Z</time>
      </trkpt>
      <trkpt lat="47.27063" lon="-1.67503">
        <ele>90</ele>
        <time>2012-01-28T15:58:49Z</time>
      </trkpt>
      <trkpt lat="47.27061" lon="-1.67492">
        <ele>87</ele>
        <time>2012-01-28T15:58:52Z</time>
      </trkpt>
      <trkpt lat="47.27063" lon="-1.67483">
        <ele>86</ele>
        <time>2012-01-28T15:58:59Z</time>
      </trkpt>
      <trkpt lat="47.2707" lon="-1.67467">
        <ele>87</ele>
        <time>2012-01-28T15:59:05Z</time>
      </trkpt>
      <trkpt lat="47.27075" lon="-1.67459">
        <ele>86</ele>
        <time>2012-01-28T15:59:09Z</time>
      </trkpt>
      <trkpt lat="47.2708" lon="-1.6745">
        <ele>85</ele>
        <time>2012-01-28T15:59:13Z</time>
      </trkpt>
      <trkpt lat="47.27078" lon="-1.67441">
        <ele>84</ele>
        <time>2012-01-28T15:59:16Z</time>
      </trkpt>
      <trkpt lat="47.27077" lon="-1.67431">
        <ele>83</ele>
        <time>2012-01-28T15:59:21Z</time>
      </trkpt>
      <trkpt lat="47.27076" lon="-1.67385">
        <ele>82</ele>
        <time>2012-01-28T15:59:50Z</time>
      </trkpt>
      <trkpt lat="47.27075" lon="-1.67376">
        <ele>84</ele>
        <time>2012-01-28T15:59:54Z</time>
      </trkpt>
      <trkpt lat="47.27077" lon="-1.67366">
        <ele>87</ele>
        <time>2012-01-28T16:00:11Z</time>
      </trkpt>
      <trkpt lat="47.27087" lon="-1.67332">
        <ele>85</ele>
        <time>2012-01-28T16:00:17Z</time>
      </trkpt>
      <trkpt lat="47.2709" lon="-1.67323">
        <ele>83</ele>
        <time>2012-01-28T16:00:19Z</time>
      </trkpt>
      <trkpt lat="47.2709" lon="-1.67313">
        <ele>84</ele>
        <time>2012-01-28T16:00:23Z</time>
      </trkpt>
      <trkpt lat="47.27091" lon="-1.67303">
        <ele>83</ele>
        <time>2012-01-28T16:00:33Z</time>
      </trkpt>
      <trkpt lat="47.27086" lon="-1.67286">
        <ele>82</ele>
        <time>2012-01-28T16:00:46Z</time>
      </trkpt>
      <trkpt lat="47.27084" lon="-1.67274">
        <ele>84</ele>
        <time>2012-01-28T16:00:50Z</time>
      </trkpt>
      <trkpt lat="47.27081" lon="-1.67264">
        <ele>86</ele>
        <time>2012-01-28T16:00:57Z</time>
      </trkpt>
      <trkpt lat="47.27072" lon="-1.67258">
        <ele>85</ele>
        <time>2012-01-28T16:01:05Z</time>
      </trkpt>
      <trkpt lat="47.27058" lon="-1.67245">
        <ele>84</ele>
        <time>2012-01-28T16:01:10Z</time>
      </trkpt>
      <trkpt lat="47.27051" lon="-1.67238">
        <ele>83</ele>
        <time>2012-01-28T16:01:12Z</time>
      </trkpt>
      <trkpt lat="47.27043" lon="-1.67235">
        <ele>83</ele>
        <time>2012-01-28T16:01:16Z</time>
      </trkpt>
      <trkpt lat="47.27029" lon="-1.67231">
        <ele>82</ele>
        <time>2012-01-28T16:01:22Z</time>
      </trkpt>
      <trkpt lat="47.27022" lon="-1.6723">
        <ele>81</ele>
        <time>2012-01-28T16:01:25Z</time>
      </trkpt>
      <trkpt lat="47.27016" lon="-1.67228">
        <ele>81</ele>
        <time>2012-01-28T16:01:28Z</time>
      </trkpt>
      <trkpt lat="47.27008" lon="-1.67227">
        <ele>79</ele>
        <time>2012-01-28T16:01:32Z</time>
      </trkpt>
      <trkpt lat="47.27" lon="-1.67226">
        <ele>81</ele>
        <time>2012-01-28T16:01:39Z</time>
      </trkpt>
      <trkpt lat="47.26994" lon="-1.6723">
        <ele>81</ele>
        <time>2012-01-28T16:01:46Z</time>
      </trkpt>
      <trkpt lat="47.26987" lon="-1.6723">
        <ele>79</ele>
        <time>2012-01-28T16:01:50Z</time>
      </trkpt>
      <trkpt lat="47.26981" lon="-1.6723">
        <ele>78</ele>
        <time>2012-01-28T16:01:55Z</time>
      </trkpt>
      <trkpt lat="47.26973" lon="-1.67235">
        <ele>79</ele>
        <time>2012-01-28T16:02:02Z</time>
      </trkpt>
      <trkpt lat="47.2697" lon="-1.67244">
        <ele>79</ele>
        <time>2012-01-28T16:02:07Z</time>
      </trkpt>
      <trkpt lat="47.26963" lon="-1.67244">
        <ele>79</ele>
        <time>2012-01-28T16:02:12Z</time>
      </trkpt>
      <trkpt lat="47.26957" lon="-1.6725">
        <ele>81</ele>
        <time>2012-01-28T16:02:17Z</time>
      </trkpt>
      <trkpt lat="47.2695" lon="-1.67254">
        <ele>82</ele>
        <time>2012-01-28T16:02:26Z</time>
      </trkpt>
      <trkpt lat="47.26929" lon="-1.67249">
        <ele>81</ele>
        <time>2012-01-28T16:02:45Z</time>
      </trkpt>
      <trkpt lat="47.26917" lon="-1.67258">
        <ele>79</ele>
        <time>2012-01-28T16:02:52Z</time>
      </trkpt>
      <trkpt lat="47.26909" lon="-1.67258">
        <ele>78</ele>
        <time>2012-01-28T16:02:56Z</time>
      </trkpt>
      <trkpt lat="47.26903" lon="-1.67264">
        <ele>77</ele>
        <time>2012-01-28T16:03:00Z</time>
      </trkpt>
      <trkpt lat="47.26896" lon="-1.67266">
        <ele>77</ele>
        <time>2012-01-28T16:03:05Z</time>
      </trkpt>
      <trkpt lat="47.26889" lon="-1.67264">
        <ele>77</ele>
        <time>2012-01-28T16:03:10Z</time>
      </trkpt>
      <trkpt lat="47.26883" lon="-1.67264">
        <ele>77</ele>
        <time>2012-01-28T16:03:16Z</time>
      </trkpt>
      <trkpt lat="47.26876" lon="-1.67262">
        <ele>78</ele>
        <time>2012-01-28T16:03:20Z</time>
      </trkpt>
      <trkpt lat="47.26869" lon="-1.67259">
        <ele>77</ele>
        <time>2012-01-28T16:03:28Z</time>
      </trkpt>
      <trkpt lat="47.26857" lon="-1.67211">
        <ele>78</ele>
        <time>2012-01-28T16:04:09Z</time>
      </trkpt>
      <trkpt lat="47.26855" lon="-1.67197">
        <ele>78</ele>
        <time>2012-01-28T16:04:12Z</time>
      </trkpt>
      <trkpt lat="47.26853" lon="-1.67185">
        <ele>78</ele>
        <time>2012-01-28T16:04:15Z</time>
      </trkpt>
      <trkpt lat="47.26853" lon="-1.67174">
        <ele>80</ele>
        <time>2012-01-28T16:04:19Z</time>
      </trkpt>
      <trkpt lat="47.26852" lon="-1.67165">
        <ele>79</ele>
        <time>2012-01-28T16:04:23Z</time>
      </trkpt>
      <trkpt lat="47.26845" lon="-1.67156">
        <ele>81</ele>
        <time>2012-01-28T16:04:32Z</time>
      </trkpt>
      <trkpt lat="47.26838" lon="-1.67152">
        <ele>80</ele>
        <time>2012-01-28T16:04:40Z</time>
      </trkpt>
      <trkpt lat="47.26821" lon="-1.67147">
        <ele>79</ele>
        <time>2012-01-28T16:04:46Z</time>
      </trkpt>
      <trkpt lat="47.26814" lon="-1.67145">
        <ele>79</ele>
        <time>2012-01-28T16:04:51Z</time>
      </trkpt>
      <trkpt lat="47.26807" lon="-1.67142">
        <ele>80</ele>
        <time>2012-01-28T16:04:56Z</time>
      </trkpt>
      <trkpt lat="47.268" lon="-1.67138">
        <ele>83</ele>
        <time>2012-01-28T16:05:07Z</time>
      </trkpt>
      <trkpt lat="47.26795" lon="-1.67132">
        <ele>86</ele>
        <time>2012-01-28T16:05:13Z</time>
      </trkpt>
      <trkpt lat="47.26795" lon="-1.67132">
        <ele>38.6</ele>
        <time>2012-01-28T16:05:25Z</time>
      </trkpt>
    </trkseg>
  </trk>
</gpx>